﻿<?xml version="1.0" encoding="utf-8"?><gpx creator="Garmin Desktop App" version="1.1" xsi:schemaLocation="http://www.topografix.com/GPX/1/1 http://www.topografix.com/GPX/1/1/gpx.xsd http://www.garmin.com/xmlschemas/WaypointExtension/v1 http://www8.garmin.com/xmlschemas/WaypointExtensionv1.xsd http://www.garmin.com/xmlschemas/TrackPointExtension/v1 http://www.garmin.com/xmlschemas/TrackPointExtensionv1.xsd http://www.garmin.com/xmlschemas/GpxExtensions/v3 http://www8.garmin.com/xmlschemas/GpxExtensionsv3.xsd http://www.garmin.com/xmlschemas/ActivityExtension/v1 http://www8.garmin.com/xmlschemas/ActivityExtensionv1.xsd http://www.garmin.com/xmlschemas/AdventuresExtensions/v1 http://www8.garmin.com/xmlschemas/AdventuresExtensionv1.xsd http://www.garmin.com/xmlschemas/PressureExtension/v1 http://www.garmin.com/xmlschemas/PressureExtensionv1.xsd http://www.garmin.com/xmlschemas/TripExtensions/v1 http://www.garmin.com/xmlschemas/TripExtensionsv1.xsd http://www.garmin.com/xmlschemas/TripMetaDataExtensions/v1 http://www.garmin.com/xmlschemas/TripMetaDataExtensionsv1.xsd http://www.garmin.com/xmlschemas/ViaPointTransportationModeExtensions/v1 http://www.garmin.com/xmlschemas/ViaPointTransportationModeExtensionsv1.xsd http://www.garmin.com/xmlschemas/CreationTimeExtension/v1 http://www.garmin.com/xmlschemas/CreationTimeExtensionsv1.xsd http://www.garmin.com/xmlschemas/AccelerationExtension/v1 http://www.garmin.com/xmlschemas/AccelerationExtensionv1.xsd http://www.garmin.com/xmlschemas/PowerExtension/v1 http://www.garmin.com/xmlschemas/PowerExtensionv1.xsd http://www.garmin.com/xmlschemas/VideoExtension/v1 http://www.garmin.com/xmlschemas/VideoExtensionv1.xsd" xmlns="http://www.topografix.com/GPX/1/1" xmlns:xsi="http://www.w3.org/2001/XMLSchema-instance" xmlns:wptx1="http://www.garmin.com/xmlschemas/WaypointExtension/v1" xmlns:gpxtrx="http://www.garmin.com/xmlschemas/GpxExtensions/v3" xmlns:gpxtpx="http://www.garmin.com/xmlschemas/TrackPointExtension/v1" xmlns:gpxx="http://www.garmin.com/xmlschemas/GpxExtensions/v3" xmlns:trp="http://www.garmin.com/xmlschemas/TripExtensions/v1" xmlns:adv="http://www.garmin.com/xmlschemas/AdventuresExtensions/v1" xmlns:prs="http://www.garmin.com/xmlschemas/PressureExtension/v1" xmlns:tmd="http://www.garmin.com/xmlschemas/TripMetaDataExtensions/v1" xmlns:vptm="http://www.garmin.com/xmlschemas/ViaPointTransportationModeExtensions/v1" xmlns:ctx="http://www.garmin.com/xmlschemas/CreationTimeExtension/v1" xmlns:gpxacc="http://www.garmin.com/xmlschemas/AccelerationExtension/v1" xmlns:gpxpx="http://www.garmin.com/xmlschemas/PowerExtension/v1" xmlns:vidx1="http://www.garmin.com/xmlschemas/VideoExtension/v1">

  <metadata>
    <link href="http://www.garmin.com">
      <text>Garmin International</text>
    </link>
    <time>2020-02-17T11:21:41Z</time>
    <bounds maxlat="46.262348145246506" maxlon="8.025259394198656" minlat="46.245772931724787" minlon="8.009409131482244" />
  </metadata>

  <trk>
    <name>staldhorn2020-02-16</name>
    <extensions>
      <gpxx:TrackExtension>
        <gpxx:DisplayColor>Yellow</gpxx:DisplayColor>
      </gpxx:TrackExtension>
      <gpxtrkx:TrackStatsExtension xmlns:gpxtrkx="http://www.garmin.com/xmlschemas/TrackStatsExtension/v1">
        <gpxtrkx:Distance>7070</gpxtrkx:Distance>
        <gpxtrkx:TotalElapsedTime>21615</gpxtrkx:TotalElapsedTime>
        <gpxtrkx:MovingTime>9404</gpxtrkx:MovingTime>
        <gpxtrkx:StoppedTime>12203</gpxtrkx:StoppedTime>
        <gpxtrkx:MovingSpeed>1</gpxtrkx:MovingSpeed>
        <gpxtrkx:MaxSpeed>2</gpxtrkx:MaxSpeed>
        <gpxtrkx:MaxElevation>2467</gpxtrkx:MaxElevation>
        <gpxtrkx:MinElevation>1985</gpxtrkx:MinElevation>
        <gpxtrkx:Ascent>515</gpxtrkx:Ascent>
        <gpxtrkx:Descent>517</gpxtrkx:Descent>
        <gpxtrkx:AvgAscentRate>0</gpxtrkx:AvgAscentRate>
        <gpxtrkx:MaxAscentRate>0</gpxtrkx:MaxAscentRate>
        <gpxtrkx:AvgDescentRate>0</gpxtrkx:AvgDescentRate>
        <gpxtrkx:MaxDescentRate>-0</gpxtrkx:MaxDescentRate>
      </gpxtrkx:TrackStatsExtension>
    </extensions>
    <trkseg>
      <trkpt lat="46.248342655599117" lon="8.024299163371325">
        <ele>1987.1300000000001</ele>
        <time>2020-02-16T08:59:15Z</time>
      </trkpt>
      <trkpt lat="46.248344080522656" lon="8.024298325181007">
        <ele>1987.1300000000001</ele>
        <time>2020-02-16T08:59:16Z</time>
      </trkpt>
      <trkpt lat="46.248345840722322" lon="8.024314418435097">
        <ele>1993.1400000000001</ele>
        <time>2020-02-16T08:59:19Z</time>
      </trkpt>
      <trkpt lat="46.248350031673908" lon="8.02431701682508">
        <ele>1993.1400000000001</ele>
        <time>2020-02-16T08:59:20Z</time>
      </trkpt>
      <trkpt lat="46.248394707217813" lon="8.024327158927918">
        <ele>1992.3800000000001</ele>
        <time>2020-02-16T08:59:27Z</time>
      </trkpt>
      <trkpt lat="46.248440304771066" lon="8.024329002946615">
        <ele>1991.5</ele>
        <time>2020-02-16T08:59:31Z</time>
      </trkpt>
      <trkpt lat="46.248535271733999" lon="8.024297906085849">
        <ele>1989.6600000000001</ele>
        <time>2020-02-16T08:59:39Z</time>
      </trkpt>
      <trkpt lat="46.248690420761704" lon="8.0241743568331">
        <ele>1990.0699999999999</ele>
        <time>2020-02-16T08:59:55Z</time>
      </trkpt>
      <trkpt lat="46.248736185953021" lon="8.024148289114237">
        <ele>1992.48</ele>
        <time>2020-02-16T09:00:04Z</time>
      </trkpt>
      <trkpt lat="46.248764097690582" lon="8.024145020172">
        <ele>1993.1400000000001</ele>
        <time>2020-02-16T09:00:07Z</time>
      </trkpt>
      <trkpt lat="46.248855041339993" lon="8.024139991030097">
        <ele>1996.8</ele>
        <time>2020-02-16T09:00:18Z</time>
      </trkpt>
      <trkpt lat="46.248932322487235" lon="8.02417678758502">
        <ele>1998.6600000000001</ele>
        <time>2020-02-16T09:00:27Z</time>
      </trkpt>
      <trkpt lat="46.24901320785284" lon="8.024180475622416">
        <ele>1995.6500000000001</ele>
        <time>2020-02-16T09:00:35Z</time>
      </trkpt>
      <trkpt lat="46.249115467071533" lon="8.024179469794035">
        <ele>1995.0699999999999</ele>
        <time>2020-02-16T09:00:46Z</time>
      </trkpt>
      <trkpt lat="46.249216552823782" lon="8.024168070405722">
        <ele>1994.96</ele>
        <time>2020-02-16T09:00:58Z</time>
      </trkpt>
      <trkpt lat="46.24930003657937" lon="8.024174608290196">
        <ele>1995.26</ele>
        <time>2020-02-16T09:01:10Z</time>
      </trkpt>
      <trkpt lat="46.249361727386713" lon="8.024214589968324">
        <ele>1995.6199999999999</ele>
        <time>2020-02-16T09:01:22Z</time>
      </trkpt>
      <trkpt lat="46.249393746256828" lon="8.024256750941277">
        <ele>1995.79</ele>
        <time>2020-02-16T09:01:32Z</time>
      </trkpt>
      <trkpt lat="46.249398440122604" lon="8.02426328882575">
        <ele>1995.1800000000001</ele>
        <time>2020-02-16T09:01:43Z</time>
      </trkpt>
      <trkpt lat="46.249395087361336" lon="8.024270161986351">
        <ele>1994.9400000000001</ele>
        <time>2020-02-16T09:02:01Z</time>
      </trkpt>
      <trkpt lat="46.24939039349556" lon="8.024272006005049">
        <ele>1994.73</ele>
        <time>2020-02-16T09:02:20Z</time>
      </trkpt>
      <trkpt lat="46.249381089583039" lon="8.024274939671159">
        <ele>1994.75</ele>
        <time>2020-02-16T09:02:37Z</time>
      </trkpt>
      <trkpt lat="46.249377653002739" lon="8.024278879165649">
        <ele>1995.03</ele>
        <time>2020-02-16T09:03:06Z</time>
      </trkpt>
      <trkpt lat="46.24937673099339" lon="8.024281561374664">
        <ele>1994.45</ele>
        <time>2020-02-16T09:03:21Z</time>
      </trkpt>
      <trkpt lat="46.249379245564342" lon="8.024280890822411">
        <ele>1995.1300000000001</ele>
        <time>2020-02-16T09:03:37Z</time>
      </trkpt>
      <trkpt lat="46.249386956915259" lon="8.024274688214064">
        <ele>1995.1500000000001</ele>
        <time>2020-02-16T09:04:11Z</time>
      </trkpt>
      <trkpt lat="46.249386286363006" lon="8.024276532232761">
        <ele>1994.8800000000001</ele>
        <time>2020-02-16T09:04:32Z</time>
      </trkpt>
      <trkpt lat="46.249382011592388" lon="8.024285417050123">
        <ele>1994.55</ele>
        <time>2020-02-16T09:05:03Z</time>
      </trkpt>
      <trkpt lat="46.249384274706244" lon="8.024280723184347">
        <ele>1995.4300000000001</ele>
        <time>2020-02-16T09:05:24Z</time>
      </trkpt>
      <trkpt lat="46.249386873096228" lon="8.024275274947286">
        <ele>1995.3900000000001</ele>
        <time>2020-02-16T09:05:49Z</time>
      </trkpt>
      <trkpt lat="46.249386873096228" lon="8.024272173643112">
        <ele>1995.1600000000001</ele>
        <time>2020-02-16T09:06:14Z</time>
      </trkpt>
      <trkpt lat="46.249385364353657" lon="8.024275191128254">
        <ele>1995.01</ele>
        <time>2020-02-16T09:06:43Z</time>
      </trkpt>
      <trkpt lat="46.249383687973022" lon="8.024277873337269">
        <ele>1994.6500000000001</ele>
        <time>2020-02-16T09:07:08Z</time>
      </trkpt>
      <trkpt lat="46.249387711286545" lon="8.024269659072161">
        <ele>1994.76</ele>
        <time>2020-02-16T09:07:42Z</time>
      </trkpt>
      <trkpt lat="46.249388381838799" lon="8.024271838366985">
        <ele>1994.8699999999999</ele>
        <time>2020-02-16T09:08:03Z</time>
      </trkpt>
      <trkpt lat="46.249380921944976" lon="8.024282986298204">
        <ele>1994.9400000000001</ele>
        <time>2020-02-16T09:08:32Z</time>
      </trkpt>
      <trkpt lat="46.249378155916929" lon="8.024288015440106">
        <ele>1994.73</ele>
        <time>2020-02-16T09:08:54Z</time>
      </trkpt>
      <trkpt lat="46.249375725165009" lon="8.024297403171659">
        <ele>1995.24</ele>
        <time>2020-02-16T09:09:15Z</time>
      </trkpt>
      <trkpt lat="46.249381424859166" lon="8.024300923570991">
        <ele>1994.8</ele>
        <time>2020-02-16T09:09:38Z</time>
      </trkpt>
      <trkpt lat="46.249376395717263" lon="8.024303019046783">
        <ele>1994.9200000000001</ele>
        <time>2020-02-16T09:09:55Z</time>
      </trkpt>
      <trkpt lat="46.249376144260168" lon="8.024300504475832">
        <ele>1994.75</ele>
        <time>2020-02-16T09:10:14Z</time>
      </trkpt>
      <trkpt lat="46.249375892803073" lon="8.024295978248119">
        <ele>1994.53</ele>
        <time>2020-02-16T09:10:37Z</time>
      </trkpt>
      <trkpt lat="46.249377988278866" lon="8.024298911914229">
        <ele>1994.73</ele>
        <time>2020-02-16T09:11:03Z</time>
      </trkpt>
      <trkpt lat="46.249374048784375" lon="8.024300504475832">
        <ele>1995.28</ele>
        <time>2020-02-16T09:11:21Z</time>
      </trkpt>
      <trkpt lat="46.249371953308582" lon="8.024300253018737">
        <ele>1994.8</ele>
        <time>2020-02-16T09:11:36Z</time>
      </trkpt>
      <trkpt lat="46.249373126775026" lon="8.024283405393362">
        <ele>1995</ele>
        <time>2020-02-16T09:11:49Z</time>
      </trkpt>
      <trkpt lat="46.249393494799733" lon="8.024238646030426">
        <ele>1995.27</ele>
        <time>2020-02-16T09:11:58Z</time>
      </trkpt>
      <trkpt lat="46.249508075416088" lon="8.02413672208786">
        <ele>1996.22</ele>
        <time>2020-02-16T09:12:13Z</time>
      </trkpt>
      <trkpt lat="46.24961812980473" lon="8.024046281352639">
        <ele>1997.27</ele>
        <time>2020-02-16T09:12:29Z</time>
      </trkpt>
      <trkpt lat="46.249662972986698" lon="8.023884426802397">
        <ele>1998.3499999999999</ele>
        <time>2020-02-16T09:12:43Z</time>
      </trkpt>
      <trkpt lat="46.249687615782022" lon="8.023704132065177">
        <ele>1999.5</ele>
        <time>2020-02-16T09:12:58Z</time>
      </trkpt>
      <trkpt lat="46.249721562489867" lon="8.023581504821777">
        <ele>2001.77</ele>
        <time>2020-02-16T09:13:13Z</time>
      </trkpt>
      <trkpt lat="46.249759532511234" lon="8.023518892005086">
        <ele>2003.97</ele>
        <time>2020-02-16T09:13:25Z</time>
      </trkpt>
      <trkpt lat="46.249822732061148" lon="8.023521406576037">
        <ele>2005.96</ele>
        <time>2020-02-16T09:13:40Z</time>
      </trkpt>
      <trkpt lat="46.249887859448791" lon="8.023531464859843">
        <ele>2008.01</ele>
        <time>2020-02-16T09:13:55Z</time>
      </trkpt>
      <trkpt lat="46.249933037906885" lon="8.023582845926285">
        <ele>2009.8599999999999</ele>
        <time>2020-02-16T09:14:09Z</time>
      </trkpt>
      <trkpt lat="46.24996212311089" lon="8.023676052689552">
        <ele>2013</ele>
        <time>2020-02-16T09:14:23Z</time>
      </trkpt>
      <trkpt lat="46.250006379559636" lon="8.02372575737536">
        <ele>2013.8</ele>
        <time>2020-02-16T09:14:35Z</time>
      </trkpt>
      <trkpt lat="46.250015934929252" lon="8.02370622754097">
        <ele>2014.8699999999999</ele>
        <time>2020-02-16T09:14:40Z</time>
      </trkpt>
      <trkpt lat="46.250018868595362" lon="8.023696336895227">
        <ele>2016.4200000000001</ele>
        <time>2020-02-16T09:14:44Z</time>
      </trkpt>
      <trkpt lat="46.250031525269151" lon="8.023681500926614">
        <ele>2013.9300000000001</ele>
        <time>2020-02-16T09:14:59Z</time>
      </trkpt>
      <trkpt lat="46.250036219134927" lon="8.023639926686883">
        <ele>2015.26</ele>
        <time>2020-02-16T09:15:18Z</time>
      </trkpt>
      <trkpt lat="46.250042924657464" lon="8.023617714643478">
        <ele>2014.3499999999999</ele>
        <time>2020-02-16T09:15:20Z</time>
      </trkpt>
      <trkpt lat="46.250064969062805" lon="8.023491064086556">
        <ele>2014.8199999999999</ele>
        <time>2020-02-16T09:15:31Z</time>
      </trkpt>
      <trkpt lat="46.250069830566645" lon="8.023341195657849">
        <ele>2016.3699999999999</ele>
        <time>2020-02-16T09:15:44Z</time>
      </trkpt>
      <trkpt lat="46.250077709555626" lon="8.023205241188407">
        <ele>2017.78</ele>
        <time>2020-02-16T09:15:57Z</time>
      </trkpt>
      <trkpt lat="46.250081229954958" lon="8.023036932572722">
        <ele>2019.74</ele>
        <time>2020-02-16T09:16:12Z</time>
      </trkpt>
      <trkpt lat="46.25007351860404" lon="8.022923273965716">
        <ele>2022.1500000000001</ele>
        <time>2020-02-16T09:16:26Z</time>
      </trkpt>
      <trkpt lat="46.250076619908214" lon="8.022852363064885">
        <ele>2025.03</ele>
        <time>2020-02-16T09:16:36Z</time>
      </trkpt>
      <trkpt lat="46.25007301568985" lon="8.022755216807127">
        <ele>2026.3299999999999</ele>
        <time>2020-02-16T09:16:48Z</time>
      </trkpt>
      <trkpt lat="46.250074440613389" lon="8.022663183510304">
        <ele>2028.8800000000001</ele>
        <time>2020-02-16T09:16:58Z</time>
      </trkpt>
      <trkpt lat="46.250083493068814" lon="8.022589338943362">
        <ele>2030.27</ele>
        <time>2020-02-16T09:17:12Z</time>
      </trkpt>
      <trkpt lat="46.250096904113889" lon="8.0224734172225">
        <ele>2027.99</ele>
        <time>2020-02-16T09:17:23Z</time>
      </trkpt>
      <trkpt lat="46.250116266310215" lon="8.02230971865356">
        <ele>2028.48</ele>
        <time>2020-02-16T09:17:37Z</time>
      </trkpt>
      <trkpt lat="46.250129090622067" lon="8.02220662124455">
        <ele>2030.76</ele>
        <time>2020-02-16T09:17:51Z</time>
      </trkpt>
      <trkpt lat="46.250131521373987" lon="8.022204106673598">
        <ele>2030.6800000000001</ele>
        <time>2020-02-16T09:18:04Z</time>
      </trkpt>
      <trkpt lat="46.250131353735924" lon="8.022191282361746">
        <ele>2031.0999999999999</ele>
        <time>2020-02-16T09:18:18Z</time>
      </trkpt>
      <trkpt lat="46.250133952125907" lon="8.022196060046554">
        <ele>2030.79</ele>
        <time>2020-02-16T09:18:36Z</time>
      </trkpt>
      <trkpt lat="46.250139484182" lon="8.022199831902981">
        <ele>2030.8299999999999</ele>
        <time>2020-02-16T09:19:11Z</time>
      </trkpt>
      <trkpt lat="46.250135377049446" lon="8.022191282361746">
        <ele>2031.1300000000001</ele>
        <time>2020-02-16T09:19:20Z</time>
      </trkpt>
      <trkpt lat="46.250137723982334" lon="8.022191366180778">
        <ele>2031.25</ele>
        <time>2020-02-16T09:19:51Z</time>
      </trkpt>
      <trkpt lat="46.250139316543937" lon="8.022192874923348">
        <ele>2031.3099999999999</ele>
        <time>2020-02-16T09:20:06Z</time>
      </trkpt>
      <trkpt lat="46.250137221068144" lon="8.022155575454235">
        <ele>2031.1099999999999</ele>
        <time>2020-02-16T09:20:19Z</time>
      </trkpt>
      <trkpt lat="46.250147866085172" lon="8.022021632641554">
        <ele>2032.46</ele>
        <time>2020-02-16T09:20:32Z</time>
      </trkpt>
      <trkpt lat="46.250156750902534" lon="8.021858185529709">
        <ele>2034.02</ele>
        <time>2020-02-16T09:20:47Z</time>
      </trkpt>
      <trkpt lat="46.250167395919561" lon="8.021719297394157">
        <ele>2035.76</ele>
        <time>2020-02-16T09:21:01Z</time>
      </trkpt>
      <trkpt lat="46.250224057585001" lon="8.021557359024882">
        <ele>2037.5799999999999</ele>
        <time>2020-02-16T09:21:18Z</time>
      </trkpt>
      <trkpt lat="46.250277701765299" lon="8.021369855850935">
        <ele>2038.6600000000001</ele>
        <time>2020-02-16T09:21:36Z</time>
      </trkpt>
      <trkpt lat="46.250336207449436" lon="8.021216131746769">
        <ele>2040.3800000000001</ele>
        <time>2020-02-16T09:21:53Z</time>
      </trkpt>
      <trkpt lat="46.250383481383324" lon="8.021092750132084">
        <ele>2040.9100000000001</ele>
        <time>2020-02-16T09:22:05Z</time>
      </trkpt>
      <trkpt lat="46.250409046187997" lon="8.020983701571822">
        <ele>2041.3299999999999</ele>
        <time>2020-02-16T09:22:17Z</time>
      </trkpt>
      <trkpt lat="46.250415416434407" lon="8.020961908623576">
        <ele>2041.9000000000001</ele>
        <time>2020-02-16T09:22:23Z</time>
      </trkpt>
      <trkpt lat="46.250426396727562" lon="8.020925112068653">
        <ele>2041.0999999999999</ele>
        <time>2020-02-16T09:22:26Z</time>
      </trkpt>
      <trkpt lat="46.250470066443086" lon="8.020734507590532">
        <ele>2037.98</ele>
        <time>2020-02-16T09:22:41Z</time>
      </trkpt>
      <trkpt lat="46.250515999272466" lon="8.020520685240626">
        <ele>2036.74</ele>
        <time>2020-02-16T09:22:57Z</time>
      </trkpt>
      <trkpt lat="46.250567296519876" lon="8.020332092419267">
        <ele>2036.1800000000001</ele>
        <time>2020-02-16T09:23:12Z</time>
      </trkpt>
      <trkpt lat="46.25061834231019" lon="8.020144589245319">
        <ele>2035.6900000000001</ele>
        <time>2020-02-16T09:23:27Z</time>
      </trkpt>
      <trkpt lat="46.250669974833727" lon="8.019956331700087">
        <ele>2036.2</ele>
        <time>2020-02-16T09:23:42Z</time>
      </trkpt>
      <trkpt lat="46.250703250989318" lon="8.019790202379227">
        <ele>2036.5</ele>
        <time>2020-02-16T09:23:55Z</time>
      </trkpt>
      <trkpt lat="46.250753039494157" lon="8.01957000978291">
        <ele>2035.79</ele>
        <time>2020-02-16T09:24:12Z</time>
      </trkpt>
      <trkpt lat="46.250792853534222" lon="8.019396923482418">
        <ele>2036.51</ele>
        <time>2020-02-16T09:24:26Z</time>
      </trkpt>
      <trkpt lat="46.250831745564938" lon="8.019214700907469">
        <ele>2038</ele>
        <time>2020-02-16T09:24:42Z</time>
      </trkpt>
      <trkpt lat="46.2508509401232" lon="8.019105149433017">
        <ele>2039.3800000000001</ele>
        <time>2020-02-16T09:24:55Z</time>
      </trkpt>
      <trkpt lat="46.250864267349243" lon="8.019103305414319">
        <ele>2039.9400000000001</ele>
        <time>2020-02-16T09:25:05Z</time>
      </trkpt>
      <trkpt lat="46.250838367268443" lon="8.019111938774586">
        <ele>2039.9400000000001</ele>
        <time>2020-02-16T09:25:17Z</time>
      </trkpt>
      <trkpt lat="46.250842809677124" lon="8.019110346212983">
        <ele>2039.7</ele>
        <time>2020-02-16T09:25:31Z</time>
      </trkpt>
      <trkpt lat="46.250840714201331" lon="8.019100958481431">
        <ele>2039.97</ele>
        <time>2020-02-16T09:25:50Z</time>
      </trkpt>
      <trkpt lat="46.250864686444402" lon="8.019063239917159">
        <ele>2039.28</ele>
        <time>2020-02-16T09:26:08Z</time>
      </trkpt>
      <trkpt lat="46.250887652859092" lon="8.019045805558562">
        <ele>2040.73</ele>
        <time>2020-02-16T09:26:19Z</time>
      </trkpt>
      <trkpt lat="46.250887317582965" lon="8.019048655405641">
        <ele>2040.1800000000001</ele>
        <time>2020-02-16T09:26:46Z</time>
      </trkpt>
      <trkpt lat="46.250906260684133" lon="8.019019905477762">
        <ele>2039.6500000000001</ele>
        <time>2020-02-16T09:27:10Z</time>
      </trkpt>
      <trkpt lat="46.250932244583964" lon="8.018997777253389">
        <ele>2041.3199999999999</ele>
        <time>2020-02-16T09:27:16Z</time>
      </trkpt>
      <trkpt lat="46.250985972583294" lon="8.018973302096129">
        <ele>2042.26</ele>
        <time>2020-02-16T09:27:31Z</time>
      </trkpt>
      <trkpt lat="46.251078173518181" lon="8.019002135843039">
        <ele>2043.8800000000001</ele>
        <time>2020-02-16T09:27:44Z</time>
      </trkpt>
      <trkpt lat="46.251161238178611" lon="8.019056534394622">
        <ele>2045.9300000000001</ele>
        <time>2020-02-16T09:27:58Z</time>
      </trkpt>
      <trkpt lat="46.251249918714166" lon="8.019116297364235">
        <ele>2049.04</ele>
        <time>2020-02-16T09:28:14Z</time>
      </trkpt>
      <trkpt lat="46.251311274245381" lon="8.019152004271746">
        <ele>2050.4899999999998</ele>
        <time>2020-02-16T09:28:25Z</time>
      </trkpt>
      <trkpt lat="46.251378413289785" lon="8.019172372296453">
        <ele>2052.4499999999998</ele>
        <time>2020-02-16T09:28:38Z</time>
      </trkpt>
      <trkpt lat="46.251432728022337" lon="8.019119650125504">
        <ele>2053.9400000000001</ele>
        <time>2020-02-16T09:28:53Z</time>
      </trkpt>
      <trkpt lat="46.251402469351888" lon="8.019026443362236">
        <ele>2055.4099999999999</ele>
        <time>2020-02-16T09:29:06Z</time>
      </trkpt>
      <trkpt lat="46.251369109377265" lon="8.01895871758461">
        <ele>2057.4000000000001</ele>
        <time>2020-02-16T09:29:18Z</time>
      </trkpt>
      <trkpt lat="46.251334240660071" lon="8.018883531913161">
        <ele>2059.9200000000001</ele>
        <time>2020-02-16T09:29:32Z</time>
      </trkpt>
      <trkpt lat="46.251305909827352" lon="8.018829971551895">
        <ele>2061.6900000000001</ele>
        <time>2020-02-16T09:29:42Z</time>
      </trkpt>
      <trkpt lat="46.251263497397304" lon="8.018736010417342">
        <ele>2063.54</ele>
        <time>2020-02-16T09:29:59Z</time>
      </trkpt>
      <trkpt lat="46.25123499892652" lon="8.018662836402655">
        <ele>2065.1599999999999</ele>
        <time>2020-02-16T09:30:11Z</time>
      </trkpt>
      <trkpt lat="46.251206668093801" lon="8.018584633246064">
        <ele>2067.1100000000001</ele>
        <time>2020-02-16T09:30:24Z</time>
      </trkpt>
      <trkpt lat="46.251215469092131" lon="8.018479272723198">
        <ele>2068.48</ele>
        <time>2020-02-16T09:30:41Z</time>
      </trkpt>
      <trkpt lat="46.251250170171261" lon="8.018356058746576">
        <ele>2070.6500000000001</ele>
        <time>2020-02-16T09:30:56Z</time>
      </trkpt>
      <trkpt lat="46.251281183212996" lon="8.018220355734229">
        <ele>2071.9099999999999</ele>
        <time>2020-02-16T09:31:11Z</time>
      </trkpt>
      <trkpt lat="46.251316471025348" lon="8.018109546974301">
        <ele>2072.02</ele>
        <time>2020-02-16T09:31:23Z</time>
      </trkpt>
      <trkpt lat="46.251360476016998" lon="8.017955236136913">
        <ele>2072.7199999999998</ele>
        <time>2020-02-16T09:31:37Z</time>
      </trkpt>
      <trkpt lat="46.251395931467414" lon="8.01779237575829">
        <ele>2072.4000000000001</ele>
        <time>2020-02-16T09:31:51Z</time>
      </trkpt>
      <trkpt lat="46.251424429938197" lon="8.017656924203038">
        <ele>2073.8899999999999</ele>
        <time>2020-02-16T09:32:05Z</time>
      </trkpt>
      <trkpt lat="46.251422753557563" lon="8.017642088234425">
        <ele>2073.6700000000001</ele>
        <time>2020-02-16T09:32:15Z</time>
      </trkpt>
      <trkpt lat="46.251420071348548" lon="8.017659187316895">
        <ele>2073.21</ele>
        <time>2020-02-16T09:32:25Z</time>
      </trkpt>
      <trkpt lat="46.251417305320501" lon="8.017629096284509">
        <ele>2072.79</ele>
        <time>2020-02-16T09:32:49Z</time>
      </trkpt>
      <trkpt lat="46.251418897882104" lon="8.01762180402875">
        <ele>2072.6399999999999</ele>
        <time>2020-02-16T09:33:21Z</time>
      </trkpt>
      <trkpt lat="46.251399535685778" lon="8.01761694252491">
        <ele>2072.8499999999999</ele>
        <time>2020-02-16T09:33:41Z</time>
      </trkpt>
      <trkpt lat="46.251416718587279" lon="8.017631946131587">
        <ele>2073.5</ele>
        <time>2020-02-16T09:33:54Z</time>
      </trkpt>
      <trkpt lat="46.251417305320501" lon="8.017629683017731">
        <ele>2073.6599999999999</ele>
        <time>2020-02-16T09:34:10Z</time>
      </trkpt>
      <trkpt lat="46.251426273956895" lon="8.017626497894526">
        <ele>2073.9200000000001</ele>
        <time>2020-02-16T09:34:25Z</time>
      </trkpt>
      <trkpt lat="46.251431554555893" lon="8.017632281407714">
        <ele>2074.1599999999999</ele>
        <time>2020-02-16T09:34:55Z</time>
      </trkpt>
      <trkpt lat="46.251449659466743" lon="8.017556760460138">
        <ele>2073.29</ele>
        <time>2020-02-16T09:35:18Z</time>
      </trkpt>
      <trkpt lat="46.25146315433085" lon="8.017431953921914">
        <ele>2074.52</ele>
        <time>2020-02-16T09:35:30Z</time>
      </trkpt>
      <trkpt lat="46.251483019441366" lon="8.017307817935944">
        <ele>2076.9699999999998</ele>
        <time>2020-02-16T09:35:44Z</time>
      </trkpt>
      <trkpt lat="46.251488886773586" lon="8.017210084944964">
        <ele>2078.9299999999998</ele>
        <time>2020-02-16T09:35:56Z</time>
      </trkpt>
      <trkpt lat="46.251508835703135" lon="8.017135066911578">
        <ele>2080.8000000000002</ele>
        <time>2020-02-16T09:36:07Z</time>
      </trkpt>
      <trkpt lat="46.251523336395621" lon="8.017061222344637">
        <ele>2082.5999999999999</ele>
        <time>2020-02-16T09:36:18Z</time>
      </trkpt>
      <trkpt lat="46.251536998897791" lon="8.016975894570351">
        <ele>2084.6399999999999</ele>
        <time>2020-02-16T09:36:31Z</time>
      </trkpt>
      <trkpt lat="46.251553008332849" lon="8.016886208206415">
        <ele>2086.3600000000001</ele>
        <time>2020-02-16T09:36:44Z</time>
      </trkpt>
      <trkpt lat="46.251570610329509" lon="8.016800712794066">
        <ele>2088.0799999999999</ele>
        <time>2020-02-16T09:36:55Z</time>
      </trkpt>
      <trkpt lat="46.251584775745869" lon="8.016707757487893">
        <ele>2089.1399999999999</ele>
        <time>2020-02-16T09:37:07Z</time>
      </trkpt>
      <trkpt lat="46.251593325287104" lon="8.016599798575044">
        <ele>2091.3200000000002</ele>
        <time>2020-02-16T09:37:21Z</time>
      </trkpt>
      <trkpt lat="46.251601288095117" lon="8.016501646488905">
        <ele>2092.4299999999998</ele>
        <time>2020-02-16T09:37:33Z</time>
      </trkpt>
      <trkpt lat="46.251604473218322" lon="8.016497790813446">
        <ele>2092.6100000000001</ele>
        <time>2020-02-16T09:37:47Z</time>
      </trkpt>
      <trkpt lat="46.251639677211642" lon="8.016396788880229">
        <ele>2093.6799999999998</ele>
        <time>2020-02-16T09:37:59Z</time>
      </trkpt>
      <trkpt lat="46.251676138490438" lon="8.016300229355693">
        <ele>2095.46</ele>
        <time>2020-02-16T09:38:12Z</time>
      </trkpt>
      <trkpt lat="46.251722406595945" lon="8.016194617375732">
        <ele>2097.3699999999999</ele>
        <time>2020-02-16T09:38:29Z</time>
      </trkpt>
      <trkpt lat="46.251750653609633" lon="8.016107948496938">
        <ele>2099.3899999999999</ele>
        <time>2020-02-16T09:38:42Z</time>
      </trkpt>
      <trkpt lat="46.25177638605237" lon="8.016028571873903">
        <ele>2100.9699999999998</ele>
        <time>2020-02-16T09:38:54Z</time>
      </trkpt>
      <trkpt lat="46.251807315275073" lon="8.015951374545693">
        <ele>2102.6799999999998</ele>
        <time>2020-02-16T09:39:07Z</time>
      </trkpt>
      <trkpt lat="46.25184721313417" lon="8.015855820849538">
        <ele>2104.1500000000001</ele>
        <time>2020-02-16T09:39:22Z</time>
      </trkpt>
      <trkpt lat="46.251894487068057" lon="8.015752891078591">
        <ele>2105.79</ele>
        <time>2020-02-16T09:39:37Z</time>
      </trkpt>
      <trkpt lat="46.251935726031661" lon="8.015671083703637">
        <ele>2106.79</ele>
        <time>2020-02-16T09:39:49Z</time>
      </trkpt>
      <trkpt lat="46.251963302493095" lon="8.01560134626925">
        <ele>2108.5999999999999</ele>
        <time>2020-02-16T09:40:00Z</time>
      </trkpt>
      <trkpt lat="46.251991465687752" lon="8.015520041808486">
        <ele>2111.73</ele>
        <time>2020-02-16T09:40:15Z</time>
      </trkpt>
      <trkpt lat="46.251989873126149" lon="8.015517108142376">
        <ele>2111.6900000000001</ele>
        <time>2020-02-16T09:40:16Z</time>
      </trkpt>
      <trkpt lat="46.251993142068386" lon="8.015514761209488">
        <ele>2111.02</ele>
        <time>2020-02-16T09:40:35Z</time>
      </trkpt>
      <trkpt lat="46.251997584477067" lon="8.015515012666583">
        <ele>2111.4699999999998</ele>
        <time>2020-02-16T09:40:50Z</time>
      </trkpt>
      <trkpt lat="46.252003451809287" lon="8.0154830776155">
        <ele>2110.6599999999999</ele>
        <time>2020-02-16T09:41:00Z</time>
      </trkpt>
      <trkpt lat="46.252027759328485" lon="8.015400432050228">
        <ele>2112.3699999999999</ele>
        <time>2020-02-16T09:41:13Z</time>
      </trkpt>
      <trkpt lat="46.252046199515462" lon="8.015318540856242">
        <ele>2113.6599999999999</ele>
        <time>2020-02-16T09:41:24Z</time>
      </trkpt>
      <trkpt lat="46.252059694379568" lon="8.015248216688633">
        <ele>2114.6900000000001</ele>
        <time>2020-02-16T09:41:34Z</time>
      </trkpt>
      <trkpt lat="46.252072183415294" lon="8.015161547809839">
        <ele>2117.1900000000001</ele>
        <time>2020-02-16T09:41:48Z</time>
      </trkpt>
      <trkpt lat="46.252084085717797" lon="8.015083260834217">
        <ele>2118.6700000000001</ele>
        <time>2020-02-16T09:42:00Z</time>
      </trkpt>
      <trkpt lat="46.252099340781569" lon="8.014988796785474">
        <ele>2119.8800000000001</ele>
        <time>2020-02-16T09:42:13Z</time>
      </trkpt>
      <trkpt lat="46.252125492319465" lon="8.014897350221872">
        <ele>2120.7199999999998</ele>
        <time>2020-02-16T09:42:26Z</time>
      </trkpt>
      <trkpt lat="46.252147033810616" lon="8.01479609683156">
        <ele>2122</ele>
        <time>2020-02-16T09:42:39Z</time>
      </trkpt>
      <trkpt lat="46.252193385735154" lon="8.014658968895674">
        <ele>2121.5100000000002</ele>
        <time>2020-02-16T09:42:53Z</time>
      </trkpt>
      <trkpt lat="46.252223309129477" lon="8.014473477378488">
        <ele>2120.23</ele>
        <time>2020-02-16T09:43:09Z</time>
      </trkpt>
      <trkpt lat="46.252225739881396" lon="8.01429720595479">
        <ele>2120.3000000000002</ele>
        <time>2020-02-16T09:43:25Z</time>
      </trkpt>
      <trkpt lat="46.25222054310143" lon="8.014139626175165">
        <ele>2121.8200000000002</ele>
        <time>2020-02-16T09:43:44Z</time>
      </trkpt>
      <trkpt lat="46.252218866720796" lon="8.01412126980722">
        <ele>2121.8200000000002</ele>
        <time>2020-02-16T09:43:59Z</time>
      </trkpt>
      <trkpt lat="46.252230769023299" lon="8.014119509607554">
        <ele>2121.8899999999999</ele>
        <time>2020-02-16T09:44:17Z</time>
      </trkpt>
      <trkpt lat="46.252227583900094" lon="8.014105595648289">
        <ele>2121.1199999999999</ele>
        <time>2020-02-16T09:44:30Z</time>
      </trkpt>
      <trkpt lat="46.252233032137156" lon="8.014108277857304">
        <ele>2121.3400000000001</ele>
        <time>2020-02-16T09:44:47Z</time>
      </trkpt>
      <trkpt lat="46.252225488424301" lon="8.014094112440944">
        <ele>2121.3400000000001</ele>
        <time>2020-02-16T09:45:10Z</time>
      </trkpt>
      <trkpt lat="46.252196654677391" lon="8.014091681689024">
        <ele>2121.6500000000001</ele>
        <time>2020-02-16T09:45:18Z</time>
      </trkpt>
      <trkpt lat="46.252230852842331" lon="8.014047844335437">
        <ele>2120.5700000000002</ele>
        <time>2020-02-16T09:45:38Z</time>
      </trkpt>
      <trkpt lat="46.25222347676754" lon="8.013873416930437">
        <ele>2119.75</ele>
        <time>2020-02-16T09:45:52Z</time>
      </trkpt>
      <trkpt lat="46.252216855064034" lon="8.013740563765168">
        <ele>2120.3699999999999</ele>
        <time>2020-02-16T09:46:05Z</time>
      </trkpt>
      <trkpt lat="46.252218782901764" lon="8.013636125251651">
        <ele>2121.1700000000001</ele>
        <time>2020-02-16T09:46:16Z</time>
      </trkpt>
      <trkpt lat="46.252212328836322" lon="8.013527495786548">
        <ele>2122.3000000000002</ele>
        <time>2020-02-16T09:46:28Z</time>
      </trkpt>
      <trkpt lat="46.252194810658693" lon="8.013392547145486">
        <ele>2122.8299999999999</ele>
        <time>2020-02-16T09:46:44Z</time>
      </trkpt>
      <trkpt lat="46.252175783738494" lon="8.013303531333804">
        <ele>2124.48</ele>
        <time>2020-02-16T09:46:55Z</time>
      </trkpt>
      <trkpt lat="46.252159690484405" lon="8.013222143054009">
        <ele>2125.96</ele>
        <time>2020-02-16T09:47:07Z</time>
      </trkpt>
      <trkpt lat="46.252138903364539" lon="8.013130445033312">
        <ele>2127.6100000000001</ele>
        <time>2020-02-16T09:47:19Z</time>
      </trkpt>
      <trkpt lat="46.252121385186911" lon="8.013042183592916">
        <ele>2128.9899999999998</ele>
        <time>2020-02-16T09:47:32Z</time>
      </trkpt>
      <trkpt lat="46.252101436257362" lon="8.012937493622303">
        <ele>2130.5</ele>
        <time>2020-02-16T09:47:46Z</time>
      </trkpt>
      <trkpt lat="46.252084420993924" lon="8.012838587164879">
        <ele>2131.1599999999999</ele>
        <time>2020-02-16T09:47:59Z</time>
      </trkpt>
      <trkpt lat="46.25208324752748" lon="8.01281813532114">
        <ele>2131.5799999999999</ele>
        <time>2020-02-16T09:48:11Z</time>
      </trkpt>
      <trkpt lat="46.252084840089083" lon="8.012817967683077">
        <ele>2131.9899999999998</ele>
        <time>2020-02-16T09:48:27Z</time>
      </trkpt>
      <trkpt lat="46.252094898372889" lon="8.012814028188586">
        <ele>2132.9400000000001</ele>
        <time>2020-02-16T09:48:44Z</time>
      </trkpt>
      <trkpt lat="46.252093808725476" lon="8.012822326272726">
        <ele>2132.8299999999999</ele>
        <time>2020-02-16T09:49:06Z</time>
      </trkpt>
      <trkpt lat="46.252104705199599" lon="8.012815034016967">
        <ele>2132.8200000000002</ele>
        <time>2020-02-16T09:49:37Z</time>
      </trkpt>
      <trkpt lat="46.252102944999933" lon="8.012801958248019">
        <ele>2132.8400000000001</ele>
        <time>2020-02-16T09:50:02Z</time>
      </trkpt>
      <trkpt lat="46.252100681886077" lon="8.012795085087419">
        <ele>2132.8800000000001</ele>
        <time>2020-02-16T09:50:25Z</time>
      </trkpt>
      <trkpt lat="46.252093892544508" lon="8.012784020975232">
        <ele>2133.1500000000001</ele>
        <time>2020-02-16T09:50:42Z</time>
      </trkpt>
      <trkpt lat="46.252067741006613" lon="8.012696346268058">
        <ele>2132.2600000000002</ele>
        <time>2020-02-16T09:50:54Z</time>
      </trkpt>
      <trkpt lat="46.252034548670053" lon="8.012572294101119">
        <ele>2133.71</ele>
        <time>2020-02-16T09:51:07Z</time>
      </trkpt>
      <trkpt lat="46.252000518143177" lon="8.012424102053046">
        <ele>2134.3200000000002</ele>
        <time>2020-02-16T09:51:23Z</time>
      </trkpt>
      <trkpt lat="46.251971181482077" lon="8.01230750977993">
        <ele>2135.8600000000001</ele>
        <time>2020-02-16T09:51:38Z</time>
      </trkpt>
      <trkpt lat="46.251936396583915" lon="8.012212626636028">
        <ele>2137.3099999999999</ele>
        <time>2020-02-16T09:51:51Z</time>
      </trkpt>
      <trkpt lat="46.251888368278742" lon="8.012111876159906">
        <ele>2138.5999999999999</ele>
        <time>2020-02-16T09:52:05Z</time>
      </trkpt>
      <trkpt lat="46.25182768329978" lon="8.011979945003986">
        <ele>2139.77</ele>
        <time>2020-02-16T09:52:23Z</time>
      </trkpt>
      <trkpt lat="46.251771943643689" lon="8.011876344680786">
        <ele>2140.77</ele>
        <time>2020-02-16T09:52:38Z</time>
      </trkpt>
      <trkpt lat="46.251715198159218" lon="8.011764865368605">
        <ele>2141.5999999999999</ele>
        <time>2020-02-16T09:52:54Z</time>
      </trkpt>
      <trkpt lat="46.251676054671407" lon="8.011635197326541">
        <ele>2143.2399999999998</ele>
        <time>2020-02-16T09:53:10Z</time>
      </trkpt>
      <trkpt lat="46.251634564250708" lon="8.011527238413692">
        <ele>2143.8099999999999</ele>
        <time>2020-02-16T09:53:24Z</time>
      </trkpt>
      <trkpt lat="46.251581842079759" lon="8.011424727737904">
        <ele>2144.1700000000001</ele>
        <time>2020-02-16T09:53:36Z</time>
      </trkpt>
      <trkpt lat="46.251524342224002" lon="8.011327246204019">
        <ele>2145.0100000000002</ele>
        <time>2020-02-16T09:53:49Z</time>
      </trkpt>
      <trkpt lat="46.251475727185607" lon="8.011248204857111">
        <ele>2146.5799999999999</ele>
        <time>2020-02-16T09:54:01Z</time>
      </trkpt>
      <trkpt lat="46.25142015516758" lon="8.01115826703608">
        <ele>2146.8800000000001</ele>
        <time>2020-02-16T09:54:14Z</time>
      </trkpt>
      <trkpt lat="46.25136106275022" lon="8.011067407205701">
        <ele>2147.1100000000001</ele>
        <time>2020-02-16T09:54:27Z</time>
      </trkpt>
      <trkpt lat="46.251305239275098" lon="8.010967411100864">
        <ele>2148.0999999999999</ele>
        <time>2020-02-16T09:54:41Z</time>
      </trkpt>
      <trkpt lat="46.251249918714166" lon="8.010871103033423">
        <ele>2149.71</ele>
        <time>2020-02-16T09:54:56Z</time>
      </trkpt>
      <trkpt lat="46.25120859593153" lon="8.010806897655129">
        <ele>2150.8699999999999</ele>
        <time>2020-02-16T09:55:08Z</time>
      </trkpt>
      <trkpt lat="46.25115972943604" lon="8.010736405849457">
        <ele>2152.1900000000001</ele>
        <time>2020-02-16T09:55:21Z</time>
      </trkpt>
      <trkpt lat="46.251104408875108" lon="8.010665327310562">
        <ele>2153.6599999999999</ele>
        <time>2020-02-16T09:55:35Z</time>
      </trkpt>
      <trkpt lat="46.25105369836092" lon="8.010595925152302">
        <ele>2155.1999999999998</ele>
        <time>2020-02-16T09:55:48Z</time>
      </trkpt>
      <trkpt lat="46.251014219596982" lon="8.010513698682189">
        <ele>2156.5799999999999</ele>
        <time>2020-02-16T09:56:01Z</time>
      </trkpt>
      <trkpt lat="46.250985553488135" lon="8.010465418919921">
        <ele>2157.1300000000001</ele>
        <time>2020-02-16T09:56:15Z</time>
      </trkpt>
      <trkpt lat="46.250963509082794" lon="8.010341869667172">
        <ele>2158.5999999999999</ele>
        <time>2020-02-16T09:56:30Z</time>
      </trkpt>
      <trkpt lat="46.250951606780291" lon="8.010240029543638">
        <ele>2160.8299999999999</ele>
        <time>2020-02-16T09:56:44Z</time>
      </trkpt>
      <trkpt lat="46.250939955934882" lon="8.010150175541639">
        <ele>2162.3600000000001</ele>
        <time>2020-02-16T09:56:56Z</time>
      </trkpt>
      <trkpt lat="46.250931825488806" lon="8.010061159729958">
        <ele>2163.77</ele>
        <time>2020-02-16T09:57:08Z</time>
      </trkpt>
      <trkpt lat="46.250928221270442" lon="8.009997121989727">
        <ele>2165.04</ele>
        <time>2020-02-16T09:57:17Z</time>
      </trkpt>
      <trkpt lat="46.250923611223698" lon="8.00997968763113">
        <ele>2165.25</ele>
        <time>2020-02-16T09:57:33Z</time>
      </trkpt>
      <trkpt lat="46.250922940671444" lon="8.009972898289561">
        <ele>2164.5799999999999</ele>
        <time>2020-02-16T09:57:44Z</time>
      </trkpt>
      <trkpt lat="46.250932579860091" lon="8.009969377890229">
        <ele>2164.8200000000002</ele>
        <time>2020-02-16T09:58:39Z</time>
      </trkpt>
      <trkpt lat="46.250928975641727" lon="8.00998555496335">
        <ele>2164.8600000000001</ele>
        <time>2020-02-16T09:59:46Z</time>
      </trkpt>
      <trkpt lat="46.250938447192311" lon="8.009975412860513">
        <ele>2164.9099999999999</ele>
        <time>2020-02-16T10:00:11Z</time>
      </trkpt>
      <trkpt lat="46.250944649800658" lon="8.009977005422115">
        <ele>2165.4299999999998</ele>
        <time>2020-02-16T10:00:45Z</time>
      </trkpt>
      <trkpt lat="46.250953115522861" lon="8.009959487244487">
        <ele>2165.3400000000001</ele>
        <time>2020-02-16T10:01:33Z</time>
      </trkpt>
      <trkpt lat="46.250954624265432" lon="8.009960241615772">
        <ele>2165.4299999999998</ele>
        <time>2020-02-16T10:02:18Z</time>
      </trkpt>
      <trkpt lat="46.250957474112511" lon="8.009955799207091">
        <ele>2165.5300000000002</ele>
        <time>2020-02-16T10:03:04Z</time>
      </trkpt>
      <trkpt lat="46.250957809388638" lon="8.009953619912267">
        <ele>2165.4699999999998</ele>
        <time>2020-02-16T10:03:52Z</time>
      </trkpt>
      <trkpt lat="46.250956552103162" lon="8.009959068149328">
        <ele>2165.3200000000002</ele>
        <time>2020-02-16T10:04:37Z</time>
      </trkpt>
      <trkpt lat="46.250958479940891" lon="8.009956972673535">
        <ele>2164.98</ele>
        <time>2020-02-16T10:05:25Z</time>
      </trkpt>
      <trkpt lat="46.250953618437052" lon="8.009956888854504">
        <ele>2166.1399999999999</ele>
        <time>2020-02-16T10:05:47Z</time>
      </trkpt>
      <trkpt lat="46.250963676720858" lon="8.009958481416106">
        <ele>2166.1799999999998</ele>
        <time>2020-02-16T10:06:02Z</time>
      </trkpt>
      <trkpt lat="46.250986726954579" lon="8.009907603263855">
        <ele>2167.0100000000002</ele>
        <time>2020-02-16T10:06:18Z</time>
      </trkpt>
      <trkpt lat="46.251036683097482" lon="8.009883547201753">
        <ele>2169.8000000000002</ele>
        <time>2020-02-16T10:06:30Z</time>
      </trkpt>
      <trkpt lat="46.251101726666093" lon="8.009850103408098">
        <ele>2170.9899999999998</ele>
        <time>2020-02-16T10:06:41Z</time>
      </trkpt>
      <trkpt lat="46.251206919550896" lon="8.0098223593086">
        <ele>2172.5500000000002</ele>
        <time>2020-02-16T10:06:57Z</time>
      </trkpt>
      <trkpt lat="46.251274477690458" lon="8.009823532775044">
        <ele>2173.4400000000001</ele>
        <time>2020-02-16T10:07:08Z</time>
      </trkpt>
      <trkpt lat="46.251349747180939" lon="8.009829903021455">
        <ele>2174.5500000000002</ele>
        <time>2020-02-16T10:07:21Z</time>
      </trkpt>
      <trkpt lat="46.251402301713824" lon="8.009791010990739">
        <ele>2174.8899999999999</ele>
        <time>2020-02-16T10:07:33Z</time>
      </trkpt>
      <trkpt lat="46.251451838761568" lon="8.009703001007438">
        <ele>2176.1399999999999</ele>
        <time>2020-02-16T10:07:47Z</time>
      </trkpt>
      <trkpt lat="46.251511685550213" lon="8.009599316865206">
        <ele>2177.5300000000002</ele>
        <time>2020-02-16T10:08:02Z</time>
      </trkpt>
      <trkpt lat="46.251573376357555" lon="8.009509462863207">
        <ele>2178.3499999999999</ele>
        <time>2020-02-16T10:08:16Z</time>
      </trkpt>
      <trkpt lat="46.251648897305131" lon="8.009427571669221">
        <ele>2178.3299999999999</ele>
        <time>2020-02-16T10:08:29Z</time>
      </trkpt>
      <trkpt lat="46.251723244786263" lon="8.009409131482244">
        <ele>2179.25</ele>
        <time>2020-02-16T10:08:41Z</time>
      </trkpt>
      <trkpt lat="46.251788791269064" lon="8.009415501728654">
        <ele>2180.9400000000001</ele>
        <time>2020-02-16T10:08:54Z</time>
      </trkpt>
      <trkpt lat="46.25185014680028" lon="8.009437881410122">
        <ele>2182.4099999999999</ele>
        <time>2020-02-16T10:09:07Z</time>
      </trkpt>
      <trkpt lat="46.2519078142941" lon="8.009479036554694">
        <ele>2184.3499999999999</ele>
        <time>2020-02-16T10:09:20Z</time>
      </trkpt>
      <trkpt lat="46.251975120976567" lon="8.0095149949193">
        <ele>2185.5999999999999</ele>
        <time>2020-02-16T10:09:33Z</time>
      </trkpt>
      <trkpt lat="46.252083163708448" lon="8.009550031274557">
        <ele>2186.0700000000002</ele>
        <time>2020-02-16T10:09:49Z</time>
      </trkpt>
      <trkpt lat="46.252159439027309" lon="8.009578362107277">
        <ele>2186.8499999999999</ele>
        <time>2020-02-16T10:10:02Z</time>
      </trkpt>
      <trkpt lat="46.25220688059926" lon="8.009586576372385">
        <ele>2187.1700000000001</ele>
        <time>2020-02-16T10:10:14Z</time>
      </trkpt>
      <trkpt lat="46.25225717201829" lon="8.009551707655191">
        <ele>2188.9099999999999</ele>
        <time>2020-02-16T10:10:25Z</time>
      </trkpt>
      <trkpt lat="46.252307547256351" lon="8.009523963555694">
        <ele>2190.9200000000001</ele>
        <time>2020-02-16T10:10:36Z</time>
      </trkpt>
      <trkpt lat="46.252346690744162" lon="8.009506026282907">
        <ele>2192.6300000000001</ele>
        <time>2020-02-16T10:10:46Z</time>
      </trkpt>
      <trkpt lat="46.252427659928799" lon="8.009514408186078">
        <ele>2193.8099999999999</ele>
        <time>2020-02-16T10:11:00Z</time>
      </trkpt>
      <trkpt lat="46.252470323815942" lon="8.009533938020468">
        <ele>2195.4000000000001</ele>
        <time>2020-02-16T10:11:11Z</time>
      </trkpt>
      <trkpt lat="46.252515502274036" lon="8.009568555280566">
        <ele>2196.7199999999998</ele>
        <time>2020-02-16T10:11:22Z</time>
      </trkpt>
      <trkpt lat="46.252587335184216" lon="8.009651117026806">
        <ele>2197.46</ele>
        <time>2020-02-16T10:11:37Z</time>
      </trkpt>
      <trkpt lat="46.252643410116434" lon="8.009716998785734">
        <ele>2198.3600000000001</ele>
        <time>2020-02-16T10:11:49Z</time>
      </trkpt>
      <trkpt lat="46.252702670171857" lon="8.009788161143661">
        <ele>2199.4699999999998</ele>
        <time>2020-02-16T10:12:02Z</time>
      </trkpt>
      <trkpt lat="46.252795876935124" lon="8.009838201105595">
        <ele>2200</ele>
        <time>2020-02-16T10:12:16Z</time>
      </trkpt>
      <trkpt lat="46.252902075648308" lon="8.00984381698072">
        <ele>2200.9299999999998</ele>
        <time>2020-02-16T10:12:33Z</time>
      </trkpt>
      <trkpt lat="46.252975249662995" lon="8.009840296581388">
        <ele>2202.1999999999998</ele>
        <time>2020-02-16T10:12:47Z</time>
      </trkpt>
      <trkpt lat="46.253040879964828" lon="8.009826801717281">
        <ele>2203.6799999999998</ele>
        <time>2020-02-16T10:13:00Z</time>
      </trkpt>
      <trkpt lat="46.253099553287029" lon="8.009836440905929">
        <ele>2205.3699999999999</ele>
        <time>2020-02-16T10:13:13Z</time>
      </trkpt>
      <trkpt lat="46.253146240487695" lon="8.009843984618783">
        <ele>2206.3099999999999</ele>
        <time>2020-02-16T10:13:24Z</time>
      </trkpt>
      <trkpt lat="46.253199046477675" lon="8.009835099801421">
        <ele>2207.6599999999999</ele>
        <time>2020-02-16T10:13:38Z</time>
      </trkpt>
      <trkpt lat="46.253239950165153" lon="8.00982085056603">
        <ele>2209.48</ele>
        <time>2020-02-16T10:13:50Z</time>
      </trkpt>
      <trkpt lat="46.253274651244283" lon="8.009788077324629">
        <ele>2211.1100000000001</ele>
        <time>2020-02-16T10:14:00Z</time>
      </trkpt>
      <trkpt lat="46.253320667892694" lon="8.009764524176717">
        <ele>2212.4400000000001</ele>
        <time>2020-02-16T10:14:11Z</time>
      </trkpt>
      <trkpt lat="46.2533825263381" lon="8.009779863059521">
        <ele>2213.6599999999999</ele>
        <time>2020-02-16T10:14:24Z</time>
      </trkpt>
      <trkpt lat="46.253442540764809" lon="8.009847924113274">
        <ele>2214.2800000000002</ele>
        <time>2020-02-16T10:14:37Z</time>
      </trkpt>
      <trkpt lat="46.253458466380835" lon="8.009874494746327">
        <ele>2214.9000000000001</ele>
        <time>2020-02-16T10:14:51Z</time>
      </trkpt>
      <trkpt lat="46.253485204651952" lon="8.009917493909597">
        <ele>2215.1100000000001</ele>
        <time>2020-02-16T10:15:09Z</time>
      </trkpt>
      <trkpt lat="46.253514038398862" lon="8.009985471144319">
        <ele>2216.04</ele>
        <time>2020-02-16T10:15:20Z</time>
      </trkpt>
      <trkpt lat="46.253550415858626" lon="8.010056633502245">
        <ele>2216.8000000000002</ele>
        <time>2020-02-16T10:15:32Z</time>
      </trkpt>
      <trkpt lat="46.253591319546103" lon="8.010121341794729">
        <ele>2217.8400000000001</ele>
        <time>2020-02-16T10:15:44Z</time>
      </trkpt>
      <trkpt lat="46.253639347851276" lon="8.010181523859501">
        <ele>2219.21</ele>
        <time>2020-02-16T10:15:57Z</time>
      </trkpt>
      <trkpt lat="46.253663739189506" lon="8.010251177474856">
        <ele>2219.6999999999998</ele>
        <time>2020-02-16T10:16:07Z</time>
      </trkpt>
      <trkpt lat="46.253700284287333" lon="8.010318735614419">
        <ele>2220.73</ele>
        <time>2020-02-16T10:16:19Z</time>
      </trkpt>
      <trkpt lat="46.25373087823391" lon="8.010374223813415">
        <ele>2221.9000000000001</ele>
        <time>2020-02-16T10:16:30Z</time>
      </trkpt>
      <trkpt lat="46.253771698102355" lon="8.010411020368338">
        <ele>2223.3600000000001</ele>
        <time>2020-02-16T10:16:41Z</time>
      </trkpt>
      <trkpt lat="46.253822408616543" lon="8.010435830801725">
        <ele>2224.9000000000001</ele>
        <time>2020-02-16T10:16:54Z</time>
      </trkpt>
      <trkpt lat="46.253848895430565" lon="8.010375648736954">
        <ele>2226.6100000000001</ele>
        <time>2020-02-16T10:17:08Z</time>
      </trkpt>
      <trkpt lat="46.253904551267624" lon="8.010358465835452">
        <ele>2228.1999999999998</ele>
        <time>2020-02-16T10:17:22Z</time>
      </trkpt>
      <trkpt lat="46.253957943990827" lon="8.010353688150644">
        <ele>2229.4400000000001</ele>
        <time>2020-02-16T10:17:35Z</time>
      </trkpt>
      <trkpt lat="46.25400890596211" lon="8.010358717292547">
        <ele>2230.4299999999998</ele>
        <time>2020-02-16T10:17:47Z</time>
      </trkpt>
      <trkpt lat="46.254029190167785" lon="8.010375313460827">
        <ele>2231.27</ele>
        <time>2020-02-16T10:18:00Z</time>
      </trkpt>
      <trkpt lat="46.254045199602842" lon="8.010393083095551">
        <ele>2231.6700000000001</ele>
        <time>2020-02-16T10:18:12Z</time>
      </trkpt>
      <trkpt lat="46.254087779670954" lon="8.010455863550305">
        <ele>2232.5500000000002</ele>
        <time>2020-02-16T10:18:25Z</time>
      </trkpt>
      <trkpt lat="46.254140669479966" lon="8.0105303786695">
        <ele>2233.5</ele>
        <time>2020-02-16T10:18:38Z</time>
      </trkpt>
      <trkpt lat="46.254186602309346" lon="8.010573210194707">
        <ele>2234.1500000000001</ele>
        <time>2020-02-16T10:18:50Z</time>
      </trkpt>
      <trkpt lat="46.254231194034219" lon="8.010619645938277">
        <ele>2235.04</ele>
        <time>2020-02-16T10:19:03Z</time>
      </trkpt>
      <trkpt lat="46.254281401634216" lon="8.010678235441446">
        <ele>2235.98</ele>
        <time>2020-02-16T10:19:16Z</time>
      </trkpt>
      <trkpt lat="46.254327083006501" lon="8.01074537448585">
        <ele>2236.8600000000001</ele>
        <time>2020-02-16T10:19:29Z</time>
      </trkpt>
      <trkpt lat="46.254367064684629" lon="8.010830199345946">
        <ele>2237.1900000000001</ele>
        <time>2020-02-16T10:19:40Z</time>
      </trkpt>
      <trkpt lat="46.254407716915011" lon="8.010903960093856">
        <ele>2238.0999999999999</ele>
        <time>2020-02-16T10:19:53Z</time>
      </trkpt>
      <trkpt lat="46.254457840695977" lon="8.011024240404367">
        <ele>2238.9699999999998</ele>
        <time>2020-02-16T10:20:08Z</time>
      </trkpt>
      <trkpt lat="46.254507461562753" lon="8.011138821020722">
        <ele>2240.04</ele>
        <time>2020-02-16T10:20:21Z</time>
      </trkpt>
      <trkpt lat="46.254526739940047" lon="8.01121199503541">
        <ele>2241.6599999999999</ele>
        <time>2020-02-16T10:20:34Z</time>
      </trkpt>
      <trkpt lat="46.25454350374639" lon="8.011275948956609">
        <ele>2242.5799999999999</ele>
        <time>2020-02-16T10:20:45Z</time>
      </trkpt>
      <trkpt lat="46.254573594778776" lon="8.011348955333233">
        <ele>2244.2600000000002</ele>
        <time>2020-02-16T10:20:58Z</time>
      </trkpt>
      <trkpt lat="46.254599997773767" lon="8.01142699085176">
        <ele>2246.3699999999999</ele>
        <time>2020-02-16T10:21:12Z</time>
      </trkpt>
      <trkpt lat="46.254619192332029" lon="8.011500416323543">
        <ele>2248.8499999999999</ele>
        <time>2020-02-16T10:21:26Z</time>
      </trkpt>
      <trkpt lat="46.254624808207154" lon="8.011558251455426">
        <ele>2250.5700000000002</ele>
        <time>2020-02-16T10:21:37Z</time>
      </trkpt>
      <trkpt lat="46.254618605598807" lon="8.011616254225373">
        <ele>2251.9699999999998</ele>
        <time>2020-02-16T10:21:49Z</time>
      </trkpt>
      <trkpt lat="46.254617013037205" lon="8.011693451553583">
        <ele>2253.9299999999998</ele>
        <time>2020-02-16T10:22:04Z</time>
      </trkpt>
      <trkpt lat="46.254651714116335" lon="8.011754136532545">
        <ele>2255.0100000000002</ele>
        <time>2020-02-16T10:22:16Z</time>
      </trkpt>
      <trkpt lat="46.2546397279948" lon="8.01175388507545">
        <ele>2255.6500000000001</ele>
        <time>2020-02-16T10:22:28Z</time>
      </trkpt>
      <trkpt lat="46.254632184281945" lon="8.011741563677788">
        <ele>2255.4400000000001</ele>
        <time>2020-02-16T10:22:45Z</time>
      </trkpt>
      <trkpt lat="46.254625730216503" lon="8.011794118210673">
        <ele>2254.0999999999999</ele>
        <time>2020-02-16T10:22:57Z</time>
      </trkpt>
      <trkpt lat="46.254613660275936" lon="8.011792274191976">
        <ele>2254.3299999999999</ele>
        <time>2020-02-16T10:23:12Z</time>
      </trkpt>
      <trkpt lat="46.254601506516337" lon="8.01172161474824">
        <ele>2255.29</ele>
        <time>2020-02-16T10:23:32Z</time>
      </trkpt>
      <trkpt lat="46.25460016541183" lon="8.011717507615686">
        <ele>2255.5100000000002</ele>
        <time>2020-02-16T10:23:33Z</time>
      </trkpt>
      <trkpt lat="46.254589185118675" lon="8.011701079085469">
        <ele>2254.0599999999999</ele>
        <time>2020-02-16T10:23:48Z</time>
      </trkpt>
      <trkpt lat="46.254586167633533" lon="8.011706024408341">
        <ele>2254.3400000000001</ele>
        <time>2020-02-16T10:24:17Z</time>
      </trkpt>
      <trkpt lat="46.254584323614836" lon="8.011706359684467">
        <ele>2255.3200000000002</ele>
        <time>2020-02-16T10:24:33Z</time>
      </trkpt>
      <trkpt lat="46.2545948009938" lon="8.011686578392983">
        <ele>2255.6199999999999</ele>
        <time>2020-02-16T10:24:41Z</time>
      </trkpt>
      <trkpt lat="46.254596309736371" lon="8.011684231460095">
        <ele>2255.77</ele>
        <time>2020-02-16T10:25:00Z</time>
      </trkpt>
      <trkpt lat="46.254612822085619" lon="8.011694038286805">
        <ele>2255.3800000000001</ele>
        <time>2020-02-16T10:25:21Z</time>
      </trkpt>
      <trkpt lat="46.254612486809492" lon="8.0116942897439">
        <ele>2256.0700000000002</ele>
        <time>2020-02-16T10:25:23Z</time>
      </trkpt>
      <trkpt lat="46.254610726609826" lon="8.011681968346238">
        <ele>2255.6500000000001</ele>
        <time>2020-02-16T10:25:42Z</time>
      </trkpt>
      <trkpt lat="46.254606787115335" lon="8.011682806536555">
        <ele>2255.6700000000001</ele>
        <time>2020-02-16T10:25:59Z</time>
      </trkpt>
      <trkpt lat="46.254608882591128" lon="8.011684902012348">
        <ele>2255.7199999999998</ele>
        <time>2020-02-16T10:26:19Z</time>
      </trkpt>
      <trkpt lat="46.254594884812832" lon="8.011674759909511">
        <ele>2255.7800000000002</ele>
        <time>2020-02-16T10:26:39Z</time>
      </trkpt>
      <trkpt lat="46.254561357200146" lon="8.011695295572281">
        <ele>2255.6799999999998</ele>
        <time>2020-02-16T10:26:49Z</time>
      </trkpt>
      <trkpt lat="46.254568481817842" lon="8.011692697182298">
        <ele>2254.1500000000001</ele>
        <time>2020-02-16T10:27:02Z</time>
      </trkpt>
      <trkpt lat="46.254576276987791" lon="8.011674005538225">
        <ele>2255.4499999999998</ele>
        <time>2020-02-16T10:27:15Z</time>
      </trkpt>
      <trkpt lat="46.25462556257844" lon="8.011690685525537">
        <ele>2256.29</ele>
        <time>2020-02-16T10:27:28Z</time>
      </trkpt>
      <trkpt lat="46.254673004150391" lon="8.011662773787975">
        <ele>2257.3600000000001</ele>
        <time>2020-02-16T10:27:39Z</time>
      </trkpt>
      <trkpt lat="46.254747686907649" lon="8.011641232296825">
        <ele>2259.1999999999998</ele>
        <time>2020-02-16T10:27:52Z</time>
      </trkpt>
      <trkpt lat="46.254803175106645" lon="8.011612147092819">
        <ele>2260.8699999999999</ele>
        <time>2020-02-16T10:28:03Z</time>
      </trkpt>
      <trkpt lat="46.254869308322668" lon="8.011575350537896">
        <ele>2262.1199999999999</ele>
        <time>2020-02-16T10:28:17Z</time>
      </trkpt>
      <trkpt lat="46.254924209788442" lon="8.011542577296495">
        <ele>2263.3000000000002</ele>
        <time>2020-02-16T10:28:28Z</time>
      </trkpt>
      <trkpt lat="46.254976009950042" lon="8.011488178744912">
        <ele>2264.5900000000001</ele>
        <time>2020-02-16T10:28:41Z</time>
      </trkpt>
      <trkpt lat="46.255031581968069" lon="8.011437635868788">
        <ele>2267.1599999999999</ele>
        <time>2020-02-16T10:28:55Z</time>
      </trkpt>
      <trkpt lat="46.255096038803458" lon="8.011414417997003">
        <ele>2268.6700000000001</ele>
        <time>2020-02-16T10:29:08Z</time>
      </trkpt>
      <trkpt lat="46.255146665498614" lon="8.011379968374968">
        <ele>2270.27</ele>
        <time>2020-02-16T10:29:21Z</time>
      </trkpt>
      <trkpt lat="46.255194945260882" lon="8.011348955333233">
        <ele>2271.1700000000001</ele>
        <time>2020-02-16T10:29:32Z</time>
      </trkpt>
      <trkpt lat="46.25524515286088" lon="8.011311572045088">
        <ele>2271.96</ele>
        <time>2020-02-16T10:29:43Z</time>
      </trkpt>
      <trkpt lat="46.255280692130327" lon="8.011274104937911">
        <ele>2272.52</ele>
        <time>2020-02-16T10:29:52Z</time>
      </trkpt>
      <trkpt lat="46.255329474806786" lon="8.011228675022721">
        <ele>2273.5700000000002</ele>
        <time>2020-02-16T10:30:04Z</time>
      </trkpt>
      <trkpt lat="46.255380688235164" lon="8.011193135753274">
        <ele>2274.4499999999998</ele>
        <time>2020-02-16T10:30:16Z</time>
      </trkpt>
      <trkpt lat="46.255435086786747" lon="8.011160697788">
        <ele>2275.79</ele>
        <time>2020-02-16T10:30:30Z</time>
      </trkpt>
      <trkpt lat="46.255491664633155" lon="8.011134630069137">
        <ele>2276.5999999999999</ele>
        <time>2020-02-16T10:30:43Z</time>
      </trkpt>
      <trkpt lat="46.25556617975235" lon="8.011093810200691">
        <ele>2277.1900000000001</ele>
        <time>2020-02-16T10:30:58Z</time>
      </trkpt>
      <trkpt lat="46.255614878609776" lon="8.011049721390009">
        <ele>2277.04</ele>
        <time>2020-02-16T10:31:10Z</time>
      </trkpt>
      <trkpt lat="46.25567858107388" lon="8.010992975905538">
        <ele>2278.6100000000001</ele>
        <time>2020-02-16T10:31:27Z</time>
      </trkpt>
      <trkpt lat="46.25574060715735" lon="8.011010410264134">
        <ele>2279.5599999999999</ele>
        <time>2020-02-16T10:31:40Z</time>
      </trkpt>
      <trkpt lat="46.255792155861855" lon="8.011033125221729">
        <ele>2281.0799999999999</ele>
        <time>2020-02-16T10:31:52Z</time>
      </trkpt>
      <trkpt lat="46.255831466987729" lon="8.011054918169975">
        <ele>2281.8800000000001</ele>
        <time>2020-02-16T10:32:06Z</time>
      </trkpt>
      <trkpt lat="46.255868431180716" lon="8.011083584278822">
        <ele>2283.5799999999999</ele>
        <time>2020-02-16T10:32:16Z</time>
      </trkpt>
      <trkpt lat="46.255935151129961" lon="8.01113773137331">
        <ele>2284.3499999999999</ele>
        <time>2020-02-16T10:32:31Z</time>
      </trkpt>
      <trkpt lat="46.255996841937304" lon="8.011188693344593">
        <ele>2285.0900000000001</ele>
        <time>2020-02-16T10:32:43Z</time>
      </trkpt>
      <trkpt lat="46.256072614341974" lon="8.011249965056777">
        <ele>2286.7600000000002</ele>
        <time>2020-02-16T10:33:00Z</time>
      </trkpt>
      <trkpt lat="46.256144279614091" lon="8.011305620893836">
        <ele>2288.9400000000001</ele>
        <time>2020-02-16T10:33:19Z</time>
      </trkpt>
      <trkpt lat="46.256198259070516" lon="8.011362617835403">
        <ele>2289.9499999999998</ele>
        <time>2020-02-16T10:33:35Z</time>
      </trkpt>
      <trkpt lat="46.256262967363" lon="8.011416932567954">
        <ele>2291.4899999999998</ele>
        <time>2020-02-16T10:33:51Z</time>
      </trkpt>
      <trkpt lat="46.256316611543298" lon="8.011458171531558">
        <ele>2292.48</ele>
        <time>2020-02-16T10:34:04Z</time>
      </trkpt>
      <trkpt lat="46.256368327885866" lon="8.011501422151923">
        <ele>2293.9000000000001</ele>
        <time>2020-02-16T10:34:16Z</time>
      </trkpt>
      <trkpt lat="46.256410991773009" lon="8.011536290869117">
        <ele>2295.1199999999999</ele>
        <time>2020-02-16T10:34:27Z</time>
      </trkpt>
      <trkpt lat="46.256468156352639" lon="8.011595467105508">
        <ele>2295.5999999999999</ele>
        <time>2020-02-16T10:34:39Z</time>
      </trkpt>
      <trkpt lat="46.25651559792459" lon="8.011669814586639">
        <ele>2295.73</ele>
        <time>2020-02-16T10:34:50Z</time>
      </trkpt>
      <trkpt lat="46.256551556289196" lon="8.011732092127204">
        <ele>2296.1599999999999</ele>
        <time>2020-02-16T10:35:02Z</time>
      </trkpt>
      <trkpt lat="46.256558680906892" lon="8.011741060763598">
        <ele>2296.21</ele>
        <time>2020-02-16T10:35:03Z</time>
      </trkpt>
      <trkpt lat="46.256572930142283" lon="8.011758243665099">
        <ele>2296.27</ele>
        <time>2020-02-16T10:35:05Z</time>
      </trkpt>
      <trkpt lat="46.256632106378675" lon="8.011850863695145">
        <ele>2296.8099999999999</ele>
        <time>2020-02-16T10:35:17Z</time>
      </trkpt>
      <trkpt lat="46.256623640656471" lon="8.011856898665428">
        <ele>2296.73</ele>
        <time>2020-02-16T10:35:29Z</time>
      </trkpt>
      <trkpt lat="46.256617940962315" lon="8.011856898665428">
        <ele>2296.0599999999999</ele>
        <time>2020-02-16T10:35:41Z</time>
      </trkpt>
      <trkpt lat="46.256612073630095" lon="8.011865448206663">
        <ele>2296.0799999999999</ele>
        <time>2020-02-16T10:36:03Z</time>
      </trkpt>
      <trkpt lat="46.256602937355638" lon="8.011875590309501">
        <ele>2296.5900000000001</ele>
        <time>2020-02-16T10:36:49Z</time>
      </trkpt>
      <trkpt lat="46.256613163277507" lon="8.011880032718182">
        <ele>2296.4299999999998</ele>
        <time>2020-02-16T10:37:31Z</time>
      </trkpt>
      <trkpt lat="46.256621042266488" lon="8.011872740462422">
        <ele>2296.5900000000001</ele>
        <time>2020-02-16T10:38:17Z</time>
      </trkpt>
      <trkpt lat="46.256614588201046" lon="8.011878859251738">
        <ele>2296.5999999999999</ele>
        <time>2020-02-16T10:38:59Z</time>
      </trkpt>
      <trkpt lat="46.256619533523917" lon="8.011891264468432">
        <ele>2297.54</ele>
        <time>2020-02-16T10:39:14Z</time>
      </trkpt>
      <trkpt lat="46.256614001467824" lon="8.011859245598316">
        <ele>2297.8899999999999</ele>
        <time>2020-02-16T10:39:30Z</time>
      </trkpt>
      <trkpt lat="46.256649373099208" lon="8.011921690776944">
        <ele>2298.0700000000002</ele>
        <time>2020-02-16T10:39:43Z</time>
      </trkpt>
      <trkpt lat="46.256698574870825" lon="8.012012802064419">
        <ele>2298.6500000000001</ele>
        <time>2020-02-16T10:39:54Z</time>
      </trkpt>
      <trkpt lat="46.256745429709554" lon="8.012141129001975">
        <ele>2299.9400000000001</ele>
        <time>2020-02-16T10:40:08Z</time>
      </trkpt>
      <trkpt lat="46.25675699673593" lon="8.012223523110151">
        <ele>2301.4499999999998</ele>
        <time>2020-02-16T10:40:19Z</time>
      </trkpt>
      <trkpt lat="46.256777280941606" lon="8.012308180332184">
        <ele>2302.73</ele>
        <time>2020-02-16T10:40:31Z</time>
      </trkpt>
      <trkpt lat="46.256801337003708" lon="8.012369954958558">
        <ele>2304.4099999999999</ele>
        <time>2020-02-16T10:40:42Z</time>
      </trkpt>
      <trkpt lat="46.256828578189015" lon="8.012419492006302">
        <ele>2306.75</ele>
        <time>2020-02-16T10:40:52Z</time>
      </trkpt>
      <trkpt lat="46.256870236247778" lon="8.012483613565564">
        <ele>2307.8400000000001</ele>
        <time>2020-02-16T10:41:05Z</time>
      </trkpt>
      <trkpt lat="46.256935698911548" lon="8.012542370706797">
        <ele>2308.23</ele>
        <time>2020-02-16T10:41:18Z</time>
      </trkpt>
      <trkpt lat="46.25699445605278" lon="8.012631721794605">
        <ele>2309.1500000000001</ele>
        <time>2020-02-16T10:41:32Z</time>
      </trkpt>
      <trkpt lat="46.257055392488837" lon="8.012670781463385">
        <ele>2310.3099999999999</ele>
        <time>2020-02-16T10:41:45Z</time>
      </trkpt>
      <trkpt lat="46.257106019183993" lon="8.012700453400612">
        <ele>2311.6799999999998</ele>
        <time>2020-02-16T10:41:56Z</time>
      </trkpt>
      <trkpt lat="46.257159663364291" lon="8.0127511639148">
        <ele>2312.9699999999998</ele>
        <time>2020-02-16T10:42:08Z</time>
      </trkpt>
      <trkpt lat="46.257186904549599" lon="8.01282643340528">
        <ele>2314.4200000000001</ele>
        <time>2020-02-16T10:42:20Z</time>
      </trkpt>
      <trkpt lat="46.257213056087494" lon="8.01286842674017">
        <ele>2315.48</ele>
        <time>2020-02-16T10:42:32Z</time>
      </trkpt>
      <trkpt lat="46.257212050259113" lon="8.012868007645011">
        <ele>2314.5700000000002</ele>
        <time>2020-02-16T10:42:49Z</time>
      </trkpt>
      <trkpt lat="46.257206266745925" lon="8.012866834178567">
        <ele>2314.8200000000002</ele>
        <time>2020-02-16T10:43:08Z</time>
      </trkpt>
      <trkpt lat="46.257200818508863" lon="8.012867756187916">
        <ele>2315.0700000000002</ele>
        <time>2020-02-16T10:43:26Z</time>
      </trkpt>
      <trkpt lat="46.257199561223388" lon="8.01286306232214">
        <ele>2315.0799999999999</ele>
        <time>2020-02-16T10:43:52Z</time>
      </trkpt>
      <trkpt lat="46.257235100492835" lon="8.012884687632322">
        <ele>2315.46</ele>
        <time>2020-02-16T10:44:04Z</time>
      </trkpt>
      <trkpt lat="46.257335348054767" lon="8.012999100610614">
        <ele>2317.8099999999999</ele>
        <time>2020-02-16T10:44:23Z</time>
      </trkpt>
      <trkpt lat="46.257397374138236" lon="8.013096833601594">
        <ele>2319.1999999999998</ele>
        <time>2020-02-16T10:44:37Z</time>
      </trkpt>
      <trkpt lat="46.257419334724545" lon="8.01317528821528">
        <ele>2318.48</ele>
        <time>2020-02-16T10:44:44Z</time>
      </trkpt>
      <trkpt lat="46.257494771853089" lon="8.013346865773201">
        <ele>2318.7600000000002</ele>
        <time>2020-02-16T10:45:03Z</time>
      </trkpt>
      <trkpt lat="46.257590493187308" lon="8.013432528823614">
        <ele>2318.73</ele>
        <time>2020-02-16T10:45:17Z</time>
      </trkpt>
      <trkpt lat="46.257666265591979" lon="8.013478126376867">
        <ele>2320.6599999999999</ele>
        <time>2020-02-16T10:45:33Z</time>
      </trkpt>
      <trkpt lat="46.257720580324531" lon="8.013515425845981">
        <ele>2323.1500000000001</ele>
        <time>2020-02-16T10:45:46Z</time>
      </trkpt>
      <trkpt lat="46.257765172049403" lon="8.013557670637965">
        <ele>2325.2800000000002</ele>
        <time>2020-02-16T10:45:57Z</time>
      </trkpt>
      <trkpt lat="46.257802890613675" lon="8.013597652316093">
        <ele>2326.1999999999998</ele>
        <time>2020-02-16T10:46:09Z</time>
      </trkpt>
      <trkpt lat="46.257833149284124" lon="8.013625144958496">
        <ele>2327.2399999999998</ele>
        <time>2020-02-16T10:46:22Z</time>
      </trkpt>
      <trkpt lat="46.257882434874773" lon="8.013675101101399">
        <ele>2328.54</ele>
        <time>2020-02-16T10:46:33Z</time>
      </trkpt>
      <trkpt lat="46.257945718243718" lon="8.013739390298724">
        <ele>2330.7399999999998</ele>
        <time>2020-02-16T10:46:48Z</time>
      </trkpt>
      <trkpt lat="46.258008917793632" lon="8.013751124963164">
        <ele>2331.9400000000001</ele>
        <time>2020-02-16T10:47:00Z</time>
      </trkpt>
      <trkpt lat="46.258080080151558" lon="8.01377191208303">
        <ele>2333.48</ele>
        <time>2020-02-16T10:47:13Z</time>
      </trkpt>
      <trkpt lat="46.258151745423675" lon="8.013778198510408">
        <ele>2334.4400000000001</ele>
        <time>2020-02-16T10:47:26Z</time>
      </trkpt>
      <trkpt lat="46.258216202259064" lon="8.013812899589539">
        <ele>2335.5700000000002</ele>
        <time>2020-02-16T10:47:39Z</time>
      </trkpt>
      <trkpt lat="46.258273618295789" lon="8.013825220987201">
        <ele>2336.4299999999998</ele>
        <time>2020-02-16T10:47:49Z</time>
      </trkpt>
      <trkpt lat="46.258340589702129" lon="8.013839470222592">
        <ele>2337.6199999999999</ele>
        <time>2020-02-16T10:48:02Z</time>
      </trkpt>
      <trkpt lat="46.258403453975916" lon="8.013877859339118">
        <ele>2339.0999999999999</ele>
        <time>2020-02-16T10:48:15Z</time>
      </trkpt>
      <trkpt lat="46.2584647256881" lon="8.013906106352806">
        <ele>2340.2800000000002</ele>
        <time>2020-02-16T10:48:27Z</time>
      </trkpt>
      <trkpt lat="46.258516861125827" lon="8.013937203213573">
        <ele>2341.2800000000002</ele>
        <time>2020-02-16T10:48:41Z</time>
      </trkpt>
      <trkpt lat="46.258570924401283" lon="8.01397810690105">
        <ele>2342.1300000000001</ele>
        <time>2020-02-16T10:48:53Z</time>
      </trkpt>
      <trkpt lat="46.258625658228993" lon="8.014019094407558">
        <ele>2343.04</ele>
        <time>2020-02-16T10:49:04Z</time>
      </trkpt>
      <trkpt lat="46.258681900799274" lon="8.01407927647233">
        <ele>2344.02</ele>
        <time>2020-02-16T10:49:15Z</time>
      </trkpt>
      <trkpt lat="46.258740657940507" lon="8.014135435223579">
        <ele>2345</ele>
        <time>2020-02-16T10:49:28Z</time>
      </trkpt>
      <trkpt lat="46.258792709559202" lon="8.014177428558469">
        <ele>2346.0300000000002</ele>
        <time>2020-02-16T10:49:39Z</time>
      </trkpt>
      <trkpt lat="46.258850544691086" lon="8.014223612844944">
        <ele>2347.2800000000002</ele>
        <time>2020-02-16T10:49:52Z</time>
      </trkpt>
      <trkpt lat="46.258907122537494" lon="8.014263929799199">
        <ele>2348.3699999999999</ele>
        <time>2020-02-16T10:50:04Z</time>
      </trkpt>
      <trkpt lat="46.258958838880062" lon="8.014309108257294">
        <ele>2349.5599999999999</ele>
        <time>2020-02-16T10:50:17Z</time>
      </trkpt>
      <trkpt lat="46.259024385362864" lon="8.014372140169144">
        <ele>2350.5999999999999</ele>
        <time>2020-02-16T10:50:31Z</time>
      </trkpt>
      <trkpt lat="46.259080460295081" lon="8.014426035806537">
        <ele>2351.52</ele>
        <time>2020-02-16T10:50:43Z</time>
      </trkpt>
      <trkpt lat="46.259130500257015" lon="8.014475991949439">
        <ele>2352.3099999999999</ele>
        <time>2020-02-16T10:50:54Z</time>
      </trkpt>
      <trkpt lat="46.259174672886729" lon="8.014535922557116">
        <ele>2353.3000000000002</ele>
        <time>2020-02-16T10:51:06Z</time>
      </trkpt>
      <trkpt lat="46.259216330945492" lon="8.014605576172471">
        <ele>2354.8699999999999</ele>
        <time>2020-02-16T10:51:18Z</time>
      </trkpt>
      <trkpt lat="46.259251786395907" lon="8.014663830399513">
        <ele>2356.3499999999999</ele>
        <time>2020-02-16T10:51:29Z</time>
      </trkpt>
      <trkpt lat="46.259283889085054" lon="8.014723090454936">
        <ele>2357.9499999999998</ele>
        <time>2020-02-16T10:51:40Z</time>
      </trkpt>
      <trkpt lat="46.259312387555838" lon="8.014792492613196">
        <ele>2359.3499999999999</ele>
        <time>2020-02-16T10:51:52Z</time>
      </trkpt>
      <trkpt lat="46.259341640397906" lon="8.014861308038235">
        <ele>2360.75</ele>
        <time>2020-02-16T10:52:04Z</time>
      </trkpt>
      <trkpt lat="46.259373323991895" lon="8.014940684661269">
        <ele>2362.0599999999999</ele>
        <time>2020-02-16T10:52:16Z</time>
      </trkpt>
      <trkpt lat="46.259408611804247" lon="8.015014445409179">
        <ele>2363.4499999999998</ele>
        <time>2020-02-16T10:52:28Z</time>
      </trkpt>
      <trkpt lat="46.259444989264011" lon="8.015097761526704">
        <ele>2364.5799999999999</ele>
        <time>2020-02-16T10:52:40Z</time>
      </trkpt>
      <trkpt lat="46.259491760283709" lon="8.015189794823527">
        <ele>2366.2399999999998</ele>
        <time>2020-02-16T10:52:54Z</time>
      </trkpt>
      <trkpt lat="46.259536352008581" lon="8.015272859483957">
        <ele>2367.98</ele>
        <time>2020-02-16T10:53:07Z</time>
      </trkpt>
      <trkpt lat="46.259559569880366" lon="8.015313930809498">
        <ele>2367.96</ele>
        <time>2020-02-16T10:53:17Z</time>
      </trkpt>
      <trkpt lat="46.259554708376527" lon="8.015316613018513">
        <ele>2367.8499999999999</ele>
        <time>2020-02-16T10:53:29Z</time>
      </trkpt>
      <trkpt lat="46.259554289281368" lon="8.015317870303989">
        <ele>2367.5500000000002</ele>
        <time>2020-02-16T10:53:30Z</time>
      </trkpt>
      <trkpt lat="46.259553199633956" lon="8.015319379046559">
        <ele>2369.0799999999999</ele>
        <time>2020-02-16T10:53:44Z</time>
      </trkpt>
      <trkpt lat="46.2595543731004" lon="8.01531988196075">
        <ele>2368.1900000000001</ele>
        <time>2020-02-16T10:53:58Z</time>
      </trkpt>
      <trkpt lat="46.259551104158163" lon="8.01533161662519">
        <ele>2367.8699999999999</ele>
        <time>2020-02-16T10:54:15Z</time>
      </trkpt>
      <trkpt lat="46.25954800285399" lon="8.015341255813837">
        <ele>2367.6700000000001</ele>
        <time>2020-02-16T10:54:30Z</time>
      </trkpt>
      <trkpt lat="46.259549427777529" lon="8.01534385420382">
        <ele>2367.73</ele>
        <time>2020-02-16T10:54:51Z</time>
      </trkpt>
      <trkpt lat="46.259545907378197" lon="8.015339495614171">
        <ele>2368.27</ele>
        <time>2020-02-16T10:55:08Z</time>
      </trkpt>
      <trkpt lat="46.259546913206577" lon="8.015342596918345">
        <ele>2368.1399999999999</ele>
        <time>2020-02-16T10:55:25Z</time>
      </trkpt>
      <trkpt lat="46.259543895721436" lon="8.01534578204155">
        <ele>2368.8099999999999</ele>
        <time>2020-02-16T10:55:38Z</time>
      </trkpt>
      <trkpt lat="46.259543476626277" lon="8.015344524756074">
        <ele>2368.8400000000001</ele>
        <time>2020-02-16T10:55:52Z</time>
      </trkpt>
      <trkpt lat="46.259541213512421" lon="8.015344189479947">
        <ele>2368.4400000000001</ele>
        <time>2020-02-16T10:56:10Z</time>
      </trkpt>
      <trkpt lat="46.259541464969516" lon="8.015349470078945">
        <ele>2368.3600000000001</ele>
        <time>2020-02-16T10:56:29Z</time>
      </trkpt>
      <trkpt lat="46.259545488283038" lon="8.015340166166425">
        <ele>2368.4099999999999</ele>
        <time>2020-02-16T10:56:49Z</time>
      </trkpt>
      <trkpt lat="46.259544901549816" lon="8.015339830890298">
        <ele>2368.6100000000001</ele>
        <time>2020-02-16T10:57:02Z</time>
      </trkpt>
      <trkpt lat="46.259547583758831" lon="8.015343770384789">
        <ele>2368.6399999999999</ele>
        <time>2020-02-16T10:57:16Z</time>
      </trkpt>
      <trkpt lat="46.259544985368848" lon="8.015346368774772">
        <ele>2369.1900000000001</ele>
        <time>2020-02-16T10:57:45Z</time>
      </trkpt>
      <trkpt lat="46.25954607501626" lon="8.015358354896307">
        <ele>2368.6700000000001</ele>
        <time>2020-02-16T10:58:19Z</time>
      </trkpt>
      <trkpt lat="46.259544482454658" lon="8.015356427058578">
        <ele>2368.8000000000002</ele>
        <time>2020-02-16T10:58:39Z</time>
      </trkpt>
      <trkpt lat="46.259590331465006" lon="8.015417531132698">
        <ele>2369.52</ele>
        <time>2020-02-16T10:58:52Z</time>
      </trkpt>
      <trkpt lat="46.259673479944468" lon="8.015537643805146">
        <ele>2369.6399999999999</ele>
        <time>2020-02-16T10:59:07Z</time>
      </trkpt>
      <trkpt lat="46.25974690541625" lon="8.015642585232854">
        <ele>2370.6300000000001</ele>
        <time>2020-02-16T10:59:21Z</time>
      </trkpt>
      <trkpt lat="46.259806416928768" lon="8.015755405649543">
        <ele>2371.7800000000002</ele>
        <time>2020-02-16T10:59:34Z</time>
      </trkpt>
      <trkpt lat="46.259871879592538" lon="8.015871997922659">
        <ele>2372.73</ele>
        <time>2020-02-16T10:59:48Z</time>
      </trkpt>
      <trkpt lat="46.259926194325089" lon="8.015994038432837">
        <ele>2373.2399999999998</ele>
        <time>2020-02-16T11:00:01Z</time>
      </trkpt>
      <trkpt lat="46.259983945637941" lon="8.016104428097606">
        <ele>2373.6700000000001</ele>
        <time>2020-02-16T11:00:14Z</time>
      </trkpt>
      <trkpt lat="46.26001269556582" lon="8.016156814992428">
        <ele>2373.96</ele>
        <time>2020-02-16T11:00:26Z</time>
      </trkpt>
      <trkpt lat="46.260012527927756" lon="8.01625999622047">
        <ele>2375.7600000000002</ele>
        <time>2020-02-16T11:00:38Z</time>
      </trkpt>
      <trkpt lat="46.260027950629592" lon="8.016364434733987">
        <ele>2377.0599999999999</ele>
        <time>2020-02-16T11:00:51Z</time>
      </trkpt>
      <trkpt lat="46.260090982541442" lon="8.016455210745335">
        <ele>2376.9200000000001</ele>
        <time>2020-02-16T11:01:03Z</time>
      </trkpt>
      <trkpt lat="46.260163905099034" lon="8.016545819118619">
        <ele>2376.8400000000001</ele>
        <time>2020-02-16T11:01:16Z</time>
      </trkpt>
      <trkpt lat="46.260209837928414" lon="8.016630727797747">
        <ele>2377.6599999999999</ele>
        <time>2020-02-16T11:01:28Z</time>
      </trkpt>
      <trkpt lat="46.260260632261634" lon="8.016741285100579">
        <ele>2378.0900000000001</ele>
        <time>2020-02-16T11:01:41Z</time>
      </trkpt>
      <trkpt lat="46.260291645303369" lon="8.016860643401742">
        <ele>2378.1700000000001</ele>
        <time>2020-02-16T11:01:53Z</time>
      </trkpt>
      <trkpt lat="46.260348809882998" lon="8.016981175169349">
        <ele>2378.1900000000001</ele>
        <time>2020-02-16T11:02:06Z</time>
      </trkpt>
      <trkpt lat="46.260402873158455" lon="8.017099695280194">
        <ele>2379.02</ele>
        <time>2020-02-16T11:02:22Z</time>
      </trkpt>
      <trkpt lat="46.260404130443931" lon="8.017112016677856">
        <ele>2379.1900000000001</ele>
        <time>2020-02-16T11:02:35Z</time>
      </trkpt>
      <trkpt lat="46.260400107130408" lon="8.017119979485869">
        <ele>2379.46</ele>
        <time>2020-02-16T11:02:51Z</time>
      </trkpt>
      <trkpt lat="46.260397676378489" lon="8.017120566219091">
        <ele>2379.25</ele>
        <time>2020-02-16T11:03:15Z</time>
      </trkpt>
      <trkpt lat="46.260401615872979" lon="8.017123499885202">
        <ele>2379.7199999999998</ele>
        <time>2020-02-16T11:03:36Z</time>
      </trkpt>
      <trkpt lat="46.260433467105031" lon="8.017166079953313">
        <ele>2380.5100000000002</ele>
        <time>2020-02-16T11:03:51Z</time>
      </trkpt>
      <trkpt lat="46.260469509288669" lon="8.017231123521924">
        <ele>2381.8200000000002</ele>
        <time>2020-02-16T11:04:02Z</time>
      </trkpt>
      <trkpt lat="46.260487446561456" lon="8.017342267557979">
        <ele>2384.04</ele>
        <time>2020-02-16T11:04:18Z</time>
      </trkpt>
      <trkpt lat="46.260505802929401" lon="8.017444526776671">
        <ele>2385.3800000000001</ele>
        <time>2020-02-16T11:04:31Z</time>
      </trkpt>
      <trkpt lat="46.260523153468966" lon="8.017543349415064">
        <ele>2386.8299999999999</ele>
        <time>2020-02-16T11:04:44Z</time>
      </trkpt>
      <trkpt lat="46.260538324713707" lon="8.017633371055126">
        <ele>2387.7399999999998</ele>
        <time>2020-02-16T11:04:55Z</time>
      </trkpt>
      <trkpt lat="46.26053505577147" lon="8.017725655809045">
        <ele>2389.23</ele>
        <time>2020-02-16T11:05:08Z</time>
      </trkpt>
      <trkpt lat="46.260546036064625" lon="8.017828837037087">
        <ele>2390.02</ele>
        <time>2020-02-16T11:05:21Z</time>
      </trkpt>
      <trkpt lat="46.26056288369" lon="8.017919026315212">
        <ele>2391.3899999999999</ele>
        <time>2020-02-16T11:05:35Z</time>
      </trkpt>
      <trkpt lat="46.260578976944089" lon="8.018007958307862">
        <ele>2393.2399999999998</ele>
        <time>2020-02-16T11:05:48Z</time>
      </trkpt>
      <trkpt lat="46.260595321655273" lon="8.018099656328559">
        <ele>2394.6900000000001</ele>
        <time>2020-02-16T11:06:01Z</time>
      </trkpt>
      <trkpt lat="46.260627927258611" lon="8.018166208639741">
        <ele>2396.4000000000001</ele>
        <time>2020-02-16T11:06:13Z</time>
      </trkpt>
      <trkpt lat="46.260678553953767" lon="8.018209123983979">
        <ele>2397.9400000000001</ele>
        <time>2020-02-16T11:06:26Z</time>
      </trkpt>
      <trkpt lat="46.260693725198507" lon="8.018222283571959">
        <ele>2398.8699999999999</ele>
        <time>2020-02-16T11:06:41Z</time>
      </trkpt>
      <trkpt lat="46.260700933635235" lon="8.018237957730889">
        <ele>2398.9099999999999</ele>
        <time>2020-02-16T11:06:58Z</time>
      </trkpt>
      <trkpt lat="46.260708644986153" lon="8.018232006579638">
        <ele>2399.0799999999999</ele>
        <time>2020-02-16T11:07:11Z</time>
      </trkpt>
      <trkpt lat="46.260719625279307" lon="8.018239047378302">
        <ele>2399.3600000000001</ele>
        <time>2020-02-16T11:07:24Z</time>
      </trkpt>
      <trkpt lat="46.260768827050924" lon="8.018282297998667">
        <ele>2401.6100000000001</ele>
        <time>2020-02-16T11:07:37Z</time>
      </trkpt>
      <trkpt lat="46.260814508423209" lon="8.018337702378631">
        <ele>2404</ele>
        <time>2020-02-16T11:07:51Z</time>
      </trkpt>
      <trkpt lat="46.260833032429218" lon="8.018355304375291">
        <ele>2405.0100000000002</ele>
        <time>2020-02-16T11:08:03Z</time>
      </trkpt>
      <trkpt lat="46.260833870619535" lon="8.018355639651418">
        <ele>2405.0500000000002</ele>
        <time>2020-02-16T11:08:18Z</time>
      </trkpt>
      <trkpt lat="46.260866308584809" lon="8.018412468954921">
        <ele>2406.3699999999999</ele>
        <time>2020-02-16T11:08:30Z</time>
      </trkpt>
      <trkpt lat="46.260897992178798" lon="8.018475417047739">
        <ele>2408.0599999999999</ele>
        <time>2020-02-16T11:08:42Z</time>
      </trkpt>
      <trkpt lat="46.260900925844908" lon="8.018485642969608">
        <ele>2407.7800000000002</ele>
        <time>2020-02-16T11:08:56Z</time>
      </trkpt>
      <trkpt lat="46.260917941108346" lon="8.018519170582295">
        <ele>2408.9299999999998</ele>
        <time>2020-02-16T11:09:12Z</time>
      </trkpt>
      <trkpt lat="46.260965382680297" lon="8.018561415374279">
        <ele>2410.3299999999999</ele>
        <time>2020-02-16T11:09:24Z</time>
      </trkpt>
      <trkpt lat="46.261007124558091" lon="8.01860055886209">
        <ele>2411.3299999999999</ele>
        <time>2020-02-16T11:09:36Z</time>
      </trkpt>
      <trkpt lat="46.261035371571779" lon="8.018662165850401">
        <ele>2412.8499999999999</ele>
        <time>2020-02-16T11:09:47Z</time>
      </trkpt>
      <trkpt lat="46.261032521724701" lon="8.018682952970266">
        <ele>2413.52</ele>
        <time>2020-02-16T11:09:57Z</time>
      </trkpt>
      <trkpt lat="46.261046351864934" lon="8.018721342086792">
        <ele>2413.9899999999998</ele>
        <time>2020-02-16T11:10:11Z</time>
      </trkpt>
      <trkpt lat="46.261077784001827" lon="8.018788732588291">
        <ele>2415.1500000000001</ele>
        <time>2020-02-16T11:10:24Z</time>
      </trkpt>
      <trkpt lat="46.261122124269605" lon="8.018825948238373">
        <ele>2416.6300000000001</ele>
        <time>2020-02-16T11:10:37Z</time>
      </trkpt>
      <trkpt lat="46.26114291138947" lon="8.018845226615667">
        <ele>2417.6199999999999</ele>
        <time>2020-02-16T11:10:49Z</time>
      </trkpt>
      <trkpt lat="46.261153556406498" lon="8.018888225778937">
        <ele>2418.0900000000001</ele>
        <time>2020-02-16T11:11:04Z</time>
      </trkpt>
      <trkpt lat="46.261191191151738" lon="8.018911276012659">
        <ele>2420.0999999999999</ele>
        <time>2020-02-16T11:11:15Z</time>
      </trkpt>
      <trkpt lat="46.261219521984458" lon="8.01894748583436">
        <ele>2421.3000000000002</ele>
        <time>2020-02-16T11:11:25Z</time>
      </trkpt>
      <trkpt lat="46.26123083755374" lon="8.01895528100431">
        <ele>2421.2399999999998</ele>
        <time>2020-02-16T11:11:37Z</time>
      </trkpt>
      <trkpt lat="46.261234609410167" lon="8.018963159993291">
        <ele>2422.5799999999999</ele>
        <time>2020-02-16T11:11:59Z</time>
      </trkpt>
      <trkpt lat="46.261234106495976" lon="8.018962405622006">
        <ele>2421.7199999999998</ele>
        <time>2020-02-16T11:12:01Z</time>
      </trkpt>
      <trkpt lat="46.261274423450232" lon="8.019013032317162">
        <ele>2423.3499999999999</ele>
        <time>2020-02-16T11:12:15Z</time>
      </trkpt>
      <trkpt lat="46.261306777596474" lon="8.019046727567911">
        <ele>2425.1300000000001</ele>
        <time>2020-02-16T11:12:25Z</time>
      </trkpt>
      <trkpt lat="46.261357152834535" lon="8.019113363698125">
        <ele>2426.8099999999999</ele>
        <time>2020-02-16T11:12:41Z</time>
      </trkpt>
      <trkpt lat="46.261369390413165" lon="8.019137838855386">
        <ele>2427.5799999999999</ele>
        <time>2020-02-16T11:12:54Z</time>
      </trkpt>
      <trkpt lat="46.26137257553637" lon="8.019192907959223">
        <ele>2428.4899999999998</ele>
        <time>2020-02-16T11:13:11Z</time>
      </trkpt>
      <trkpt lat="46.261383136734366" lon="8.019279157742858">
        <ele>2429.4899999999998</ele>
        <time>2020-02-16T11:13:22Z</time>
      </trkpt>
      <trkpt lat="46.261406941339374" lon="8.019354678690434">
        <ele>2431.1799999999998</ele>
        <time>2020-02-16T11:13:33Z</time>
      </trkpt>
      <trkpt lat="46.261436697095633" lon="8.019375549629331">
        <ele>2432.54</ele>
        <time>2020-02-16T11:13:45Z</time>
      </trkpt>
      <trkpt lat="46.261452538892627" lon="8.019452663138509">
        <ele>2433.2800000000002</ele>
        <time>2020-02-16T11:13:56Z</time>
      </trkpt>
      <trkpt lat="46.261477936059237" lon="8.019523741677404">
        <ele>2435.6500000000001</ele>
        <time>2020-02-16T11:14:09Z</time>
      </trkpt>
      <trkpt lat="46.261506266891956" lon="8.019586438313127">
        <ele>2437.6599999999999</ele>
        <time>2020-02-16T11:14:22Z</time>
      </trkpt>
      <trkpt lat="46.261519510298967" lon="8.019660199061036">
        <ele>2440.27</ele>
        <time>2020-02-16T11:14:35Z</time>
      </trkpt>
      <trkpt lat="46.261517498642206" lon="8.019671933725476">
        <ele>2440.4499999999998</ele>
        <time>2020-02-16T11:14:48Z</time>
      </trkpt>
      <trkpt lat="46.26151816919446" lon="8.019677717238665">
        <ele>2440.9400000000001</ele>
        <time>2020-02-16T11:15:02Z</time>
      </trkpt>
      <trkpt lat="46.261524623259902" lon="8.019680734723806">
        <ele>2440.46</ele>
        <time>2020-02-16T11:15:17Z</time>
      </trkpt>
      <trkpt lat="46.261524623259902" lon="8.019679645076394">
        <ele>2440.9200000000001</ele>
        <time>2020-02-16T11:15:34Z</time>
      </trkpt>
      <trkpt lat="46.261537782847881" lon="8.019716609269381">
        <ele>2441.3000000000002</ele>
        <time>2020-02-16T11:15:45Z</time>
      </trkpt>
      <trkpt lat="46.261585140600801" lon="8.019809732213616">
        <ele>2443.04</ele>
        <time>2020-02-16T11:16:00Z</time>
      </trkpt>
      <trkpt lat="46.261637276038527" lon="8.019855245947838">
        <ele>2444.8200000000002</ele>
        <time>2020-02-16T11:16:13Z</time>
      </trkpt>
      <trkpt lat="46.261672228574753" lon="8.019883073866367">
        <ele>2446.1599999999999</ele>
        <time>2020-02-16T11:16:26Z</time>
      </trkpt>
      <trkpt lat="46.261674659326673" lon="8.019883828237653">
        <ele>2446.1300000000001</ele>
        <time>2020-02-16T11:16:42Z</time>
      </trkpt>
      <trkpt lat="46.261729141697288" lon="8.019902938976884">
        <ele>2447.4099999999999</ele>
        <time>2020-02-16T11:16:55Z</time>
      </trkpt>
      <trkpt lat="46.261812709271908" lon="8.019961025565863">
        <ele>2450.6500000000001</ele>
        <time>2020-02-16T11:17:15Z</time>
      </trkpt>
      <trkpt lat="46.261834083124995" lon="8.019983237609267">
        <ele>2451.8600000000001</ele>
        <time>2020-02-16T11:17:26Z</time>
      </trkpt>
      <trkpt lat="46.26183919608593" lon="8.019986674189568">
        <ele>2451.8000000000002</ele>
        <time>2020-02-16T11:17:40Z</time>
      </trkpt>
      <trkpt lat="46.261850344017148" lon="8.02001416683197">
        <ele>2452.6399999999999</ele>
        <time>2020-02-16T11:17:51Z</time>
      </trkpt>
      <trkpt lat="46.261898539960384" lon="8.020085413008928">
        <ele>2455.79</ele>
        <time>2020-02-16T11:18:06Z</time>
      </trkpt>
      <trkpt lat="46.261943131685257" lon="8.020139308646321">
        <ele>2457.0500000000002</ele>
        <time>2020-02-16T11:18:20Z</time>
      </trkpt>
      <trkpt lat="46.261943550780416" lon="8.020144002512097">
        <ele>2457.4000000000001</ele>
        <time>2020-02-16T11:18:40Z</time>
      </trkpt>
      <trkpt lat="46.261996692046523" lon="8.020198401063681">
        <ele>2458.1700000000001</ele>
        <time>2020-02-16T11:18:53Z</time>
      </trkpt>
      <trkpt lat="46.262044385075569" lon="8.020270736888051">
        <ele>2459.48</ele>
        <time>2020-02-16T11:19:05Z</time>
      </trkpt>
      <trkpt lat="46.262080930173397" lon="8.020326225087047">
        <ele>2459.8699999999999</ele>
        <time>2020-02-16T11:19:16Z</time>
      </trkpt>
      <trkpt lat="46.262132227420807" lon="8.020405098795891">
        <ele>2461.1999999999998</ele>
        <time>2020-02-16T11:19:27Z</time>
      </trkpt>
      <trkpt lat="46.262204898521304" lon="8.020454803481698">
        <ele>2462.8899999999999</ele>
        <time>2020-02-16T11:19:39Z</time>
      </trkpt>
      <trkpt lat="46.262291483581066" lon="8.020466789603233">
        <ele>2462.6799999999998</ele>
        <time>2020-02-16T11:19:52Z</time>
      </trkpt>
      <trkpt lat="46.262313863262534" lon="8.020419180393219">
        <ele>2464.1199999999999</ele>
        <time>2020-02-16T11:20:02Z</time>
      </trkpt>
      <trkpt lat="46.262313779443502" lon="8.020409625023603">
        <ele>2463.8499999999999</ele>
        <time>2020-02-16T11:20:16Z</time>
      </trkpt>
      <trkpt lat="46.262313360348344" lon="8.020413061603904">
        <ele>2463.6100000000001</ele>
        <time>2020-02-16T11:20:30Z</time>
      </trkpt>
      <trkpt lat="46.26231612637639" lon="8.02042119204998">
        <ele>2463.98</ele>
        <time>2020-02-16T11:20:42Z</time>
      </trkpt>
      <trkpt lat="46.262328783050179" lon="8.020420605316758">
        <ele>2464.3899999999999</ele>
        <time>2020-02-16T11:21:02Z</time>
      </trkpt>
      <trkpt lat="46.26232635229826" lon="8.020416162908077">
        <ele>2465.02</ele>
        <time>2020-02-16T11:21:15Z</time>
      </trkpt>
      <trkpt lat="46.262325514107943" lon="8.02041825838387">
        <ele>2464.8600000000001</ele>
        <time>2020-02-16T11:21:27Z</time>
      </trkpt>
      <trkpt lat="46.262305900454521" lon="8.020370984449983">
        <ele>2464.0999999999999</ele>
        <time>2020-02-16T11:21:38Z</time>
      </trkpt>
      <trkpt lat="46.262303469702601" lon="8.020374672487378">
        <ele>2464.8099999999999</ele>
        <time>2020-02-16T11:21:51Z</time>
      </trkpt>
      <trkpt lat="46.262321323156357" lon="8.02037282846868">
        <ele>2465.46</ele>
        <time>2020-02-16T11:22:02Z</time>
      </trkpt>
      <trkpt lat="46.262341942638159" lon="8.020365703850985">
        <ele>2466.9000000000001</ele>
        <time>2020-02-16T11:22:15Z</time>
      </trkpt>
      <trkpt lat="46.262343367561698" lon="8.02037282846868">
        <ele>2466.6500000000001</ele>
        <time>2020-02-16T11:22:27Z</time>
      </trkpt>
      <trkpt lat="46.26234345138073" lon="8.020375091582537">
        <ele>2466.3200000000002</ele>
        <time>2020-02-16T11:22:43Z</time>
      </trkpt>
      <trkpt lat="46.262348145246506" lon="8.020404512062669">
        <ele>2465.8000000000002</ele>
        <time>2020-02-16T11:22:58Z</time>
      </trkpt>
      <trkpt lat="46.262339344248176" lon="8.020454132929444">
        <ele>2465.04</ele>
        <time>2020-02-16T11:23:10Z</time>
      </trkpt>
      <trkpt lat="46.262306403368711" lon="8.020437369123101">
        <ele>2464.5900000000001</ele>
        <time>2020-02-16T11:23:19Z</time>
      </trkpt>
      <trkpt lat="46.262254854664207" lon="8.020488331094384">
        <ele>2463.4499999999998</ele>
        <time>2020-02-16T11:23:29Z</time>
      </trkpt>
      <trkpt lat="46.262247394770384" lon="8.020494366064668">
        <ele>2462.5799999999999</ele>
        <time>2020-02-16T11:23:40Z</time>
      </trkpt>
      <trkpt lat="46.262244125828147" lon="8.020502831786871">
        <ele>2462.3000000000002</ele>
        <time>2020-02-16T11:23:53Z</time>
      </trkpt>
      <trkpt lat="46.262242114171386" lon="8.020514650270343">
        <ele>2462.23</ele>
        <time>2020-02-16T11:24:05Z</time>
      </trkpt>
      <trkpt lat="46.262238007038832" lon="8.020514482632279">
        <ele>2462.3099999999999</ele>
        <time>2020-02-16T11:24:23Z</time>
      </trkpt>
      <trkpt lat="46.262240102514625" lon="8.020512303337455">
        <ele>2462.6300000000001</ele>
        <time>2020-02-16T11:24:49Z</time>
      </trkpt>
      <trkpt lat="46.262240773066878" lon="8.020509202033281">
        <ele>2462.3200000000002</ele>
        <time>2020-02-16T11:25:06Z</time>
      </trkpt>
      <trkpt lat="46.262239096686244" lon="8.020506771281362">
        <ele>2462.5500000000002</ele>
        <time>2020-02-16T11:25:29Z</time>
      </trkpt>
      <trkpt lat="46.262240689247847" lon="8.020505346357822">
        <ele>2462.8299999999999</ele>
        <time>2020-02-16T11:25:46Z</time>
      </trkpt>
      <trkpt lat="46.262244461104274" lon="8.020502747967839">
        <ele>2462.52</ele>
        <time>2020-02-16T11:26:04Z</time>
      </trkpt>
      <trkpt lat="46.262245634570718" lon="8.020501658320427">
        <ele>2464.4299999999998</ele>
        <time>2020-02-16T11:26:14Z</time>
      </trkpt>
      <trkpt lat="46.262242533266544" lon="8.020501909777522">
        <ele>2462.27</ele>
        <time>2020-02-16T11:26:33Z</time>
      </trkpt>
      <trkpt lat="46.262243119999766" lon="8.020499562844634">
        <ele>2462.77</ele>
        <time>2020-02-16T11:26:47Z</time>
      </trkpt>
      <trkpt lat="46.262241443619132" lon="8.020503083243966">
        <ele>2462.9200000000001</ele>
        <time>2020-02-16T11:27:16Z</time>
      </trkpt>
      <trkpt lat="46.262240018695593" lon="8.020506603643298">
        <ele>2462.2399999999998</ele>
        <time>2020-02-16T11:27:30Z</time>
      </trkpt>
      <trkpt lat="46.262232810258865" lon="8.020517248660326">
        <ele>2462.9400000000001</ele>
        <time>2020-02-16T11:27:42Z</time>
      </trkpt>
      <trkpt lat="46.262235576286912" lon="8.02051892504096">
        <ele>2462.8899999999999</ele>
        <time>2020-02-16T11:27:55Z</time>
      </trkpt>
      <trkpt lat="46.262234402820468" lon="8.020518170669675">
        <ele>2462.8000000000002</ele>
        <time>2020-02-16T11:28:12Z</time>
      </trkpt>
      <trkpt lat="46.262235743924975" lon="8.020520769059658">
        <ele>2463.0300000000002</ele>
        <time>2020-02-16T11:28:26Z</time>
      </trkpt>
      <trkpt lat="46.262235073372722" lon="8.020519847050309">
        <ele>2463.5</ele>
        <time>2020-02-16T11:28:53Z</time>
      </trkpt>
      <trkpt lat="46.262237587943673" lon="8.020521020516753">
        <ele>2463.6599999999999</ele>
        <time>2020-02-16T11:29:13Z</time>
      </trkpt>
      <trkpt lat="46.262237839400768" lon="8.020525882020593">
        <ele>2463.1900000000001</ele>
        <time>2020-02-16T11:29:26Z</time>
      </trkpt>
      <trkpt lat="46.26223205588758" lon="8.020526804029942">
        <ele>2463.5100000000002</ele>
        <time>2020-02-16T11:29:52Z</time>
      </trkpt>
      <trkpt lat="46.262230044230819" lon="8.020523535087705">
        <ele>2463.3200000000002</ele>
        <time>2020-02-16T11:30:08Z</time>
      </trkpt>
      <trkpt lat="46.262230882421136" lon="8.020522780716419">
        <ele>2463.4699999999998</ele>
        <time>2020-02-16T11:30:27Z</time>
      </trkpt>
      <trkpt lat="46.262230044230819" lon="8.020520014688373">
        <ele>2463.21</ele>
        <time>2020-02-16T11:30:52Z</time>
      </trkpt>
      <trkpt lat="46.262193666771054" lon="8.020501239225268">
        <ele>2463.7800000000002</ele>
        <time>2020-02-16T11:31:04Z</time>
      </trkpt>
      <trkpt lat="46.262104483321309" lon="8.020481038838625">
        <ele>2463.1599999999999</ele>
        <time>2020-02-16T11:31:16Z</time>
      </trkpt>
      <trkpt lat="46.262031393125653" lon="8.020507944747806">
        <ele>2463.1199999999999</ele>
        <time>2020-02-16T11:31:27Z</time>
      </trkpt>
      <trkpt lat="46.261982275173068" lon="8.020505765452981">
        <ele>2464.0100000000002</ele>
        <time>2020-02-16T11:31:40Z</time>
      </trkpt>
      <trkpt lat="46.261980179697275" lon="8.020508782938123">
        <ele>2463.8800000000001</ele>
        <time>2020-02-16T11:31:55Z</time>
      </trkpt>
      <trkpt lat="46.261978838592768" lon="8.020511632785201">
        <ele>2463.7800000000002</ele>
        <time>2020-02-16T11:32:09Z</time>
      </trkpt>
      <trkpt lat="46.261982275173068" lon="8.02050668746233">
        <ele>2463.5500000000002</ele>
        <time>2020-02-16T11:32:27Z</time>
      </trkpt>
      <trkpt lat="46.26197699457407" lon="8.020507860928774">
        <ele>2463.6100000000001</ele>
        <time>2020-02-16T11:32:44Z</time>
      </trkpt>
      <trkpt lat="46.261975821107626" lon="8.020511129871011">
        <ele>2463.6700000000001</ele>
        <time>2020-02-16T11:33:00Z</time>
      </trkpt>
      <trkpt lat="46.261979006230831" lon="8.020519344136119">
        <ele>2463.6500000000001</ele>
        <time>2020-02-16T11:33:21Z</time>
      </trkpt>
      <trkpt lat="46.26197699457407" lon="8.020519511774182">
        <ele>2463.6100000000001</ele>
        <time>2020-02-16T11:33:42Z</time>
      </trkpt>
      <trkpt lat="46.261976659297943" lon="8.020516075193882">
        <ele>2463.3400000000001</ele>
        <time>2020-02-16T11:34:06Z</time>
      </trkpt>
      <trkpt lat="46.261974396184087" lon="8.020513812080026">
        <ele>2463.5500000000002</ele>
        <time>2020-02-16T11:34:24Z</time>
      </trkpt>
      <trkpt lat="46.261976072564721" lon="8.020510794594884">
        <ele>2463.29</ele>
        <time>2020-02-16T11:34:37Z</time>
      </trkpt>
      <trkpt lat="46.261977329850197" lon="8.020509956404567">
        <ele>2463.6300000000001</ele>
        <time>2020-02-16T11:35:07Z</time>
      </trkpt>
      <trkpt lat="46.261975318193436" lon="8.020511465147138">
        <ele>2463.6100000000001</ele>
        <time>2020-02-16T11:35:28Z</time>
      </trkpt>
      <trkpt lat="46.261984957382083" lon="8.020498054102063">
        <ele>2463.0799999999999</ele>
        <time>2020-02-16T11:35:45Z</time>
      </trkpt>
      <trkpt lat="46.262036841362715" lon="8.020494366064668">
        <ele>2463.2199999999998</ele>
        <time>2020-02-16T11:35:55Z</time>
      </trkpt>
      <trkpt lat="46.262089228257537" lon="8.020464694127441">
        <ele>2463.1100000000001</ele>
        <time>2020-02-16T11:36:05Z</time>
      </trkpt>
      <trkpt lat="46.262111021205783" lon="8.020413313060999">
        <ele>2462.0799999999999</ele>
        <time>2020-02-16T11:36:15Z</time>
      </trkpt>
      <trkpt lat="46.262117894366384" lon="8.020409122109413">
        <ele>2462</ele>
        <time>2020-02-16T11:36:37Z</time>
      </trkpt>
      <trkpt lat="46.26211822964251" lon="8.020413564518094">
        <ele>2462.1700000000001</ele>
        <time>2020-02-16T11:37:03Z</time>
      </trkpt>
      <trkpt lat="46.262105572968721" lon="8.020399315282702">
        <ele>2461.8099999999999</ele>
        <time>2020-02-16T11:37:15Z</time>
      </trkpt>
      <trkpt lat="46.262104818597436" lon="8.020395040512085">
        <ele>2461.7199999999998</ele>
        <time>2020-02-16T11:37:35Z</time>
      </trkpt>
      <trkpt lat="46.262104148045182" lon="8.020394453778863">
        <ele>2461.6100000000001</ele>
        <time>2020-02-16T11:37:57Z</time>
      </trkpt>
      <trkpt lat="46.262051593512297" lon="8.020325135439634">
        <ele>2460.6700000000001</ele>
        <time>2020-02-16T11:38:06Z</time>
      </trkpt>
      <trkpt lat="46.262000212445855" lon="8.020252967253327">
        <ele>2459.98</ele>
        <time>2020-02-16T11:38:14Z</time>
      </trkpt>
      <trkpt lat="46.261896779760718" lon="8.020119527354837">
        <ele>2457.5900000000001</ele>
        <time>2020-02-16T11:38:29Z</time>
      </trkpt>
      <trkpt lat="46.261829975992441" lon="8.020031182095408">
        <ele>2454.73</ele>
        <time>2020-02-16T11:38:42Z</time>
      </trkpt>
      <trkpt lat="46.261823186650872" lon="8.02003956399858">
        <ele>2454.7399999999998</ele>
        <time>2020-02-16T11:39:02Z</time>
      </trkpt>
      <trkpt lat="46.261809021234512" lon="8.020008970052004">
        <ele>2454.0799999999999</ele>
        <time>2020-02-16T11:39:12Z</time>
      </trkpt>
      <trkpt lat="46.261749006807804" lon="8.019934538751841">
        <ele>2450.9000000000001</ele>
        <time>2020-02-16T11:39:25Z</time>
      </trkpt>
      <trkpt lat="46.261696116998792" lon="8.019906291738153">
        <ele>2448.79</ele>
        <time>2020-02-16T11:39:38Z</time>
      </trkpt>
      <trkpt lat="46.261693267151713" lon="8.019904531538487">
        <ele>2448.4899999999998</ele>
        <time>2020-02-16T11:39:59Z</time>
      </trkpt>
      <trkpt lat="46.261680861935019" lon="8.01989832893014">
        <ele>2448.4899999999998</ele>
        <time>2020-02-16T11:40:10Z</time>
      </trkpt>
      <trkpt lat="46.26158706843853" lon="8.019825574010611">
        <ele>2445.79</ele>
        <time>2020-02-16T11:40:23Z</time>
      </trkpt>
      <trkpt lat="46.261548679322004" lon="8.019765559583902">
        <ele>2444.2600000000002</ele>
        <time>2020-02-16T11:40:30Z</time>
      </trkpt>
      <trkpt lat="46.261494280770421" lon="8.019633796066046">
        <ele>2442.0799999999999</ele>
        <time>2020-02-16T11:40:43Z</time>
      </trkpt>
      <trkpt lat="46.261464189738035" lon="8.01955240778625">
        <ele>2438.9299999999998</ele>
        <time>2020-02-16T11:40:52Z</time>
      </trkpt>
      <trkpt lat="46.261435272172093" lon="8.019457859918475">
        <ele>2435.8600000000001</ele>
        <time>2020-02-16T11:41:02Z</time>
      </trkpt>
      <trkpt lat="46.261385902762413" lon="8.019367251545191">
        <ele>2433.5799999999999</ele>
        <time>2020-02-16T11:41:13Z</time>
      </trkpt>
      <trkpt lat="46.261306442320347" lon="8.019227022305131">
        <ele>2430.1900000000001</ele>
        <time>2020-02-16T11:41:27Z</time>
      </trkpt>
      <trkpt lat="46.261282302439213" lon="8.019143706187606">
        <ele>2428.8099999999999</ele>
        <time>2020-02-16T11:41:36Z</time>
      </trkpt>
      <trkpt lat="46.261252630501986" lon="8.01901881583035">
        <ele>2425.6300000000001</ele>
        <time>2020-02-16T11:41:49Z</time>
      </trkpt>
      <trkpt lat="46.261194040998816" lon="8.018945222720504">
        <ele>2423.3200000000002</ele>
        <time>2020-02-16T11:42:02Z</time>
      </trkpt>
      <trkpt lat="46.261123549193144" lon="8.01887271925807">
        <ele>2420.4000000000001</ele>
        <time>2020-02-16T11:42:16Z</time>
      </trkpt>
      <trkpt lat="46.261052135378122" lon="8.018782697618008">
        <ele>2417.6399999999999</ele>
        <time>2020-02-16T11:42:28Z</time>
      </trkpt>
      <trkpt lat="46.260982900857925" lon="8.01861958578229">
        <ele>2414.23</ele>
        <time>2020-02-16T11:42:43Z</time>
      </trkpt>
      <trkpt lat="46.260891789570451" lon="8.018496790900827">
        <ele>2410.96</ele>
        <time>2020-02-16T11:42:58Z</time>
      </trkpt>
      <trkpt lat="46.260849544778466" lon="8.018410541117191">
        <ele>2408.7800000000002</ele>
        <time>2020-02-16T11:43:10Z</time>
      </trkpt>
      <trkpt lat="46.260822135955095" lon="8.018380450084806">
        <ele>2408.0999999999999</ele>
        <time>2020-02-16T11:43:27Z</time>
      </trkpt>
      <trkpt lat="46.260763546451926" lon="8.018306773155928">
        <ele>2405.0300000000002</ele>
        <time>2020-02-16T11:43:37Z</time>
      </trkpt>
      <trkpt lat="46.260686349123716" lon="8.018220607191324">
        <ele>2401.8000000000002</ele>
        <time>2020-02-16T11:43:49Z</time>
      </trkpt>
      <trkpt lat="46.260590208694339" lon="8.018111893907189">
        <ele>2398.6900000000001</ele>
        <time>2020-02-16T11:44:02Z</time>
      </trkpt>
      <trkpt lat="46.260505383834243" lon="8.017999995499849">
        <ele>2395.5999999999999</ele>
        <time>2020-02-16T11:44:14Z</time>
      </trkpt>
      <trkpt lat="46.260465485975146" lon="8.017897820100188">
        <ele>2393.0300000000002</ele>
        <time>2020-02-16T11:44:27Z</time>
      </trkpt>
      <trkpt lat="46.260442016646266" lon="8.017778797075152">
        <ele>2390.9099999999999</ele>
        <time>2020-02-16T11:44:38Z</time>
      </trkpt>
      <trkpt lat="46.260415026918054" lon="8.017665725201368">
        <ele>2388.9000000000001</ele>
        <time>2020-02-16T11:44:48Z</time>
      </trkpt>
      <trkpt lat="46.260396670550108" lon="8.017509821802378">
        <ele>2387.1199999999999</ele>
        <time>2020-02-16T11:45:01Z</time>
      </trkpt>
      <trkpt lat="46.260441681370139" lon="8.017439832910895">
        <ele>2387.79</ele>
        <time>2020-02-16T11:45:14Z</time>
      </trkpt>
      <trkpt lat="46.260435981675982" lon="8.017439162358642">
        <ele>2387.3800000000001</ele>
        <time>2020-02-16T11:45:28Z</time>
      </trkpt>
      <trkpt lat="46.260433383285999" lon="8.017434636130929">
        <ele>2387.5799999999999</ele>
        <time>2020-02-16T11:45:41Z</time>
      </trkpt>
      <trkpt lat="46.260459283366799" lon="8.017365569248796">
        <ele>2386.9099999999999</ele>
        <time>2020-02-16T11:45:52Z</time>
      </trkpt>
      <trkpt lat="46.260496415197849" lon="8.017297927290201">
        <ele>2386.4200000000001</ele>
        <time>2020-02-16T11:46:02Z</time>
      </trkpt>
      <trkpt lat="46.260489542037249" lon="8.017306812107563">
        <ele>2386.3499999999999</ele>
        <time>2020-02-16T11:46:14Z</time>
      </trkpt>
      <trkpt lat="46.260421145707369" lon="8.017359869554639">
        <ele>2386.3699999999999</ele>
        <time>2020-02-16T11:46:25Z</time>
      </trkpt>
      <trkpt lat="46.260402956977487" lon="8.017413932830095">
        <ele>2386.8099999999999</ele>
        <time>2020-02-16T11:46:36Z</time>
      </trkpt>
      <trkpt lat="46.260406728833914" lon="8.017422398552299">
        <ele>2385.9499999999998</ele>
        <time>2020-02-16T11:46:48Z</time>
      </trkpt>
      <trkpt lat="46.260409662500024" lon="8.017433881759644">
        <ele>2385.8200000000002</ele>
        <time>2020-02-16T11:47:14Z</time>
      </trkpt>
      <trkpt lat="46.26040605828166" lon="8.017440838739276">
        <ele>2386.3600000000001</ele>
        <time>2020-02-16T11:48:19Z</time>
      </trkpt>
      <trkpt lat="46.260403795167804" lon="8.017437066882849">
        <ele>2386.8899999999999</ele>
        <time>2020-02-16T11:49:13Z</time>
      </trkpt>
      <trkpt lat="46.260409411042929" lon="8.017415022477508">
        <ele>2386.9000000000001</ele>
        <time>2020-02-16T11:50:12Z</time>
      </trkpt>
      <trkpt lat="46.260402454063296" lon="8.017417201772332">
        <ele>2386.8499999999999</ele>
        <time>2020-02-16T11:50:32Z</time>
      </trkpt>
      <trkpt lat="46.260388875380158" lon="8.017413932830095">
        <ele>2386.6999999999998</ele>
        <time>2020-02-16T11:51:22Z</time>
      </trkpt>
      <trkpt lat="46.260387701913714" lon="8.017414435744286">
        <ele>2386.6199999999999</ele>
        <time>2020-02-16T11:52:13Z</time>
      </trkpt>
      <trkpt lat="46.260382924228907" lon="8.017416950315237">
        <ele>2386.7800000000002</ele>
        <time>2020-02-16T11:53:14Z</time>
      </trkpt>
      <trkpt lat="46.26038602553308" lon="8.017422566190362">
        <ele>2386.5599999999999</ele>
        <time>2020-02-16T11:54:16Z</time>
      </trkpt>
      <trkpt lat="46.260387198999524" lon="8.017415525391698">
        <ele>2386.7800000000002</ele>
        <time>2020-02-16T11:55:14Z</time>
      </trkpt>
      <trkpt lat="46.260387701913714" lon="8.017421392723918">
        <ele>2386.7800000000002</ele>
        <time>2020-02-16T11:56:16Z</time>
      </trkpt>
      <trkpt lat="46.260386947542429" lon="8.01742441020906">
        <ele>2387.1999999999998</ele>
        <time>2020-02-16T11:57:17Z</time>
      </trkpt>
      <trkpt lat="46.260384349152446" lon="8.017426421865821">
        <ele>2387.46</ele>
        <time>2020-02-16T11:57:55Z</time>
      </trkpt>
      <trkpt lat="46.260389545932412" lon="8.017425835132599">
        <ele>2387.4899999999998</ele>
        <time>2020-02-16T11:58:57Z</time>
      </trkpt>
      <trkpt lat="46.260392731055617" lon="8.017412088811398">
        <ele>2388.1599999999999</ele>
        <time>2020-02-16T11:59:58Z</time>
      </trkpt>
      <trkpt lat="46.260390300303698" lon="8.017415944486857">
        <ele>2388.0900000000001</ele>
        <time>2020-02-16T12:01:19Z</time>
      </trkpt>
      <trkpt lat="46.260387618094683" lon="8.017407730221748">
        <ele>2388.0999999999999</ele>
        <time>2020-02-16T12:02:36Z</time>
      </trkpt>
      <trkpt lat="46.260387534275651" lon="8.017415944486857">
        <ele>2387.7600000000002</ele>
        <time>2020-02-16T12:03:32Z</time>
      </trkpt>
      <trkpt lat="46.260392814874649" lon="8.01740831695497">
        <ele>2387.6700000000001</ele>
        <time>2020-02-16T12:04:24Z</time>
      </trkpt>
      <trkpt lat="46.260395245626569" lon="8.017405634745956">
        <ele>2388</ele>
        <time>2020-02-16T12:05:23Z</time>
      </trkpt>
      <trkpt lat="46.260384600609541" lon="8.017405550926924">
        <ele>2388.9899999999998</ele>
        <time>2020-02-16T12:05:34Z</time>
      </trkpt>
      <trkpt lat="46.260407147929072" lon="8.017376465722919">
        <ele>2388.8600000000001</ele>
        <time>2020-02-16T12:05:49Z</time>
      </trkpt>
      <trkpt lat="46.260447297245264" lon="8.017257107421756">
        <ele>2387.4299999999998</ele>
        <time>2020-02-16T12:06:01Z</time>
      </trkpt>
      <trkpt lat="46.260364232584834" lon="8.017094079405069">
        <ele>2384.1700000000001</ele>
        <time>2020-02-16T12:06:14Z</time>
      </trkpt>
      <trkpt lat="46.260266667231917" lon="8.016898781061173">
        <ele>2383.3000000000002</ele>
        <time>2020-02-16T12:06:28Z</time>
      </trkpt>
      <trkpt lat="46.260216543450952" lon="8.016705913469195">
        <ele>2383.1300000000001</ele>
        <time>2020-02-16T12:06:41Z</time>
      </trkpt>
      <trkpt lat="46.260159378871322" lon="8.016595356166363">
        <ele>2382.9400000000001</ele>
        <time>2020-02-16T12:06:50Z</time>
      </trkpt>
      <trkpt lat="46.260042283684015" lon="8.016433166339994">
        <ele>2381.9699999999998</ele>
        <time>2020-02-16T12:07:05Z</time>
      </trkpt>
      <trkpt lat="46.259956369176507" lon="8.016291344538331">
        <ele>2381.04</ele>
        <time>2020-02-16T12:07:18Z</time>
      </trkpt>
      <trkpt lat="46.259904401376843" lon="8.016145080327988">
        <ele>2379.7800000000002</ele>
        <time>2020-02-16T12:07:31Z</time>
      </trkpt>
      <trkpt lat="46.259862910956144" lon="8.01594047807157">
        <ele>2377.9299999999998</ele>
        <time>2020-02-16T12:07:45Z</time>
      </trkpt>
      <trkpt lat="46.259806919842958" lon="8.015787675976753">
        <ele>2377.0100000000002</ele>
        <time>2020-02-16T12:07:59Z</time>
      </trkpt>
      <trkpt lat="46.259681275114417" lon="8.015598664060235">
        <ele>2375</ele>
        <time>2020-02-16T12:08:16Z</time>
      </trkpt>
      <trkpt lat="46.259569292888045" lon="8.015419710427523">
        <ele>2374.1500000000001</ele>
        <time>2020-02-16T12:08:32Z</time>
      </trkpt>
      <trkpt lat="46.259480863809586" lon="8.015242852270603">
        <ele>2372.5799999999999</ele>
        <time>2020-02-16T12:08:47Z</time>
      </trkpt>
      <trkpt lat="46.259399559348822" lon="8.015053756535053">
        <ele>2369.5799999999999</ele>
        <time>2020-02-16T12:09:01Z</time>
      </trkpt>
      <trkpt lat="46.25935647636652" lon="8.014933811500669">
        <ele>2367.4899999999998</ele>
        <time>2020-02-16T12:09:12Z</time>
      </trkpt>
      <trkpt lat="46.259337617084384" lon="8.014826439321041">
        <ele>2365.54</ele>
        <time>2020-02-16T12:09:21Z</time>
      </trkpt>
      <trkpt lat="46.259319009259343" lon="8.014771202579141">
        <ele>2364.5900000000001</ele>
        <time>2020-02-16T12:09:32Z</time>
      </trkpt>
      <trkpt lat="46.25932713970542" lon="8.014765670523047">
        <ele>2364.6599999999999</ele>
        <time>2020-02-16T12:09:48Z</time>
      </trkpt>
      <trkpt lat="46.259328732267022" lon="8.014758210629225">
        <ele>2364.5799999999999</ele>
        <time>2020-02-16T12:09:49Z</time>
      </trkpt>
      <trkpt lat="46.259338287636638" lon="8.01471839658916">
        <ele>2364.4000000000001</ele>
        <time>2020-02-16T12:09:52Z</time>
      </trkpt>
      <trkpt lat="46.259336275979877" lon="8.014509435743094">
        <ele>2362.9400000000001</ele>
        <time>2020-02-16T12:10:09Z</time>
      </trkpt>
      <trkpt lat="46.259317165240645" lon="8.014441793784499">
        <ele>2363.46</ele>
        <time>2020-02-16T12:10:21Z</time>
      </trkpt>
      <trkpt lat="46.259326385334134" lon="8.014450343325734">
        <ele>2362.0500000000002</ele>
        <time>2020-02-16T12:10:32Z</time>
      </trkpt>
      <trkpt lat="46.259335689246655" lon="8.014439530670643">
        <ele>2362.1900000000001</ele>
        <time>2020-02-16T12:11:07Z</time>
      </trkpt>
      <trkpt lat="46.25933644361794" lon="8.014446487650275">
        <ele>2362.29</ele>
        <time>2020-02-16T12:11:47Z</time>
      </trkpt>
      <trkpt lat="46.259340969845653" lon="8.014455959200859">
        <ele>2362.0999999999999</ele>
        <time>2020-02-16T12:12:46Z</time>
      </trkpt>
      <trkpt lat="46.25934281386435" lon="8.014459647238255">
        <ele>2361.8099999999999</ele>
        <time>2020-02-16T12:14:00Z</time>
      </trkpt>
      <trkpt lat="46.259339209645987" lon="8.014457551762462">
        <ele>2361.3899999999999</ele>
        <time>2020-02-16T12:15:11Z</time>
      </trkpt>
      <trkpt lat="46.259329235181212" lon="8.014475908130407">
        <ele>2361.46</ele>
        <time>2020-02-16T12:16:23Z</time>
      </trkpt>
      <trkpt lat="46.259327223524451" lon="8.014475237578154">
        <ele>2360.9000000000001</ele>
        <time>2020-02-16T12:17:36Z</time>
      </trkpt>
      <trkpt lat="46.259330241009593" lon="8.014467023313046">
        <ele>2360.5999999999999</ele>
        <time>2020-02-16T12:18:46Z</time>
      </trkpt>
      <trkpt lat="46.259340718388557" lon="8.014448499307036">
        <ele>2360.5599999999999</ele>
        <time>2020-02-16T12:19:22Z</time>
      </trkpt>
      <trkpt lat="46.259343903511763" lon="8.014462916180491">
        <ele>2362.0500000000002</ele>
        <time>2020-02-16T12:19:47Z</time>
      </trkpt>
      <trkpt lat="46.259362092241645" lon="8.014507507905364">
        <ele>2362.0300000000002</ele>
        <time>2020-02-16T12:19:58Z</time>
      </trkpt>
      <trkpt lat="46.259325128048658" lon="8.014538185670972">
        <ele>2360.4400000000001</ele>
        <time>2020-02-16T12:20:06Z</time>
      </trkpt>
      <trkpt lat="46.259248433634639" lon="8.014610437676311">
        <ele>2358.9400000000001</ele>
        <time>2020-02-16T12:20:18Z</time>
      </trkpt>
      <trkpt lat="46.259252456948161" lon="8.014688305556774">
        <ele>2359.79</ele>
        <time>2020-02-16T12:20:32Z</time>
      </trkpt>
      <trkpt lat="46.259254049509764" lon="8.014684449881315">
        <ele>2359.0900000000001</ele>
        <time>2020-02-16T12:20:42Z</time>
      </trkpt>
      <trkpt lat="46.259243572130799" lon="8.0146817676723">
        <ele>2359.0300000000002</ele>
        <time>2020-02-16T12:21:30Z</time>
      </trkpt>
      <trkpt lat="46.259260755032301" lon="8.014686377719045">
        <ele>2358.6399999999999</ele>
        <time>2020-02-16T12:22:42Z</time>
      </trkpt>
      <trkpt lat="46.259265029802918" lon="8.014689311385155">
        <ele>2358.6199999999999</ele>
        <time>2020-02-16T12:23:44Z</time>
      </trkpt>
      <trkpt lat="46.259267376735806" lon="8.014691239222884">
        <ele>2358.79</ele>
        <time>2020-02-16T12:24:53Z</time>
      </trkpt>
      <trkpt lat="46.259277015924454" lon="8.014690652489662">
        <ele>2358.54</ele>
        <time>2020-02-16T12:26:00Z</time>
      </trkpt>
      <trkpt lat="46.259263437241316" lon="8.014700626954436">
        <ele>2358.5999999999999</ele>
        <time>2020-02-16T12:27:09Z</time>
      </trkpt>
      <trkpt lat="46.259258408099413" lon="8.014691825956106">
        <ele>2358.3499999999999</ele>
        <time>2020-02-16T12:28:17Z</time>
      </trkpt>
      <trkpt lat="46.259260335937142" lon="8.014705991372466">
        <ele>2358.2600000000002</ele>
        <time>2020-02-16T12:29:20Z</time>
      </trkpt>
      <trkpt lat="46.259238542988896" lon="8.014682522043586">
        <ele>2357.4299999999998</ele>
        <time>2020-02-16T12:30:30Z</time>
      </trkpt>
      <trkpt lat="46.259241560474038" lon="8.01470473408699">
        <ele>2356.79</ele>
        <time>2020-02-16T12:31:34Z</time>
      </trkpt>
      <trkpt lat="46.259243320673704" lon="8.014690233394504">
        <ele>2356.6300000000001</ele>
        <time>2020-02-16T12:32:36Z</time>
      </trkpt>
      <trkpt lat="46.25923971645534" lon="8.014695094898343">
        <ele>2356.46</ele>
        <time>2020-02-16T12:33:38Z</time>
      </trkpt>
      <trkpt lat="46.259243320673704" lon="8.014697358012199">
        <ele>2356.1599999999999</ele>
        <time>2020-02-16T12:34:41Z</time>
      </trkpt>
      <trkpt lat="46.25924407504499" lon="8.014686545357108">
        <ele>2355.9099999999999</ele>
        <time>2020-02-16T12:35:47Z</time>
      </trkpt>
      <trkpt lat="46.25923627987504" lon="8.01468126475811">
        <ele>2355.75</ele>
        <time>2020-02-16T12:36:48Z</time>
      </trkpt>
      <trkpt lat="46.259228233247995" lon="8.014671206474304">
        <ele>2355.4499999999998</ele>
        <time>2020-02-16T12:37:54Z</time>
      </trkpt>
      <trkpt lat="46.259228903800249" lon="8.014675648882985">
        <ele>2355.54</ele>
        <time>2020-02-16T12:39:02Z</time>
      </trkpt>
      <trkpt lat="46.259222030639648" lon="8.014675145968795">
        <ele>2355.9099999999999</ele>
        <time>2020-02-16T12:40:15Z</time>
      </trkpt>
      <trkpt lat="46.259215157479048" lon="8.014688724651933">
        <ele>2355.96</ele>
        <time>2020-02-16T12:41:23Z</time>
      </trkpt>
      <trkpt lat="46.259218761697412" lon="8.014696436002851">
        <ele>2355.5799999999999</ele>
        <time>2020-02-16T12:42:28Z</time>
      </trkpt>
      <trkpt lat="46.259213229641318" lon="8.014695346355438">
        <ele>2355.1399999999999</ele>
        <time>2020-02-16T12:43:35Z</time>
      </trkpt>
      <trkpt lat="46.259220521897078" lon="8.014695849269629">
        <ele>2355.4299999999998</ele>
        <time>2020-02-16T12:44:43Z</time>
      </trkpt>
      <trkpt lat="46.259211134165525" lon="8.014692664146423">
        <ele>2355.29</ele>
        <time>2020-02-16T12:45:46Z</time>
      </trkpt>
      <trkpt lat="46.259211888536811" lon="8.01470129750669">
        <ele>2355.4499999999998</ele>
        <time>2020-02-16T12:46:54Z</time>
      </trkpt>
      <trkpt lat="46.259238962084055" lon="8.014713618904352">
        <ele>2355.3099999999999</ele>
        <time>2020-02-16T12:47:52Z</time>
      </trkpt>
      <trkpt lat="46.259249271824956" lon="8.014720408245921">
        <ele>2355.5300000000002</ele>
        <time>2020-02-16T12:48:49Z</time>
      </trkpt>
      <trkpt lat="46.259245667606592" lon="8.014713535085321">
        <ele>2355.48</ele>
        <time>2020-02-16T12:49:46Z</time>
      </trkpt>
      <trkpt lat="46.259244913235307" lon="8.01472719758749">
        <ele>2355.5799999999999</ele>
        <time>2020-02-16T12:50:27Z</time>
      </trkpt>
      <trkpt lat="46.259233932942152" lon="8.014722000807524">
        <ele>2355.8800000000001</ele>
        <time>2020-02-16T12:51:20Z</time>
      </trkpt>
      <trkpt lat="46.259240554645658" lon="8.014697022736073">
        <ele>2355.8800000000001</ele>
        <time>2020-02-16T12:52:18Z</time>
      </trkpt>
      <trkpt lat="46.259255725890398" lon="8.014679756015539">
        <ele>2355.9899999999998</ele>
        <time>2020-02-16T12:53:16Z</time>
      </trkpt>
      <trkpt lat="46.259252289310098" lon="8.014668608084321">
        <ele>2355.7399999999998</ele>
        <time>2020-02-16T12:54:16Z</time>
      </trkpt>
      <trkpt lat="46.259246924892068" lon="8.014653688296676">
        <ele>2356.3499999999999</ele>
        <time>2020-02-16T12:55:12Z</time>
      </trkpt>
      <trkpt lat="46.259259413927794" lon="8.014658382162452">
        <ele>2355.73</ele>
        <time>2020-02-16T12:56:18Z</time>
      </trkpt>
      <trkpt lat="46.259268131107092" lon="8.01464413292706">
        <ele>2356.1999999999998</ele>
        <time>2020-02-16T12:57:22Z</time>
      </trkpt>
      <trkpt lat="46.259266035631299" lon="8.014645474031568">
        <ele>2356.3699999999999</ele>
        <time>2020-02-16T12:58:28Z</time>
      </trkpt>
      <trkpt lat="46.259274668991566" lon="8.014646647498012">
        <ele>2356.8200000000002</ele>
        <time>2020-02-16T12:59:29Z</time>
      </trkpt>
      <trkpt lat="46.259269220754504" lon="8.014644049108028">
        <ele>2357.0599999999999</ele>
        <time>2020-02-16T13:00:34Z</time>
      </trkpt>
      <trkpt lat="46.25926855020225" lon="8.014656370505691">
        <ele>2357.0799999999999</ele>
        <time>2020-02-16T13:01:40Z</time>
      </trkpt>
      <trkpt lat="46.259257737547159" lon="8.014650922268629">
        <ele>2357.1799999999998</ele>
        <time>2020-02-16T13:02:47Z</time>
      </trkpt>
      <trkpt lat="46.259260671213269" lon="8.014650503173471">
        <ele>2357.8600000000001</ele>
        <time>2020-02-16T13:03:56Z</time>
      </trkpt>
      <trkpt lat="46.259266957640648" lon="8.014656789600849">
        <ele>2358.0799999999999</ele>
        <time>2020-02-16T13:05:01Z</time>
      </trkpt>
      <trkpt lat="46.259263521060348" lon="8.014659136533737">
        <ele>2358.3400000000001</ele>
        <time>2020-02-16T13:06:03Z</time>
      </trkpt>
      <trkpt lat="46.259271735325456" lon="8.014676403254271">
        <ele>2358.3699999999999</ele>
        <time>2020-02-16T13:07:13Z</time>
      </trkpt>
      <trkpt lat="46.259269639849663" lon="8.014670619741082">
        <ele>2358.27</ele>
        <time>2020-02-16T13:08:23Z</time>
      </trkpt>
      <trkpt lat="46.259261593222618" lon="8.014670535922051">
        <ele>2358.3600000000001</ele>
        <time>2020-02-16T13:09:32Z</time>
      </trkpt>
      <trkpt lat="46.259253965690732" lon="8.01466709934175">
        <ele>2358.6500000000001</ele>
        <time>2020-02-16T13:10:38Z</time>
      </trkpt>
      <trkpt lat="46.259254971519113" lon="8.014661064371467">
        <ele>2359.0300000000002</ele>
        <time>2020-02-16T13:11:44Z</time>
      </trkpt>
      <trkpt lat="46.259263269603252" lon="8.014650754630566">
        <ele>2358.5599999999999</ele>
        <time>2020-02-16T13:12:51Z</time>
      </trkpt>
      <trkpt lat="46.259271986782551" lon="8.014661567285657">
        <ele>2358.9499999999998</ele>
        <time>2020-02-16T13:14:02Z</time>
      </trkpt>
      <trkpt lat="46.259268214926124" lon="8.01465000025928">
        <ele>2358.6100000000001</ele>
        <time>2020-02-16T13:15:14Z</time>
      </trkpt>
      <trkpt lat="46.259263688698411" lon="8.014651006087661">
        <ele>2359.4000000000001</ele>
        <time>2020-02-16T13:16:24Z</time>
      </trkpt>
      <trkpt lat="46.259263688698411" lon="8.01467003300786">
        <ele>2359.2800000000002</ele>
        <time>2020-02-16T13:17:30Z</time>
      </trkpt>
      <trkpt lat="46.259262347593904" lon="8.014656705781817">
        <ele>2359.29</ele>
        <time>2020-02-16T13:18:35Z</time>
      </trkpt>
      <trkpt lat="46.259269556030631" lon="8.014653353020549">
        <ele>2359.8400000000001</ele>
        <time>2020-02-16T13:19:38Z</time>
      </trkpt>
      <trkpt lat="46.259265784174204" lon="8.014664249494672">
        <ele>2359.98</ele>
        <time>2020-02-16T13:20:45Z</time>
      </trkpt>
      <trkpt lat="46.259262934327126" lon="8.014666847884655">
        <ele>2359.3699999999999</ele>
        <time>2020-02-16T13:21:55Z</time>
      </trkpt>
      <trkpt lat="46.259273579344153" lon="8.014668272808194">
        <ele>2359.5300000000002</ele>
        <time>2020-02-16T13:23:01Z</time>
      </trkpt>
      <trkpt lat="46.259273830801249" lon="8.014668021351099">
        <ele>2359.6599999999999</ele>
        <time>2020-02-16T13:24:03Z</time>
      </trkpt>
      <trkpt lat="46.259276177734137" lon="8.014672212302685">
        <ele>2360.1500000000001</ele>
        <time>2020-02-16T13:25:01Z</time>
      </trkpt>
      <trkpt lat="46.259267712011933" lon="8.014666680246592">
        <ele>2359.7600000000002</ele>
        <time>2020-02-16T13:26:10Z</time>
      </trkpt>
      <trkpt lat="46.25926268287003" lon="8.014662070199847">
        <ele>2359.8800000000001</ele>
        <time>2020-02-16T13:27:19Z</time>
      </trkpt>
      <trkpt lat="46.259263521060348" lon="8.014654945582151">
        <ele>2360.3899999999999</ele>
        <time>2020-02-16T13:28:29Z</time>
      </trkpt>
      <trkpt lat="46.259268801659346" lon="8.014671038836241">
        <ele>2360.6900000000001</ele>
        <time>2020-02-16T13:29:34Z</time>
      </trkpt>
      <trkpt lat="46.259264191612601" lon="8.014640528708696">
        <ele>2360.3899999999999</ele>
        <time>2020-02-16T13:30:43Z</time>
      </trkpt>
      <trkpt lat="46.259255725890398" lon="8.014646228402853">
        <ele>2360.1799999999998</ele>
        <time>2020-02-16T13:31:56Z</time>
      </trkpt>
      <trkpt lat="46.259266790002584" lon="8.014688557013869">
        <ele>2360.7600000000002</ele>
        <time>2020-02-16T13:33:11Z</time>
      </trkpt>
      <trkpt lat="46.259268801659346" lon="8.014683276414871">
        <ele>2360.02</ele>
        <time>2020-02-16T13:34:12Z</time>
      </trkpt>
      <trkpt lat="46.259269472211599" lon="8.014674056321383">
        <ele>2360.4200000000001</ele>
        <time>2020-02-16T13:35:11Z</time>
      </trkpt>
      <trkpt lat="46.259274501353502" lon="8.01467003300786">
        <ele>2360.0799999999999</ele>
        <time>2020-02-16T13:36:07Z</time>
      </trkpt>
      <trkpt lat="46.259274417534471" lon="8.014669613912702">
        <ele>2360.3699999999999</ele>
        <time>2020-02-16T13:37:19Z</time>
      </trkpt>
      <trkpt lat="46.259267209097743" lon="8.014681348577142">
        <ele>2359.96</ele>
        <time>2020-02-16T13:38:24Z</time>
      </trkpt>
      <trkpt lat="46.259265029802918" lon="8.014681432396174">
        <ele>2359.4699999999998</ele>
        <time>2020-02-16T13:39:30Z</time>
      </trkpt>
      <trkpt lat="46.259261760860682" lon="8.014688305556774">
        <ele>2359.5900000000001</ele>
        <time>2020-02-16T13:40:26Z</time>
      </trkpt>
      <trkpt lat="46.259264778345823" lon="8.014684114605188">
        <ele>2359.4499999999998</ele>
        <time>2020-02-16T13:41:17Z</time>
      </trkpt>
      <trkpt lat="46.259259078651667" lon="8.014675145968795">
        <ele>2358.8699999999999</ele>
        <time>2020-02-16T13:42:14Z</time>
      </trkpt>
      <trkpt lat="46.259258240461349" lon="8.014678079634905">
        <ele>2358.3299999999999</ele>
        <time>2020-02-16T13:43:02Z</time>
      </trkpt>
      <trkpt lat="46.259252959862351" lon="8.014678247272968">
        <ele>2358.5799999999999</ele>
        <time>2020-02-16T13:43:41Z</time>
      </trkpt>
      <trkpt lat="46.259247679263353" lon="8.014680007472634">
        <ele>2358.3600000000001</ele>
        <time>2020-02-16T13:44:28Z</time>
      </trkpt>
      <trkpt lat="46.25924508087337" lon="8.014670619741082">
        <ele>2357.79</ele>
        <time>2020-02-16T13:45:03Z</time>
      </trkpt>
      <trkpt lat="46.25926117412746" lon="8.014653269201517">
        <ele>2360.48</ele>
        <time>2020-02-16T13:45:25Z</time>
      </trkpt>
      <trkpt lat="46.259245332330465" lon="8.01463876850903">
        <ele>2358.7399999999998</ele>
        <time>2020-02-16T13:45:38Z</time>
      </trkpt>
      <trkpt lat="46.259197304025292" lon="8.014614041894674">
        <ele>2357.1399999999999</ele>
        <time>2020-02-16T13:45:44Z</time>
      </trkpt>
      <trkpt lat="46.259190514683723" lon="8.014607168734074">
        <ele>2357.1300000000001</ele>
        <time>2020-02-16T13:45:45Z</time>
      </trkpt>
      <trkpt lat="46.259096721187234" lon="8.014525026082993">
        <ele>2353.4000000000001</ele>
        <time>2020-02-16T13:45:57Z</time>
      </trkpt>
      <trkpt lat="46.258985158056021" lon="8.014431651681662">
        <ele>2352.3200000000002</ele>
        <time>2020-02-16T13:46:11Z</time>
      </trkpt>
      <trkpt lat="46.25886001624167" lon="8.014325452968478">
        <ele>2350.3400000000001</ele>
        <time>2020-02-16T13:46:26Z</time>
      </trkpt>
      <trkpt lat="46.258740490302444" lon="8.014228558167815">
        <ele>2347.2600000000002</ele>
        <time>2020-02-16T13:46:40Z</time>
      </trkpt>
      <trkpt lat="46.258666394278407" lon="8.014196790754795">
        <ele>2346.0799999999999</ele>
        <time>2020-02-16T13:46:55Z</time>
      </trkpt>
      <trkpt lat="46.258660862222314" lon="8.014203831553459">
        <ele>2346.23</ele>
        <time>2020-02-16T13:47:13Z</time>
      </trkpt>
      <trkpt lat="46.258660610765219" lon="8.014197880402207">
        <ele>2346.3200000000002</ele>
        <time>2020-02-16T13:47:31Z</time>
      </trkpt>
      <trkpt lat="46.25865482725203" lon="8.014178769662976">
        <ele>2346.2199999999998</ele>
        <time>2020-02-16T13:47:46Z</time>
      </trkpt>
      <trkpt lat="46.258658180013299" lon="8.014173153787851">
        <ele>2346.1199999999999</ele>
        <time>2020-02-16T13:48:02Z</time>
      </trkpt>
      <trkpt lat="46.258661029860377" lon="8.014169130474329">
        <ele>2346.0599999999999</ele>
        <time>2020-02-16T13:48:21Z</time>
      </trkpt>
      <trkpt lat="46.258661448955536" lon="8.014183295890689">
        <ele>2345.8699999999999</ele>
        <time>2020-02-16T13:48:36Z</time>
      </trkpt>
      <trkpt lat="46.258657425642014" lon="8.01417700946331">
        <ele>2346.1700000000001</ele>
        <time>2020-02-16T13:48:51Z</time>
      </trkpt>
      <trkpt lat="46.25865432433784" lon="8.014158317819238">
        <ele>2345.7399999999998</ele>
        <time>2020-02-16T13:49:03Z</time>
      </trkpt>
      <trkpt lat="46.25865432433784" lon="8.014143565669656">
        <ele>2345.8200000000002</ele>
        <time>2020-02-16T13:49:13Z</time>
      </trkpt>
      <trkpt lat="46.258658263832331" lon="8.014135267585516">
        <ele>2346.25</ele>
        <time>2020-02-16T13:49:34Z</time>
      </trkpt>
      <trkpt lat="46.258661868050694" lon="8.014130406081677">
        <ele>2345.6900000000001</ele>
        <time>2020-02-16T13:49:54Z</time>
      </trkpt>
      <trkpt lat="46.258652647957206" lon="8.014129903167486">
        <ele>2345.21</ele>
        <time>2020-02-16T13:50:09Z</time>
      </trkpt>
      <trkpt lat="46.258618114516139" lon="8.014056561514735">
        <ele>2344.1999999999998</ele>
        <time>2020-02-16T13:50:20Z</time>
      </trkpt>
      <trkpt lat="46.258580228313804" lon="8.014015657827258">
        <ele>2343.6399999999999</ele>
        <time>2020-02-16T13:50:30Z</time>
      </trkpt>
      <trkpt lat="46.258504372090101" lon="8.013927144929767">
        <ele>2342.0700000000002</ele>
        <time>2020-02-16T13:50:44Z</time>
      </trkpt>
      <trkpt lat="46.258488530293107" lon="8.013900322839618">
        <ele>2340.2399999999998</ele>
        <time>2020-02-16T13:50:47Z</time>
      </trkpt>
      <trkpt lat="46.258476376533508" lon="8.013840727508068">
        <ele>2339.7800000000002</ele>
        <time>2020-02-16T13:50:58Z</time>
      </trkpt>
      <trkpt lat="46.258475370705128" lon="8.013846091926098">
        <ele>2339.0700000000002</ele>
        <time>2020-02-16T13:51:12Z</time>
      </trkpt>
      <trkpt lat="46.258456343784928" lon="8.013843828812242">
        <ele>2341.3000000000002</ele>
        <time>2020-02-16T13:51:17Z</time>
      </trkpt>
      <trkpt lat="46.258446034044027" lon="8.013828406110406">
        <ele>2340.8899999999999</ele>
        <time>2020-02-16T13:51:28Z</time>
      </trkpt>
      <trkpt lat="46.258366322144866" lon="8.013821616768837">
        <ele>2339.3299999999999</ele>
        <time>2020-02-16T13:51:39Z</time>
      </trkpt>
      <trkpt lat="46.25822626054287" lon="8.013779455795884">
        <ele>2336.8800000000001</ele>
        <time>2020-02-16T13:51:55Z</time>
      </trkpt>
      <trkpt lat="46.258137244731188" lon="8.013750538229942">
        <ele>2335.2600000000002</ele>
        <time>2020-02-16T13:52:06Z</time>
      </trkpt>
      <trkpt lat="46.257994836196303" lon="8.013709802180529">
        <ele>2332.9899999999998</ele>
        <time>2020-02-16T13:52:23Z</time>
      </trkpt>
      <trkpt lat="46.257895426824689" lon="8.013651128858328">
        <ele>2330.0900000000001</ele>
        <time>2020-02-16T13:52:38Z</time>
      </trkpt>
      <trkpt lat="46.257802303880453" lon="8.013566303998232">
        <ele>2327.6500000000001</ele>
        <time>2020-02-16T13:52:52Z</time>
      </trkpt>
      <trkpt lat="46.257755365222692" lon="8.013524310663343">
        <ele>2325.2600000000002</ele>
        <time>2020-02-16T13:52:59Z</time>
      </trkpt>
      <trkpt lat="46.257675318047404" lon="8.013467732816935">
        <ele>2322.1799999999998</ele>
        <time>2020-02-16T13:53:11Z</time>
      </trkpt>
      <trkpt lat="46.257572723552585" lon="8.013414759188891">
        <ele>2319.1300000000001</ele>
        <time>2020-02-16T13:53:24Z</time>
      </trkpt>
      <trkpt lat="46.257462585344911" lon="8.013314595445991">
        <ele>2318.4400000000001</ele>
        <time>2020-02-16T13:53:39Z</time>
      </trkpt>
      <trkpt lat="46.257383795455098" lon="8.013176042586565">
        <ele>2318.6700000000001</ele>
        <time>2020-02-16T13:53:54Z</time>
      </trkpt>
      <trkpt lat="46.257378766313195" lon="8.013165565207601">
        <ele>2319.5700000000002</ele>
        <time>2020-02-16T13:54:03Z</time>
      </trkpt>
      <trkpt lat="46.257374826818705" lon="8.013111082836986">
        <ele>2319.3699999999999</ele>
        <time>2020-02-16T13:54:18Z</time>
      </trkpt>
      <trkpt lat="46.257347166538239" lon="8.013069676235318">
        <ele>2317.5799999999999</ele>
        <time>2020-02-16T13:54:24Z</time>
      </trkpt>
      <trkpt lat="46.257267035543919" lon="8.012937577441335">
        <ele>2318.0599999999999</ele>
        <time>2020-02-16T13:54:37Z</time>
      </trkpt>
      <trkpt lat="46.257150275632739" lon="8.012827523052692">
        <ele>2315.3899999999999</ele>
        <time>2020-02-16T13:54:53Z</time>
      </trkpt>
      <trkpt lat="46.25707651488483" lon="8.012759545817971">
        <ele>2313.4499999999998</ele>
        <time>2020-02-16T13:55:06Z</time>
      </trkpt>
      <trkpt lat="46.256998311728239" lon="8.012663992121816">
        <ele>2310.52</ele>
        <time>2020-02-16T13:55:19Z</time>
      </trkpt>
      <trkpt lat="46.256906948983669" lon="8.012533821165562">
        <ele>2309.3200000000002</ele>
        <time>2020-02-16T13:55:34Z</time>
      </trkpt>
      <trkpt lat="46.256842073053122" lon="8.012444386258721">
        <ele>2307.6999999999998</ele>
        <time>2020-02-16T13:55:47Z</time>
      </trkpt>
      <trkpt lat="46.256805025041103" lon="8.012409433722496">
        <ele>2306.6700000000001</ele>
        <time>2020-02-16T13:55:57Z</time>
      </trkpt>
      <trkpt lat="46.256766300648451" lon="8.012327961623669">
        <ele>2303.6300000000001</ele>
        <time>2020-02-16T13:56:09Z</time>
      </trkpt>
      <trkpt lat="46.256742579862475" lon="8.012217152863741">
        <ele>2300.48</ele>
        <time>2020-02-16T13:56:20Z</time>
      </trkpt>
      <trkpt lat="46.256729755550623" lon="8.012152528390288">
        <ele>2300.1900000000001</ele>
        <time>2020-02-16T13:56:30Z</time>
      </trkpt>
      <trkpt lat="46.256720703095198" lon="8.012138698250055">
        <ele>2299.8899999999999</ele>
        <time>2020-02-16T13:56:33Z</time>
      </trkpt>
      <trkpt lat="46.256712740287185" lon="8.01211204379797">
        <ele>2299.0300000000002</ele>
        <time>2020-02-16T13:56:35Z</time>
      </trkpt>
      <trkpt lat="46.256634956225753" lon="8.011915404349566">
        <ele>2297.8099999999999</ele>
        <time>2020-02-16T13:56:52Z</time>
      </trkpt>
      <trkpt lat="46.256645265966654" lon="8.011900903657079">
        <ele>2298.4699999999998</ele>
        <time>2020-02-16T13:57:09Z</time>
      </trkpt>
      <trkpt lat="46.256653647869825" lon="8.011899227276444">
        <ele>2298.1799999999998</ele>
        <time>2020-02-16T13:57:21Z</time>
      </trkpt>
      <trkpt lat="46.256657419726253" lon="8.011892354115844">
        <ele>2298.5999999999999</ele>
        <time>2020-02-16T13:57:34Z</time>
      </trkpt>
      <trkpt lat="46.256660353392363" lon="8.01188631914556">
        <ele>2298.1399999999999</ele>
        <time>2020-02-16T13:57:54Z</time>
      </trkpt>
      <trkpt lat="46.2566186953336" lon="8.011833932250738">
        <ele>2297.3099999999999</ele>
        <time>2020-02-16T13:58:10Z</time>
      </trkpt>
      <trkpt lat="46.256536720320582" lon="8.011715831235051">
        <ele>2296.7800000000002</ele>
        <time>2020-02-16T13:58:23Z</time>
      </trkpt>
      <trkpt lat="46.256526578217745" lon="8.011688673868775">
        <ele>2297.27</ele>
        <time>2020-02-16T13:58:32Z</time>
      </trkpt>
      <trkpt lat="46.256524985656142" lon="8.011679034680128">
        <ele>2296.1399999999999</ele>
        <time>2020-02-16T13:58:44Z</time>
      </trkpt>
      <trkpt lat="46.25654342584312" lon="8.011666629463434">
        <ele>2297.8099999999999</ele>
        <time>2020-02-16T13:59:03Z</time>
      </trkpt>
      <trkpt lat="46.256544599309564" lon="8.011668641120195">
        <ele>2297.7199999999998</ele>
        <time>2020-02-16T13:59:16Z</time>
      </trkpt>
      <trkpt lat="46.256528673693538" lon="8.011651961132884">
        <ele>2296.3699999999999</ele>
        <time>2020-02-16T13:59:27Z</time>
      </trkpt>
      <trkpt lat="46.256506545469165" lon="8.011666880920529">
        <ele>2297.2199999999998</ele>
        <time>2020-02-16T13:59:44Z</time>
      </trkpt>
      <trkpt lat="46.256492547690868" lon="8.011654559522867">
        <ele>2297.0999999999999</ele>
        <time>2020-02-16T13:59:58Z</time>
      </trkpt>
      <trkpt lat="46.25634946860373" lon="8.011502595618367">
        <ele>2294.98</ele>
        <time>2020-02-16T14:00:14Z</time>
      </trkpt>
      <trkpt lat="46.256215274333954" lon="8.011391116306186">
        <ele>2291.71</ele>
        <time>2020-02-16T14:00:27Z</time>
      </trkpt>
      <trkpt lat="46.256068339571357" lon="8.011273434385657">
        <ele>2288.6700000000001</ele>
        <time>2020-02-16T14:00:41Z</time>
      </trkpt>
      <trkpt lat="46.255881926044822" lon="8.011122811585665">
        <ele>2285.54</ele>
        <time>2020-02-16T14:01:00Z</time>
      </trkpt>
      <trkpt lat="46.255725603550673" lon="8.011029604822397">
        <ele>2282.02</ele>
        <time>2020-02-16T14:01:15Z</time>
      </trkpt>
      <trkpt lat="46.255615381523967" lon="8.011050643399358">
        <ele>2278.8600000000001</ele>
        <time>2020-02-16T14:01:28Z</time>
      </trkpt>
      <trkpt lat="46.255540531128645" lon="8.011097414419055">
        <ele>2278.6799999999998</ele>
        <time>2020-02-16T14:01:39Z</time>
      </trkpt>
      <trkpt lat="46.255464255809784" lon="8.011131277307868">
        <ele>2277.8099999999999</ele>
        <time>2020-02-16T14:01:50Z</time>
      </trkpt>
      <trkpt lat="46.255366606637836" lon="8.011182742193341">
        <ele>2274.71</ele>
        <time>2020-02-16T14:02:02Z</time>
      </trkpt>
      <trkpt lat="46.255280524492264" lon="8.011253988370299">
        <ele>2273.25</ele>
        <time>2020-02-16T14:02:15Z</time>
      </trkpt>
      <trkpt lat="46.255272645503283" lon="8.011261532083154">
        <ele>2272.8899999999999</ele>
        <time>2020-02-16T14:02:16Z</time>
      </trkpt>
      <trkpt lat="46.255163261666894" lon="8.01135323010385">
        <ele>2271.1799999999998</ele>
        <time>2020-02-16T14:02:32Z</time>
      </trkpt>
      <trkpt lat="46.255118669942021" lon="8.011381644755602">
        <ele>2269.6799999999998</ele>
        <time>2020-02-16T14:02:38Z</time>
      </trkpt>
      <trkpt lat="46.255027474835515" lon="8.011424392461777">
        <ele>2267.1900000000001</ele>
        <time>2020-02-16T14:02:51Z</time>
      </trkpt>
      <trkpt lat="46.254962682723999" lon="8.011468732729554">
        <ele>2265.8699999999999</ele>
        <time>2020-02-16T14:03:02Z</time>
      </trkpt>
      <trkpt lat="46.254879534244537" lon="8.011491866782308">
        <ele>2263.5</ele>
        <time>2020-02-16T14:03:14Z</time>
      </trkpt>
      <trkpt lat="46.254822621122003" lon="8.011493626981974">
        <ele>2262.21</ele>
        <time>2020-02-16T14:03:25Z</time>
      </trkpt>
      <trkpt lat="46.254798900336027" lon="8.011505361646414">
        <ele>2261.5900000000001</ele>
        <time>2020-02-16T14:03:35Z</time>
      </trkpt>
      <trkpt lat="46.254765037447214" lon="8.011489268392324">
        <ele>2260.0999999999999</ele>
        <time>2020-02-16T14:03:46Z</time>
      </trkpt>
      <trkpt lat="46.254740813747048" lon="8.011470995843411">
        <ele>2259.79</ele>
        <time>2020-02-16T14:03:58Z</time>
      </trkpt>
      <trkpt lat="46.254723630845547" lon="8.011456662788987">
        <ele>2258.75</ele>
        <time>2020-02-16T14:04:09Z</time>
      </trkpt>
      <trkpt lat="46.254716841503978" lon="8.011418106034398">
        <ele>2257.23</ele>
        <time>2020-02-16T14:04:18Z</time>
      </trkpt>
      <trkpt lat="46.254700915887952" lon="8.011365132406354">
        <ele>2255.8600000000001</ele>
        <time>2020-02-16T14:04:30Z</time>
      </trkpt>
      <trkpt lat="46.254679122939706" lon="8.011320792138577">
        <ele>2254.4000000000001</ele>
        <time>2020-02-16T14:04:43Z</time>
      </trkpt>
      <trkpt lat="46.254682810977101" lon="8.011298244819045">
        <ele>2255.02</ele>
        <time>2020-02-16T14:04:54Z</time>
      </trkpt>
      <trkpt lat="46.254664203152061" lon="8.011269578710198">
        <ele>2252.9400000000001</ele>
        <time>2020-02-16T14:05:03Z</time>
      </trkpt>
      <trkpt lat="46.254654815420508" lon="8.011244516819716">
        <ele>2252.9099999999999</ele>
        <time>2020-02-16T14:05:14Z</time>
      </trkpt>
      <trkpt lat="46.254618940874934" lon="8.011182155460119">
        <ele>2250.0100000000002</ele>
        <time>2020-02-16T14:05:26Z</time>
      </trkpt>
      <trkpt lat="46.254568733274937" lon="8.011160362511873">
        <ele>2246.8899999999999</ele>
        <time>2020-02-16T14:05:37Z</time>
      </trkpt>
      <trkpt lat="46.254533864557743" lon="8.011139910668135">
        <ele>2244.6900000000001</ele>
        <time>2020-02-16T14:05:49Z</time>
      </trkpt>
      <trkpt lat="46.254519196227193" lon="8.011142341420054">
        <ele>2243.8299999999999</ele>
        <time>2020-02-16T14:05:59Z</time>
      </trkpt>
      <trkpt lat="46.254511317238212" lon="8.011134210973978">
        <ele>2243.0799999999999</ele>
        <time>2020-02-16T14:06:12Z</time>
      </trkpt>
      <trkpt lat="46.254520202055573" lon="8.011129936203361">
        <ele>2242.8299999999999</ele>
        <time>2020-02-16T14:06:32Z</time>
      </trkpt>
      <trkpt lat="46.254515424370766" lon="8.011135468259454">
        <ele>2243.0100000000002</ele>
        <time>2020-02-16T14:06:46Z</time>
      </trkpt>
      <trkpt lat="46.254515843465924" lon="8.011135887354612">
        <ele>2243.0700000000002</ele>
        <time>2020-02-16T14:07:02Z</time>
      </trkpt>
      <trkpt lat="46.254517687484622" lon="8.011131780222058">
        <ele>2242.9299999999998</ele>
        <time>2020-02-16T14:07:17Z</time>
      </trkpt>
      <trkpt lat="46.254517519846559" lon="8.011131025850773">
        <ele>2242.9499999999998</ele>
        <time>2020-02-16T14:07:31Z</time>
      </trkpt>
      <trkpt lat="46.254483740776777" lon="8.011114932596684">
        <ele>2241.6700000000001</ele>
        <time>2020-02-16T14:07:40Z</time>
      </trkpt>
      <trkpt lat="46.254483321681619" lon="8.011109735816717">
        <ele>2241.5100000000002</ele>
        <time>2020-02-16T14:07:53Z</time>
      </trkpt>
      <trkpt lat="46.254463875666261" lon="8.011100850999355">
        <ele>2240.75</ele>
        <time>2020-02-16T14:08:07Z</time>
      </trkpt>
      <trkpt lat="46.254444848746061" lon="8.011076375842094">
        <ele>2240.2399999999998</ele>
        <time>2020-02-16T14:08:10Z</time>
      </trkpt>
      <trkpt lat="46.254334710538387" lon="8.010906809940934">
        <ele>2238.5300000000002</ele>
        <time>2020-02-16T14:08:26Z</time>
      </trkpt>
      <trkpt lat="46.254321970045567" lon="8.010893482714891">
        <ele>2238.0500000000002</ele>
        <time>2020-02-16T14:08:28Z</time>
      </trkpt>
      <trkpt lat="46.25429674051702" lon="8.010876383632422">
        <ele>2237.9400000000001</ele>
        <time>2020-02-16T14:08:31Z</time>
      </trkpt>
      <trkpt lat="46.254175202921033" lon="8.010734394192696">
        <ele>2234.8600000000001</ele>
        <time>2020-02-16T14:08:47Z</time>
      </trkpt>
      <trkpt lat="46.254076799377799" lon="8.01063640974462">
        <ele>2232.0700000000002</ele>
        <time>2020-02-16T14:09:00Z</time>
      </trkpt>
      <trkpt lat="46.253943359479308" lon="8.010531887412071">
        <ele>2228.9200000000001</ele>
        <time>2020-02-16T14:09:15Z</time>
      </trkpt>
      <trkpt lat="46.253807907924056" lon="8.010462485253811">
        <ele>2226.2199999999998</ele>
        <time>2020-02-16T14:09:30Z</time>
      </trkpt>
      <trkpt lat="46.253721993416548" lon="8.010405320674181">
        <ele>2223.8299999999999</ele>
        <time>2020-02-16T14:09:42Z</time>
      </trkpt>
      <trkpt lat="46.253633983433247" lon="8.010280011221767">
        <ele>2220.6999999999998</ele>
        <time>2020-02-16T14:09:56Z</time>
      </trkpt>
      <trkpt lat="46.253574639558792" lon="8.010202897712588">
        <ele>2218.9499999999998</ele>
        <time>2020-02-16T14:10:05Z</time>
      </trkpt>
      <trkpt lat="46.253467267379165" lon="8.010108433663845">
        <ele>2216</ele>
        <time>2020-02-16T14:10:18Z</time>
      </trkpt>
      <trkpt lat="46.253361906856298" lon="8.009971473366022">
        <ele>2212.27</ele>
        <time>2020-02-16T14:10:33Z</time>
      </trkpt>
      <trkpt lat="46.253261994570494" lon="8.009874578565359">
        <ele>2211.0799999999999</ele>
        <time>2020-02-16T14:10:47Z</time>
      </trkpt>
      <trkpt lat="46.253224108368158" lon="8.00984431989491">
        <ele>2210.4200000000001</ele>
        <time>2020-02-16T14:10:52Z</time>
      </trkpt>
      <trkpt lat="46.253089997917414" lon="8.009788915514946">
        <ele>2207.21</ele>
        <time>2020-02-16T14:11:06Z</time>
      </trkpt>
      <trkpt lat="46.252957982942462" lon="8.009754801169038">
        <ele>2204.0999999999999</ele>
        <time>2020-02-16T14:11:19Z</time>
      </trkpt>
      <trkpt lat="46.252817502245307" lon="8.00974415615201">
        <ele>2201.0700000000002</ele>
        <time>2020-02-16T14:11:33Z</time>
      </trkpt>
      <trkpt lat="46.252675093710423" lon="8.009694451466203">
        <ele>2199.6199999999999</ele>
        <time>2020-02-16T14:11:48Z</time>
      </trkpt>
      <trkpt lat="46.252621952444315" lon="8.00969822332263">
        <ele>2199.8200000000002</ele>
        <time>2020-02-16T14:11:54Z</time>
      </trkpt>
      <trkpt lat="46.25252740457654" lon="8.009639298543334">
        <ele>2198.5999999999999</ele>
        <time>2020-02-16T14:12:10Z</time>
      </trkpt>
      <trkpt lat="46.252526985481381" lon="8.009635275229812">
        <ele>2198.0799999999999</ele>
        <time>2020-02-16T14:12:26Z</time>
      </trkpt>
      <trkpt lat="46.252531846985221" lon="8.009631838649511">
        <ele>2198.1100000000001</ele>
        <time>2020-02-16T14:12:43Z</time>
      </trkpt>
      <trkpt lat="46.252526063472033" lon="8.009624294936657">
        <ele>2198.2600000000002</ele>
        <time>2020-02-16T14:13:03Z</time>
      </trkpt>
      <trkpt lat="46.252514831721783" lon="8.009610883891583">
        <ele>2197.4499999999998</ele>
        <time>2020-02-16T14:13:15Z</time>
      </trkpt>
      <trkpt lat="46.252421541139483" lon="8.009599149227142">
        <ele>2194.23</ele>
        <time>2020-02-16T14:13:28Z</time>
      </trkpt>
      <trkpt lat="46.252319533377886" lon="8.009604178369045">
        <ele>2191.02</ele>
        <time>2020-02-16T14:13:39Z</time>
      </trkpt>
      <trkpt lat="46.252204785123467" lon="8.009627731516957">
        <ele>2189.1700000000001</ele>
        <time>2020-02-16T14:13:51Z</time>
      </trkpt>
      <trkpt lat="46.252123983576894" lon="8.009631000459194">
        <ele>2188.7800000000002</ele>
        <time>2020-02-16T14:14:01Z</time>
      </trkpt>
      <trkpt lat="46.252001691609621" lon="8.009627899155021">
        <ele>2187.4899999999998</ele>
        <time>2020-02-16T14:14:15Z</time>
      </trkpt>
      <trkpt lat="46.251977384090424" lon="8.009615829214454">
        <ele>2187.3099999999999</ele>
        <time>2020-02-16T14:14:28Z</time>
      </trkpt>
      <trkpt lat="46.251979311928153" lon="8.009624714031816">
        <ele>2187.4000000000001</ele>
        <time>2020-02-16T14:14:52Z</time>
      </trkpt>
      <trkpt lat="46.251880908384919" lon="8.009689170867205">
        <ele>2184.3600000000001</ele>
        <time>2020-02-16T14:15:06Z</time>
      </trkpt>
      <trkpt lat="46.251815697178245" lon="8.009747341275215">
        <ele>2182.5799999999999</ele>
        <time>2020-02-16T14:15:14Z</time>
      </trkpt>
      <trkpt lat="46.251696674153209" lon="8.009825041517615">
        <ele>2179.1999999999998</ele>
        <time>2020-02-16T14:15:27Z</time>
      </trkpt>
      <trkpt lat="46.251550577580929" lon="8.009892934933305">
        <ele>2175.98</ele>
        <time>2020-02-16T14:15:41Z</time>
      </trkpt>
      <trkpt lat="46.251411102712154" lon="8.010010365396738">
        <ele>2172.9099999999999</ele>
        <time>2020-02-16T14:15:55Z</time>
      </trkpt>
      <trkpt lat="46.251277746632695" lon="8.010184541344643">
        <ele>2169.6900000000001</ele>
        <time>2020-02-16T14:16:12Z</time>
      </trkpt>
      <trkpt lat="46.251254864037037" lon="8.010261403396726">
        <ele>2167.8699999999999</ele>
        <time>2020-02-16T14:16:23Z</time>
      </trkpt>
      <trkpt lat="46.251248912885785" lon="8.010402722284198">
        <ele>2164.4699999999998</ele>
        <time>2020-02-16T14:16:34Z</time>
      </trkpt>
      <trkpt lat="46.251254696398973" lon="8.010510429739952">
        <ele>2161.3299999999999</ele>
        <time>2020-02-16T14:16:43Z</time>
      </trkpt>
      <trkpt lat="46.25129409134388" lon="8.010653173550963">
        <ele>2158.4400000000001</ele>
        <time>2020-02-16T14:16:56Z</time>
      </trkpt>
      <trkpt lat="46.251330971717834" lon="8.010769682005048">
        <ele>2156.0100000000002</ele>
        <time>2020-02-16T14:17:08Z</time>
      </trkpt>
      <trkpt lat="46.251349747180939" lon="8.010826678946614">
        <ele>2154.6599999999999</ele>
        <time>2020-02-16T14:17:18Z</time>
      </trkpt>
      <trkpt lat="46.251416970044374" lon="8.010989371687174">
        <ele>2152.1999999999998</ele>
        <time>2020-02-16T14:17:34Z</time>
      </trkpt>
      <trkpt lat="46.251472793519497" lon="8.01114653237164">
        <ele>2149.1399999999999</ele>
        <time>2020-02-16T14:17:48Z</time>
      </trkpt>
      <trkpt lat="46.251537753269076" lon="8.011268740519881">
        <ele>2148.4299999999998</ele>
        <time>2020-02-16T14:18:00Z</time>
      </trkpt>
      <trkpt lat="46.251544123515487" lon="8.011279301717877">
        <ele>2148.3200000000002</ele>
        <time>2020-02-16T14:18:01Z</time>
      </trkpt>
      <trkpt lat="46.251665744930506" lon="8.011469403281808">
        <ele>2146.3699999999999</ele>
        <time>2020-02-16T14:18:20Z</time>
      </trkpt>
      <trkpt lat="46.251736404374242" lon="8.011658750474453">
        <ele>2145.1399999999999</ele>
        <time>2020-02-16T14:18:36Z</time>
      </trkpt>
      <trkpt lat="46.251752665266395" lon="8.011724213138223">
        <ele>2145.02</ele>
        <time>2020-02-16T14:18:49Z</time>
      </trkpt>
      <trkpt lat="46.251779990270734" lon="8.011808283627033">
        <ele>2143.9699999999998</ele>
        <time>2020-02-16T14:19:03Z</time>
      </trkpt>
      <trkpt lat="46.251862049102783" lon="8.011976173147559">
        <ele>2142.71</ele>
        <time>2020-02-16T14:19:19Z</time>
      </trkpt>
      <trkpt lat="46.251964895054698" lon="8.012164011597633">
        <ele>2140.21</ele>
        <time>2020-02-16T14:19:37Z</time>
      </trkpt>
      <trkpt lat="46.252032034099102" lon="8.012310611084104">
        <ele>2137.71</ele>
        <time>2020-02-16T14:19:53Z</time>
      </trkpt>
      <trkpt lat="46.252073524519801" lon="8.012452768161893">
        <ele>2135.9200000000001</ele>
        <time>2020-02-16T14:20:07Z</time>
      </trkpt>
      <trkpt lat="46.252119289711118" lon="8.012648904696107">
        <ele>2134.8699999999999</ele>
        <time>2020-02-16T14:20:22Z</time>
      </trkpt>
      <trkpt lat="46.252162540331483" lon="8.012839173898101">
        <ele>2133.71</ele>
        <time>2020-02-16T14:20:38Z</time>
      </trkpt>
      <trkpt lat="46.252197157591581" lon="8.013020306825638">
        <ele>2131.3299999999999</ele>
        <time>2020-02-16T14:20:55Z</time>
      </trkpt>
      <trkpt lat="46.252226997166872" lon="8.01318165846169">
        <ele>2128.6199999999999</ele>
        <time>2020-02-16T14:21:11Z</time>
      </trkpt>
      <trkpt lat="46.252257339656353" lon="8.013318367302418">
        <ele>2126.04</ele>
        <time>2020-02-16T14:21:25Z</time>
      </trkpt>
      <trkpt lat="46.252281814813614" lon="8.013501763343811">
        <ele>2124.21</ele>
        <time>2020-02-16T14:21:40Z</time>
      </trkpt>
      <trkpt lat="46.252275863662362" lon="8.013727990910411">
        <ele>2122.5700000000002</ele>
        <time>2020-02-16T14:21:56Z</time>
      </trkpt>
      <trkpt lat="46.252219788730145" lon="8.013809965923429">
        <ele>2121.6300000000001</ele>
        <time>2020-02-16T14:22:08Z</time>
      </trkpt>
      <trkpt lat="46.252167150378227" lon="8.013822454959154">
        <ele>2121.98</ele>
        <time>2020-02-16T14:22:17Z</time>
      </trkpt>
      <trkpt lat="46.252110069617629" lon="8.013858664780855">
        <ele>2122.5100000000002</ele>
        <time>2020-02-16T14:22:26Z</time>
      </trkpt>
      <trkpt lat="46.252083163708448" lon="8.013884481042624">
        <ele>2121.0900000000001</ele>
        <time>2020-02-16T14:22:36Z</time>
      </trkpt>
      <trkpt lat="46.252085259184241" lon="8.013882134109736">
        <ele>2121.79</ele>
        <time>2020-02-16T14:22:49Z</time>
      </trkpt>
      <trkpt lat="46.252115601673722" lon="8.013972658663988">
        <ele>2122.0700000000002</ele>
        <time>2020-02-16T14:23:00Z</time>
      </trkpt>
      <trkpt lat="46.252122474834323" lon="8.014134597033262">
        <ele>2120.6799999999998</ele>
        <time>2020-02-16T14:23:13Z</time>
      </trkpt>
      <trkpt lat="46.252140495926142" lon="8.014297457411885">
        <ele>2120.46</ele>
        <time>2020-02-16T14:23:27Z</time>
      </trkpt>
      <trkpt lat="46.25212574377656" lon="8.014453276991844">
        <ele>2122.2800000000002</ele>
        <time>2020-02-16T14:23:43Z</time>
      </trkpt>
      <trkpt lat="46.252083498984575" lon="8.014503652229905">
        <ele>2123.9200000000001</ele>
        <time>2020-02-16T14:23:54Z</time>
      </trkpt>
      <trkpt lat="46.252081571146846" lon="8.014502394944429">
        <ele>2122.5</ele>
        <time>2020-02-16T14:24:07Z</time>
      </trkpt>
      <trkpt lat="46.25208081677556" lon="8.014506166800857">
        <ele>2122.3299999999999</ele>
        <time>2020-02-16T14:24:18Z</time>
      </trkpt>
      <trkpt lat="46.252080481499434" lon="8.014507340267301">
        <ele>2124.0300000000002</ele>
        <time>2020-02-16T14:24:33Z</time>
      </trkpt>
      <trkpt lat="46.252081235870719" lon="8.014510022476316">
        <ele>2124.2399999999998</ele>
        <time>2020-02-16T14:24:48Z</time>
      </trkpt>
      <trkpt lat="46.252080146223307" lon="8.014516141265631">
        <ele>2123.9499999999998</ele>
        <time>2020-02-16T14:25:04Z</time>
      </trkpt>
      <trkpt lat="46.252080397680402" lon="8.01451513543725">
        <ele>2124.1700000000001</ele>
        <time>2020-02-16T14:25:19Z</time>
      </trkpt>
      <trkpt lat="46.252084253355861" lon="8.0145229306072">
        <ele>2124.0799999999999</ele>
        <time>2020-02-16T14:25:39Z</time>
      </trkpt>
      <trkpt lat="46.252080900594592" lon="8.014513123780489">
        <ele>2124.0300000000002</ele>
        <time>2020-02-16T14:25:59Z</time>
      </trkpt>
      <trkpt lat="46.25207444652915" lon="8.014508513733745">
        <ele>2124.3200000000002</ele>
        <time>2020-02-16T14:26:24Z</time>
      </trkpt>
      <trkpt lat="46.252048965543509" lon="8.01460012793541">
        <ele>2124.75</ele>
        <time>2020-02-16T14:26:35Z</time>
      </trkpt>
      <trkpt lat="46.252002194523811" lon="8.014819482341409">
        <ele>2122.3400000000001</ele>
        <time>2020-02-16T14:26:52Z</time>
      </trkpt>
      <trkpt lat="46.251958440989256" lon="8.014975804835558">
        <ele>2119.3099999999999</ele>
        <time>2020-02-16T14:27:04Z</time>
      </trkpt>
      <trkpt lat="46.251902868971229" lon="8.015074292197824">
        <ele>2116.0599999999999</ele>
        <time>2020-02-16T14:27:12Z</time>
      </trkpt>
      <trkpt lat="46.251816786825657" lon="8.015257520601153">
        <ele>2112.9899999999998</ele>
        <time>2020-02-16T14:27:26Z</time>
      </trkpt>
      <trkpt lat="46.251758700236678" lon="8.015353577211499">
        <ele>2109.8499999999999</ele>
        <time>2020-02-16T14:27:34Z</time>
      </trkpt>
      <trkpt lat="46.251696338877082" lon="8.015433037653565">
        <ele>2106.6999999999998</ele>
        <time>2020-02-16T14:27:41Z</time>
      </trkpt>
      <trkpt lat="46.251596678048372" lon="8.015617858618498">
        <ele>2104.1399999999999</ele>
        <time>2020-02-16T14:27:56Z</time>
      </trkpt>
      <trkpt lat="46.251564742997289" lon="8.015862023457885">
        <ele>2102.1100000000001</ele>
        <time>2020-02-16T14:28:12Z</time>
      </trkpt>
      <trkpt lat="46.251562898978591" lon="8.016103422269225">
        <ele>2099.8800000000001</ele>
        <time>2020-02-16T14:28:28Z</time>
      </trkpt>
      <trkpt lat="46.251556444913149" lon="8.016126723960042">
        <ele>2097.9899999999998</ele>
        <time>2020-02-16T14:28:42Z</time>
      </trkpt>
      <trkpt lat="46.251558372750878" lon="8.016127813607454">
        <ele>2099.8699999999999</ele>
        <time>2020-02-16T14:28:49Z</time>
      </trkpt>
      <trkpt lat="46.251563569530845" lon="8.016173411160708">
        <ele>2099.3800000000001</ele>
        <time>2020-02-16T14:29:00Z</time>
      </trkpt>
      <trkpt lat="46.251541441306472" lon="8.016390586271882">
        <ele>2096.8000000000002</ele>
        <time>2020-02-16T14:29:15Z</time>
      </trkpt>
      <trkpt lat="46.251494502648711" lon="8.016581190750003">
        <ele>2094.0799999999999</ele>
        <time>2020-02-16T14:29:28Z</time>
      </trkpt>
      <trkpt lat="46.251367432996631" lon="8.016743212938309">
        <ele>2091.4299999999998</ele>
        <time>2020-02-16T14:29:45Z</time>
      </trkpt>
      <trkpt lat="46.251371875405312" lon="8.016763748601079">
        <ele>2091.27</ele>
        <time>2020-02-16T14:29:59Z</time>
      </trkpt>
      <trkpt lat="46.251353770494461" lon="8.016817811876535">
        <ele>2089.6900000000001</ele>
        <time>2020-02-16T14:30:03Z</time>
      </trkpt>
      <trkpt lat="46.251317979767919" lon="8.016896098852158">
        <ele>2087.0500000000002</ele>
        <time>2020-02-16T14:30:09Z</time>
      </trkpt>
      <trkpt lat="46.251268610358238" lon="8.017022917047143">
        <ele>2083.46</ele>
        <time>2020-02-16T14:30:18Z</time>
      </trkpt>
      <trkpt lat="46.251243380829692" lon="8.017214946448803">
        <ele>2082.5100000000002</ele>
        <time>2020-02-16T14:30:32Z</time>
      </trkpt>
      <trkpt lat="46.251247823238373" lon="8.017388954758644">
        <ele>2083.4499999999998</ele>
        <time>2020-02-16T14:30:45Z</time>
      </trkpt>
      <trkpt lat="46.251235082745552" lon="8.017608895897865">
        <ele>2081.3099999999999</ele>
        <time>2020-02-16T14:30:59Z</time>
      </trkpt>
      <trkpt lat="46.251229215413332" lon="8.017809642478824">
        <ele>2078.3499999999999</ele>
        <time>2020-02-16T14:31:12Z</time>
      </trkpt>
      <trkpt lat="46.25124329701066" lon="8.018029918894172">
        <ele>2075.8099999999999</ele>
        <time>2020-02-16T14:31:27Z</time>
      </trkpt>
      <trkpt lat="46.251251343637705" lon="8.018139470368624">
        <ele>2075.8400000000001</ele>
        <time>2020-02-16T14:31:35Z</time>
      </trkpt>
      <trkpt lat="46.251215049996972" lon="8.018359411507845">
        <ele>2074.96</ele>
        <time>2020-02-16T14:31:51Z</time>
      </trkpt>
      <trkpt lat="46.251216223463416" lon="8.018497964367271">
        <ele>2071.54</ele>
        <time>2020-02-16T14:32:04Z</time>
      </trkpt>
      <trkpt lat="46.251252768561244" lon="8.018614305183291">
        <ele>2068.8699999999999</ele>
        <time>2020-02-16T14:32:15Z</time>
      </trkpt>
      <trkpt lat="46.251257378607988" lon="8.018624866381288">
        <ele>2068.6999999999998</ele>
        <time>2020-02-16T14:32:16Z</time>
      </trkpt>
      <trkpt lat="46.251313872635365" lon="8.018770376220346">
        <ele>2065.6300000000001</ele>
        <time>2020-02-16T14:32:30Z</time>
      </trkpt>
      <trkpt lat="46.251343628391623" lon="8.018859559670091">
        <ele>2062.96</ele>
        <time>2020-02-16T14:32:44Z</time>
      </trkpt>
      <trkpt lat="46.251363158226013" lon="8.018893757835031">
        <ele>2062.25</ele>
        <time>2020-02-16T14:32:55Z</time>
      </trkpt>
      <trkpt lat="46.251403139904141" lon="8.018982270732522">
        <ele>2060.3699999999999</ele>
        <time>2020-02-16T14:33:03Z</time>
      </trkpt>
      <trkpt lat="46.251461897045374" lon="8.01912484690547">
        <ele>2056.9299999999998</ele>
        <time>2020-02-16T14:33:14Z</time>
      </trkpt>
      <trkpt lat="46.251438427716494" lon="8.019210677593947">
        <ele>2055.46</ele>
        <time>2020-02-16T14:33:21Z</time>
      </trkpt>
      <trkpt lat="46.251330720260739" lon="8.019191818311811">
        <ele>2052.3800000000001</ele>
        <time>2020-02-16T14:33:32Z</time>
      </trkpt>
      <trkpt lat="46.251311777159572" lon="8.019195254892111">
        <ele>2051.98</ele>
        <time>2020-02-16T14:33:34Z</time>
      </trkpt>
      <trkpt lat="46.251241788268089" lon="8.019227776676416">
        <ele>2048.46</ele>
        <time>2020-02-16T14:33:41Z</time>
      </trkpt>
      <trkpt lat="46.251165429130197" lon="8.019242864102125">
        <ele>2045.1500000000001</ele>
        <time>2020-02-16T14:33:49Z</time>
      </trkpt>
      <trkpt lat="46.251158136874437" lon="8.01924847997725">
        <ele>2044.75</ele>
        <time>2020-02-16T14:33:50Z</time>
      </trkpt>
      <trkpt lat="46.251100720837712" lon="8.019297681748867">
        <ele>2041.3299999999999</ele>
        <time>2020-02-16T14:33:57Z</time>
      </trkpt>
      <trkpt lat="46.251083957031369" lon="8.019317630678415">
        <ele>2040.6800000000001</ele>
        <time>2020-02-16T14:33:59Z</time>
      </trkpt>
      <trkpt lat="46.251054368913174" lon="8.019360629841685">
        <ele>2038.5899999999999</ele>
        <time>2020-02-16T14:34:10Z</time>
      </trkpt>
      <trkpt lat="46.251048417761922" lon="8.019373705610633">
        <ele>2039.4200000000001</ele>
        <time>2020-02-16T14:34:21Z</time>
      </trkpt>
      <trkpt lat="46.25103073194623" lon="8.019386613741517">
        <ele>2039.52</ele>
        <time>2020-02-16T14:34:23Z</time>
      </trkpt>
      <trkpt lat="46.25090709887445" lon="8.019568584859371">
        <ele>2038.1300000000001</ele>
        <time>2020-02-16T14:34:39Z</time>
      </trkpt>
      <trkpt lat="46.250823950394988" lon="8.019733037799597">
        <ele>2038.5899999999999</ele>
        <time>2020-02-16T14:34:54Z</time>
      </trkpt>
      <trkpt lat="46.250722277909517" lon="8.019893886521459">
        <ele>2039.1400000000001</ele>
        <time>2020-02-16T14:35:10Z</time>
      </trkpt>
      <trkpt lat="46.250701993703842" lon="8.019924396649003">
        <ele>2039.7</ele>
        <time>2020-02-16T14:35:23Z</time>
      </trkpt>
      <trkpt lat="46.25069310888648" lon="8.019961947575212">
        <ele>2039.6900000000001</ele>
        <time>2020-02-16T14:35:28Z</time>
      </trkpt>
      <trkpt lat="46.250645332038403" lon="8.020197311416268">
        <ele>2039.6099999999999</ele>
        <time>2020-02-16T14:35:45Z</time>
      </trkpt>
      <trkpt lat="46.250592274591327" lon="8.020404847338796">
        <ele>2038.9100000000001</ele>
        <time>2020-02-16T14:36:00Z</time>
      </trkpt>
      <trkpt lat="46.250536870211363" lon="8.020623447373509">
        <ele>2039.05</ele>
        <time>2020-02-16T14:36:16Z</time>
      </trkpt>
      <trkpt lat="46.250487249344587" lon="8.020783541724086">
        <ele>2041.28</ele>
        <time>2020-02-16T14:36:31Z</time>
      </trkpt>
      <trkpt lat="46.250447602942586" lon="8.020926453173161">
        <ele>2043.1800000000001</ele>
        <time>2020-02-16T14:36:45Z</time>
      </trkpt>
      <trkpt lat="46.250440143048763" lon="8.02094841375947">
        <ele>2043.8399999999999</ele>
        <time>2020-02-16T14:36:56Z</time>
      </trkpt>
      <trkpt lat="46.250425977632403" lon="8.020993173122406">
        <ele>2043.9100000000001</ele>
        <time>2020-02-16T14:37:04Z</time>
      </trkpt>
      <trkpt lat="46.250416170805693" lon="8.021045811474323">
        <ele>2043.48</ele>
        <time>2020-02-16T14:37:08Z</time>
      </trkpt>
      <trkpt lat="46.250343499705195" lon="8.021258544176817">
        <ele>2042.7</ele>
        <time>2020-02-16T14:37:25Z</time>
      </trkpt>
      <trkpt lat="46.250282311812043" lon="8.021443281322718">
        <ele>2040.21</ele>
        <time>2020-02-16T14:37:39Z</time>
      </trkpt>
      <trkpt lat="46.250215088948607" lon="8.021631790325046">
        <ele>2040.03</ele>
        <time>2020-02-16T14:37:54Z</time>
      </trkpt>
      <trkpt lat="46.250150799751282" lon="8.021741425618529">
        <ele>2038.3399999999999</ele>
        <time>2020-02-16T14:38:06Z</time>
      </trkpt>
      <trkpt lat="46.250150967389345" lon="8.021743269637227">
        <ele>2039.52</ele>
        <time>2020-02-16T14:38:18Z</time>
      </trkpt>
      <trkpt lat="46.250151051208377" lon="8.0217429343611">
        <ele>2039.52</ele>
        <time>2020-02-16T14:38:19Z</time>
      </trkpt>
      <trkpt lat="46.250148620456457" lon="8.021745532751083">
        <ele>2038.1099999999999</ele>
        <time>2020-02-16T14:38:33Z</time>
      </trkpt>
      <trkpt lat="46.250148452818394" lon="8.021741090342403">
        <ele>2038.3</ele>
        <time>2020-02-16T14:38:59Z</time>
      </trkpt>
      <trkpt lat="46.250143926590681" lon="8.021797919645906">
        <ele>2038.21</ele>
        <time>2020-02-16T14:39:26Z</time>
      </trkpt>
      <trkpt lat="46.250119786709547" lon="8.021938400343061">
        <ele>2036.71</ele>
        <time>2020-02-16T14:39:37Z</time>
      </trkpt>
      <trkpt lat="46.250118529424071" lon="8.022126071155071">
        <ele>2034.75</ele>
        <time>2020-02-16T14:39:51Z</time>
      </trkpt>
      <trkpt lat="46.250122552737594" lon="8.022359339520335">
        <ele>2031.78</ele>
        <time>2020-02-16T14:40:07Z</time>
      </trkpt>
      <trkpt lat="46.250106710940599" lon="8.022560253739357">
        <ele>2031.9400000000001</ele>
        <time>2020-02-16T14:40:22Z</time>
      </trkpt>
      <trkpt lat="46.250082571059465" lon="8.022791426628828">
        <ele>2029.21</ele>
        <time>2020-02-16T14:40:39Z</time>
      </trkpt>
      <trkpt lat="46.250075781717896" lon="8.022914556786418">
        <ele>2026.1199999999999</ele>
        <time>2020-02-16T14:40:48Z</time>
      </trkpt>
      <trkpt lat="46.25006765127182" lon="8.023011535406113">
        <ele>2022.8</ele>
        <time>2020-02-16T14:40:55Z</time>
      </trkpt>
      <trkpt lat="46.250038063153625" lon="8.023266764357686">
        <ele>2019.8900000000001</ele>
        <time>2020-02-16T14:41:12Z</time>
      </trkpt>
      <trkpt lat="46.250013085082173" lon="8.023458961397409">
        <ele>2017.3900000000001</ele>
        <time>2020-02-16T14:41:27Z</time>
      </trkpt>
      <trkpt lat="46.250015683472157" lon="8.023535488173366">
        <ele>2017.1099999999999</ele>
        <time>2020-02-16T14:41:38Z</time>
      </trkpt>
      <trkpt lat="46.250036051496863" lon="8.023640513420105">
        <ele>2018.1199999999999</ele>
        <time>2020-02-16T14:41:52Z</time>
      </trkpt>
      <trkpt lat="46.250021299347281" lon="8.02370429970324">
        <ele>2018.4200000000001</ele>
        <time>2020-02-16T14:42:08Z</time>
      </trkpt>
      <trkpt lat="46.250014677643776" lon="8.023737156763673">
        <ele>2017.6900000000001</ele>
        <time>2020-02-16T14:42:19Z</time>
      </trkpt>
      <trkpt lat="46.249994812533259" lon="8.023730367422104">
        <ele>2018.3099999999999</ele>
        <time>2020-02-16T14:42:44Z</time>
      </trkpt>
      <trkpt lat="46.249977881088853" lon="8.023704718798399">
        <ele>2014.8199999999999</ele>
        <time>2020-02-16T14:42:49Z</time>
      </trkpt>
      <trkpt lat="46.249974276870489" lon="8.023698013275862">
        <ele>2014.54</ele>
        <time>2020-02-16T14:42:50Z</time>
      </trkpt>
      <trkpt lat="46.249965224415064" lon="8.023673370480537">
        <ele>2013.53</ele>
        <time>2020-02-16T14:43:00Z</time>
      </trkpt>
      <trkpt lat="46.249958351254463" lon="8.02366565912962">
        <ele>2013.05</ele>
        <time>2020-02-16T14:43:21Z</time>
      </trkpt>
      <trkpt lat="46.249948292970657" lon="8.023629868403077">
        <ele>2012.3800000000001</ele>
        <time>2020-02-16T14:43:46Z</time>
      </trkpt>
      <trkpt lat="46.249907640740275" lon="8.023566165938973">
        <ele>2010.1300000000001</ele>
        <time>2020-02-16T14:43:56Z</time>
      </trkpt>
      <trkpt lat="46.249863216653466" lon="8.023539343848825">
        <ele>2008.3</ele>
        <time>2020-02-16T14:44:06Z</time>
      </trkpt>
      <trkpt lat="46.249858606606722" lon="8.02354889921844">
        <ele>2007.9400000000001</ele>
        <time>2020-02-16T14:44:08Z</time>
      </trkpt>
      <trkpt lat="46.249846033751965" lon="8.023585192859173">
        <ele>2006.46</ele>
        <time>2020-02-16T14:44:11Z</time>
      </trkpt>
      <trkpt lat="46.249783169478178" lon="8.023677226155996">
        <ele>2003.1800000000001</ele>
        <time>2020-02-16T14:44:22Z</time>
      </trkpt>
      <trkpt lat="46.249778978526592" lon="8.023684518411756">
        <ele>2003.0599999999999</ele>
        <time>2020-02-16T14:44:34Z</time>
      </trkpt>
      <trkpt lat="46.249780235812068" lon="8.023684183135629">
        <ele>2002.26</ele>
        <time>2020-02-16T14:44:57Z</time>
      </trkpt>
      <trkpt lat="46.24978325329721" lon="8.023686027154326">
        <ele>2001.3099999999999</ele>
        <time>2020-02-16T14:45:18Z</time>
      </trkpt>
      <trkpt lat="46.249783420935273" lon="8.023681165650487">
        <ele>2002.5999999999999</ele>
        <time>2020-02-16T14:45:33Z</time>
      </trkpt>
      <trkpt lat="46.249782750383019" lon="8.023678734898567">
        <ele>2002.3399999999999</ele>
        <time>2020-02-16T14:45:57Z</time>
      </trkpt>
      <trkpt lat="46.249781576916575" lon="8.023678483441472">
        <ele>2000.79</ele>
        <time>2020-02-16T14:46:03Z</time>
      </trkpt>
      <trkpt lat="46.249779649078846" lon="8.023678567260504">
        <ele>2002.29</ele>
        <time>2020-02-16T14:46:06Z</time>
      </trkpt>
      <trkpt lat="46.249777805060148" lon="8.023680662736297">
        <ele>1997.77</ele>
        <time>2020-02-16T14:46:17Z</time>
      </trkpt>
      <trkpt lat="46.24977788887918" lon="8.023681668564677">
        <ele>1998.55</ele>
        <time>2020-02-16T14:46:18Z</time>
      </trkpt>
      <trkpt lat="46.249778727069497" lon="8.023683512583375">
        <ele>2000.9100000000001</ele>
        <time>2020-02-16T14:46:21Z</time>
      </trkpt>
      <trkpt lat="46.249778559431434" lon="8.023683596402407">
        <ele>2006.5999999999999</ele>
        <time>2020-02-16T14:46:24Z</time>
      </trkpt>
      <trkpt lat="46.249778056517243" lon="8.023683596402407">
        <ele>2004.1099999999999</ele>
        <time>2020-02-16T14:46:25Z</time>
      </trkpt>
      <trkpt lat="46.249777050688863" lon="8.023684853687882">
        <ele>2001.6800000000001</ele>
        <time>2020-02-16T14:46:28Z</time>
      </trkpt>
      <trkpt lat="46.249778727069497" lon="8.023687787353993">
        <ele>2001.6700000000001</ele>
        <time>2020-02-16T14:46:46Z</time>
      </trkpt>
      <trkpt lat="46.249762801453471" lon="8.023727601394057">
        <ele>2001.3699999999999</ele>
        <time>2020-02-16T14:46:51Z</time>
      </trkpt>
      <trkpt lat="46.249750647693872" lon="8.023750064894557">
        <ele>2000.74</ele>
        <time>2020-02-16T14:46:53Z</time>
      </trkpt>
      <trkpt lat="46.249676300212741" lon="8.02392465993762">
        <ele>2000.97</ele>
        <time>2020-02-16T14:47:07Z</time>
      </trkpt>
      <trkpt lat="46.24960002489388" lon="8.024080479517579">
        <ele>1999.25</ele>
        <time>2020-02-16T14:47:20Z</time>
      </trkpt>
      <trkpt lat="46.249435236677527" lon="8.024145858362317">
        <ele>1997.77</ele>
        <time>2020-02-16T14:47:36Z</time>
      </trkpt>
      <trkpt lat="46.249371450394392" lon="8.024170668795705">
        <ele>1997.1400000000001</ele>
        <time>2020-02-16T14:47:48Z</time>
      </trkpt>
      <trkpt lat="46.249313866719604" lon="8.024178128689528">
        <ele>1996.9000000000001</ele>
        <time>2020-02-16T14:47:54Z</time>
      </trkpt>
      <trkpt lat="46.249163327738643" lon="8.024186678230763">
        <ele>1995.8699999999999</ele>
        <time>2020-02-16T14:48:09Z</time>
      </trkpt>
      <trkpt lat="46.249021170660853" lon="8.024240238592029">
        <ele>1995.8900000000001</ele>
        <time>2020-02-16T14:48:25Z</time>
      </trkpt>
      <trkpt lat="46.248924611136317" lon="8.024287177249789">
        <ele>1997.6400000000001</ele>
        <time>2020-02-16T14:48:39Z</time>
      </trkpt>
      <trkpt lat="46.248784298077226" lon="8.024344677105546">
        <ele>1997.75</ele>
        <time>2020-02-16T14:48:54Z</time>
      </trkpt>
      <trkpt lat="46.248687235638499" lon="8.024377785623074">
        <ele>1994.5</ele>
        <time>2020-02-16T14:49:05Z</time>
      </trkpt>
      <trkpt lat="46.248527392745018" lon="8.024404356256127">
        <ele>1992.22</ele>
        <time>2020-02-16T14:49:20Z</time>
      </trkpt>
      <trkpt lat="46.248369812965393" lon="8.024438386783004">
        <ele>1992.23</ele>
        <time>2020-02-16T14:49:36Z</time>
      </trkpt>
      <trkpt lat="46.24821525067091" lon="8.024481888860464">
        <ele>1992.05</ele>
        <time>2020-02-16T14:49:52Z</time>
      </trkpt>
      <trkpt lat="46.248104190453887" lon="8.024502173066139">
        <ele>1991.0999999999999</ele>
        <time>2020-02-16T14:50:04Z</time>
      </trkpt>
      <trkpt lat="46.247960608452559" lon="8.024528743699193">
        <ele>1991.4100000000001</ele>
        <time>2020-02-16T14:50:20Z</time>
      </trkpt>
      <trkpt lat="46.247916771098971" lon="8.02453444339335">
        <ele>1991.6199999999999</ele>
        <time>2020-02-16T14:50:25Z</time>
      </trkpt>
      <trkpt lat="46.247785929590464" lon="8.02459311671555">
        <ele>1991.6800000000001</ele>
        <time>2020-02-16T14:50:40Z</time>
      </trkpt>
      <trkpt lat="46.247777044773102" lon="8.024598900228739">
        <ele>1991.6400000000001</ele>
        <time>2020-02-16T14:50:41Z</time>
      </trkpt>
      <trkpt lat="46.247640838846564" lon="8.024701997637749">
        <ele>1990.1099999999999</ele>
        <time>2020-02-16T14:50:56Z</time>
      </trkpt>
      <trkpt lat="46.247511841356754" lon="8.024791600182653">
        <ele>1988.73</ele>
        <time>2020-02-16T14:51:11Z</time>
      </trkpt>
      <trkpt lat="46.247357865795493" lon="8.02485404536128">
        <ele>1986.73</ele>
        <time>2020-02-16T14:51:27Z</time>
      </trkpt>
      <trkpt lat="46.247202046215534" lon="8.024901486933231">
        <ele>1986.4100000000001</ele>
        <time>2020-02-16T14:51:44Z</time>
      </trkpt>
      <trkpt lat="46.24711437150836" lon="8.024927638471127">
        <ele>1985.97</ele>
        <time>2020-02-16T14:51:53Z</time>
      </trkpt>
      <trkpt lat="46.247088303789496" lon="8.024940965697169">
        <ele>1986.1400000000001</ele>
        <time>2020-02-16T14:51:56Z</time>
      </trkpt>
      <trkpt lat="46.24693600460887" lon="8.02496493794024">
        <ele>1985.3</ele>
        <time>2020-02-16T14:52:11Z</time>
      </trkpt>
      <trkpt lat="46.246802229434252" lon="8.024990502744913">
        <ele>1985.6900000000001</ele>
        <time>2020-02-16T14:52:26Z</time>
      </trkpt>
      <trkpt lat="46.246681110933423" lon="8.02504213526845">
        <ele>1985.8699999999999</ele>
        <time>2020-02-16T14:52:40Z</time>
      </trkpt>
      <trkpt lat="46.246563093736768" lon="8.025130061432719">
        <ele>1985.4100000000001</ele>
        <time>2020-02-16T14:52:54Z</time>
      </trkpt>
      <trkpt lat="46.246453290805221" lon="8.025174988433719">
        <ele>1986.9100000000001</ele>
        <time>2020-02-16T14:53:09Z</time>
      </trkpt>
      <trkpt lat="46.246367627754807" lon="8.025211533531547">
        <ele>1988.8699999999999</ele>
        <time>2020-02-16T14:53:23Z</time>
      </trkpt>
      <trkpt lat="46.246300488710403" lon="8.02524003200233">
        <ele>1989.9300000000001</ele>
        <time>2020-02-16T14:53:35Z</time>
      </trkpt>
      <trkpt lat="46.246278360486031" lon="8.025249419733882">
        <ele>1990.1400000000001</ele>
        <time>2020-02-16T14:53:45Z</time>
      </trkpt>
      <trkpt lat="46.246275929734111" lon="8.025253778323531">
        <ele>1989.73</ele>
        <time>2020-02-16T14:53:51Z</time>
      </trkpt>
      <trkpt lat="46.246276013553143" lon="8.025259394198656">
        <ele>1988.3099999999999</ele>
        <time>2020-02-16T14:54:04Z</time>
      </trkpt>
      <trkpt lat="46.246279701590538" lon="8.025246569886804">
        <ele>1988.1700000000001</ele>
        <time>2020-02-16T14:54:34Z</time>
      </trkpt>
      <trkpt lat="46.246278444305062" lon="8.025246066972613">
        <ele>1988.0899999999999</ele>
        <time>2020-02-16T14:55:31Z</time>
      </trkpt>
      <trkpt lat="46.246275678277016" lon="8.025254532694817">
        <ele>1989.9200000000001</ele>
        <time>2020-02-16T14:55:48Z</time>
      </trkpt>
      <trkpt lat="46.246256735175848" lon="8.025258053094149">
        <ele>1990.28</ele>
        <time>2020-02-16T14:55:59Z</time>
      </trkpt>
      <trkpt lat="46.246236618608236" lon="8.025256711989641">
        <ele>1990.8699999999999</ele>
        <time>2020-02-16T14:56:02Z</time>
      </trkpt>
      <trkpt lat="46.246190601959825" lon="8.025217149406672">
        <ele>1989.4000000000001</ele>
        <time>2020-02-16T14:56:10Z</time>
      </trkpt>
      <trkpt lat="46.246156822890043" lon="8.025163672864437">
        <ele>1989.6400000000001</ele>
        <time>2020-02-16T14:56:14Z</time>
      </trkpt>
      <trkpt lat="46.246101250872016" lon="8.02501916885376">
        <ele>1988.8</ele>
        <time>2020-02-16T14:56:24Z</time>
      </trkpt>
      <trkpt lat="46.246071243658662" lon="8.024937277659774">
        <ele>1988.04</ele>
        <time>2020-02-16T14:56:30Z</time>
      </trkpt>
      <trkpt lat="46.245994633063674" lon="8.024685485288501">
        <ele>1989.28</ele>
        <time>2020-02-16T14:56:47Z</time>
      </trkpt>
      <trkpt lat="46.245908048003912" lon="8.024436961859465">
        <ele>1989.3499999999999</ele>
        <time>2020-02-16T14:57:04Z</time>
      </trkpt>
      <trkpt lat="46.245824815705419" lon="8.02421878091991">
        <ele>1989.1900000000001</ele>
        <time>2020-02-16T14:57:20Z</time>
      </trkpt>
      <trkpt lat="46.245772931724787" lon="8.024226408451796">
        <ele>1990.1700000000001</ele>
        <time>2020-02-16T14:57:30Z</time>
      </trkpt>
      <trkpt lat="46.245780559256673" lon="8.024216182529926">
        <ele>1988.53</ele>
        <time>2020-02-16T14:57:42Z</time>
      </trkpt>
      <trkpt lat="46.245792210102081" lon="8.024215176701546">
        <ele>1989.1199999999999</ele>
        <time>2020-02-16T14:58:23Z</time>
      </trkpt>
      <trkpt lat="46.245792545378208" lon="8.024203358218074">
        <ele>1988.8199999999999</ele>
        <time>2020-02-16T14:58:45Z</time>
      </trkpt>
      <trkpt lat="46.245791874825954" lon="8.024208303540945">
        <ele>1988.79</ele>
        <time>2020-02-16T14:59:19Z</time>
      </trkpt>
    </trkseg>
  </trk>

</gpx>